﻿<?xml version="1.0" encoding="utf-8"?><gpx creator="Garmin Desktop App" version="1.1" xsi:schemaLocation="http://www.topografix.com/GPX/1/1 http://www.topografix.com/GPX/1/1/gpx.xsd http://www.garmin.com/xmlschemas/WaypointExtension/v1 http://www8.garmin.com/xmlschemas/WaypointExtensionv1.xsd http://www.garmin.com/xmlschemas/TrackPointExtension/v1 http://www.garmin.com/xmlschemas/TrackPointExtensionv1.xsd http://www.garmin.com/xmlschemas/GpxExtensions/v3 http://www8.garmin.com/xmlschemas/GpxExtensionsv3.xsd http://www.garmin.com/xmlschemas/ActivityExtension/v1 http://www8.garmin.com/xmlschemas/ActivityExtensionv1.xsd http://www.garmin.com/xmlschemas/AdventuresExtensions/v1 http://www8.garmin.com/xmlschemas/AdventuresExtensionv1.xsd http://www.garmin.com/xmlschemas/PressureExtension/v1 http://www.garmin.com/xmlschemas/PressureExtensionv1.xsd http://www.garmin.com/xmlschemas/TripExtensions/v1 http://www.garmin.com/xmlschemas/TripExtensionsv1.xsd http://www.garmin.com/xmlschemas/TripMetaDataExtensions/v1 http://www.garmin.com/xmlschemas/TripMetaDataExtensionsv1.xsd http://www.garmin.com/xmlschemas/ViaPointTransportationModeExtensions/v1 http://www.garmin.com/xmlschemas/ViaPointTransportationModeExtensionsv1.xsd http://www.garmin.com/xmlschemas/CreationTimeExtension/v1 http://www.garmin.com/xmlschemas/CreationTimeExtensionsv1.xsd http://www.garmin.com/xmlschemas/AccelerationExtension/v1 http://www.garmin.com/xmlschemas/AccelerationExtensionv1.xsd http://www.garmin.com/xmlschemas/PowerExtension/v1 http://www.garmin.com/xmlschemas/PowerExtensionv1.xsd http://www.garmin.com/xmlschemas/VideoExtension/v1 http://www.garmin.com/xmlschemas/VideoExtensionv1.xsd" xmlns="http://www.topografix.com/GPX/1/1" xmlns:xsi="http://www.w3.org/2001/XMLSchema-instance" xmlns:wptx1="http://www.garmin.com/xmlschemas/WaypointExtension/v1" xmlns:gpxtrx="http://www.garmin.com/xmlschemas/GpxExtensions/v3" xmlns:gpxtpx="http://www.garmin.com/xmlschemas/TrackPointExtension/v1" xmlns:gpxx="http://www.garmin.com/xmlschemas/GpxExtensions/v3" xmlns:trp="http://www.garmin.com/xmlschemas/TripExtensions/v1" xmlns:adv="http://www.garmin.com/xmlschemas/AdventuresExtensions/v1" xmlns:prs="http://www.garmin.com/xmlschemas/PressureExtension/v1" xmlns:tmd="http://www.garmin.com/xmlschemas/TripMetaDataExtensions/v1" xmlns:vptm="http://www.garmin.com/xmlschemas/ViaPointTransportationModeExtensions/v1" xmlns:ctx="http://www.garmin.com/xmlschemas/CreationTimeExtension/v1" xmlns:gpxacc="http://www.garmin.com/xmlschemas/AccelerationExtension/v1" xmlns:gpxpx="http://www.garmin.com/xmlschemas/PowerExtension/v1" xmlns:vidx1="http://www.garmin.com/xmlschemas/VideoExtension/v1">

  <metadata>
    <link href="http://www.garmin.com">
      <text>Garmin International</text>
    </link>
    <time>2023-03-13T14:55:45Z</time>
    <bounds maxlat="46.733619058504701" maxlon="12.354955784976482" minlat="46.70124395750463" minlon="12.272190107032657" />
  </metadata>

  <trk>
    <name>Baita del Cacciatore2023-03-12</name>
    <extensions>
      <gpxx:TrackExtension>
        <gpxx:DisplayColor>Yellow</gpxx:DisplayColor>
      </gpxx:TrackExtension>
    </extensions>
    <trkseg>
      <trkpt lat="46.732871560379863" lon="12.272360511124134">
        <ele>1187.71</ele>
        <time>2023-03-12T07:13:19Z</time>
      </trkpt>
      <trkpt lat="46.732778772711754" lon="12.272190107032657">
        <ele>1188.1199999999999</ele>
        <time>2023-03-12T07:13:31Z</time>
      </trkpt>
      <trkpt lat="46.732707023620605" lon="12.27228163741529">
        <ele>1189.6700000000001</ele>
        <time>2023-03-12T07:13:40Z</time>
      </trkpt>
      <trkpt lat="46.732802242040634" lon="12.27251130156219">
        <ele>1193.21</ele>
        <time>2023-03-12T07:13:55Z</time>
      </trkpt>
      <trkpt lat="46.732810707762837" lon="12.272656476125121">
        <ele>1191.05</ele>
        <time>2023-03-12T07:14:06Z</time>
      </trkpt>
      <trkpt lat="46.73271993175149" lon="12.272760327905416">
        <ele>1187.3399999999999</ele>
        <time>2023-03-12T07:14:18Z</time>
      </trkpt>
      <trkpt lat="46.732684811577201" lon="12.272765692323446">
        <ele>1186.0699999999999</ele>
        <time>2023-03-12T07:14:32Z</time>
      </trkpt>
      <trkpt lat="46.732640219852328" lon="12.272766781970859">
        <ele>1184.3699999999999</ele>
        <time>2023-03-12T07:14:42Z</time>
      </trkpt>
      <trkpt lat="46.732620019465685" lon="12.272783713415265">
        <ele>1180.99</ele>
        <time>2023-03-12T07:15:05Z</time>
      </trkpt>
      <trkpt lat="46.732623791322112" lon="12.272815480828285">
        <ele>1181</ele>
        <time>2023-03-12T07:15:07Z</time>
      </trkpt>
      <trkpt lat="46.732618259266019" lon="12.272871388122439">
        <ele>1180.8499999999999</ele>
        <time>2023-03-12T07:15:11Z</time>
      </trkpt>
      <trkpt lat="46.732625048607588" lon="12.272956632077694">
        <ele>1180.71</ele>
        <time>2023-03-12T07:15:16Z</time>
      </trkpt>
      <trkpt lat="46.732692439109087" lon="12.273149499669671">
        <ele>1180.5899999999999</ele>
        <time>2023-03-12T07:15:29Z</time>
      </trkpt>
      <trkpt lat="46.732764355838299" lon="12.273318814113736">
        <ele>1180.3399999999999</ele>
        <time>2023-03-12T07:15:40Z</time>
      </trkpt>
      <trkpt lat="46.732883797958493" lon="12.273611593991518">
        <ele>1179.8</ele>
        <time>2023-03-12T07:15:58Z</time>
      </trkpt>
      <trkpt lat="46.732963928952813" lon="12.273869169875979">
        <ele>1178.4400000000001</ele>
        <time>2023-03-12T07:16:14Z</time>
      </trkpt>
      <trkpt lat="46.733041796833277" lon="12.274115262553096">
        <ele>1177.8099999999999</ele>
        <time>2023-03-12T07:16:29Z</time>
      </trkpt>
      <trkpt lat="46.733133243396878" lon="12.274391278624535">
        <ele>1177.9000000000001</ele>
        <time>2023-03-12T07:16:46Z</time>
      </trkpt>
      <trkpt lat="46.733234664425254" lon="12.274709371849895">
        <ele>1178.5799999999999</ele>
        <time>2023-03-12T07:17:06Z</time>
      </trkpt>
      <trkpt lat="46.733315549790859" lon="12.274964600801468">
        <ele>1177.78</ele>
        <time>2023-03-12T07:17:22Z</time>
      </trkpt>
      <trkpt lat="46.733404397964478" lon="12.27527154609561">
        <ele>1178.9400000000001</ele>
        <time>2023-03-12T07:17:40Z</time>
      </trkpt>
      <trkpt lat="46.733486456796527" lon="12.275535659864545">
        <ele>1179.1600000000001</ele>
        <time>2023-03-12T07:17:56Z</time>
      </trkpt>
      <trkpt lat="46.733563570305705" lon="12.275791056454182">
        <ele>1179.4300000000001</ele>
        <time>2023-03-12T07:18:12Z</time>
      </trkpt>
      <trkpt lat="46.733619058504701" lon="12.276081573218107">
        <ele>1179.8800000000001</ele>
        <time>2023-03-12T07:18:30Z</time>
      </trkpt>
      <trkpt lat="46.733611179515719" lon="12.276093726977706">
        <ele>1179.74</ele>
        <time>2023-03-12T07:18:31Z</time>
      </trkpt>
      <trkpt lat="46.73344018869102" lon="12.276110574603081">
        <ele>1177.6800000000001</ele>
        <time>2023-03-12T07:18:45Z</time>
      </trkpt>
      <trkpt lat="46.733254780992866" lon="12.276073694229126">
        <ele>1174.1700000000001</ele>
        <time>2023-03-12T07:18:59Z</time>
      </trkpt>
      <trkpt lat="46.733101895079017" lon="12.276033125817776">
        <ele>1171.76</ele>
        <time>2023-03-12T07:19:11Z</time>
      </trkpt>
      <trkpt lat="46.732925456017256" lon="12.275998927652836">
        <ele>1169.78</ele>
        <time>2023-03-12T07:19:25Z</time>
      </trkpt>
      <trkpt lat="46.73278933390975" lon="12.275975374504924">
        <ele>1169.9000000000001</ele>
        <time>2023-03-12T07:19:38Z</time>
      </trkpt>
      <trkpt lat="46.732674837112427" lon="12.275950396433473">
        <ele>1169.3900000000001</ele>
        <time>2023-03-12T07:19:47Z</time>
      </trkpt>
      <trkpt lat="46.73261440359056" lon="12.275967160239816">
        <ele>1170.1199999999999</ele>
        <time>2023-03-12T07:19:53Z</time>
      </trkpt>
      <trkpt lat="46.732466630637646" lon="12.276101689785719">
        <ele>1171.6199999999999</ele>
        <time>2023-03-12T07:20:06Z</time>
      </trkpt>
      <trkpt lat="46.732332855463028" lon="12.276191040873528">
        <ele>1172.71</ele>
        <time>2023-03-12T07:20:18Z</time>
      </trkpt>
      <trkpt lat="46.732162367552519" lon="12.27632649242878">
        <ele>1175.0999999999999</ele>
        <time>2023-03-12T07:20:34Z</time>
      </trkpt>
      <trkpt lat="46.731998836621642" lon="12.276417352259159">
        <ele>1176.3099999999999</ele>
        <time>2023-03-12T07:20:47Z</time>
      </trkpt>
      <trkpt lat="46.731915604323149" lon="12.276497483253479">
        <ele>1176.97</ele>
        <time>2023-03-12T07:20:57Z</time>
      </trkpt>
      <trkpt lat="46.731894481927156" lon="12.276514330878854">
        <ele>1177.47</ele>
        <time>2023-03-12T07:20:59Z</time>
      </trkpt>
      <trkpt lat="46.731863217428327" lon="12.276585744693875">
        <ele>1177.6700000000001</ele>
        <time>2023-03-12T07:21:04Z</time>
      </trkpt>
      <trkpt lat="46.73189171589911" lon="12.276755813509226">
        <ele>1178.5599999999999</ele>
        <time>2023-03-12T07:21:14Z</time>
      </trkpt>
      <trkpt lat="46.731886602938175" lon="12.276997296139598">
        <ele>1178</ele>
        <time>2023-03-12T07:21:28Z</time>
      </trkpt>
      <trkpt lat="46.731912335380912" lon="12.277262331917882">
        <ele>1176.8199999999999</ele>
        <time>2023-03-12T07:21:43Z</time>
      </trkpt>
      <trkpt lat="46.73189515247941" lon="12.277549663558602">
        <ele>1175.01</ele>
        <time>2023-03-12T07:21:59Z</time>
      </trkpt>
      <trkpt lat="46.731887776404619" lon="12.277805311605334">
        <ele>1176.3800000000001</ele>
        <time>2023-03-12T07:22:13Z</time>
      </trkpt>
      <trkpt lat="46.731867073103786" lon="12.277965992689133">
        <ele>1177.0899999999999</ele>
        <time>2023-03-12T07:22:22Z</time>
      </trkpt>
      <trkpt lat="46.731859026476741" lon="12.277984265238047">
        <ele>1177.22</ele>
        <time>2023-03-12T07:22:23Z</time>
      </trkpt>
      <trkpt lat="46.731853578239679" lon="12.278231531381607">
        <ele>1178.45</ele>
        <time>2023-03-12T07:22:36Z</time>
      </trkpt>
      <trkpt lat="46.731834718957543" lon="12.278577871620655">
        <ele>1178.71</ele>
        <time>2023-03-12T07:22:54Z</time>
      </trkpt>
      <trkpt lat="46.731873191893101" lon="12.278837375342846">
        <ele>1179.0899999999999</ele>
        <time>2023-03-12T07:23:09Z</time>
      </trkpt>
      <trkpt lat="46.731847459450364" lon="12.278909794986248">
        <ele>1178.1099999999999</ele>
        <time>2023-03-12T07:23:14Z</time>
      </trkpt>
      <trkpt lat="46.731757773086429" lon="12.279166532680392">
        <ele>1177.22</ele>
        <time>2023-03-12T07:23:30Z</time>
      </trkpt>
      <trkpt lat="46.731720557436347" lon="12.279305504634976">
        <ele>1177.5799999999999</ele>
        <time>2023-03-12T07:23:38Z</time>
      </trkpt>
      <trkpt lat="46.731665069237351" lon="12.279561320319772">
        <ele>1177.53</ele>
        <time>2023-03-12T07:23:53Z</time>
      </trkpt>
      <trkpt lat="46.731539592146873" lon="12.279729628935456">
        <ele>1178.02</ele>
        <time>2023-03-12T07:24:07Z</time>
      </trkpt>
      <trkpt lat="46.73139676451683" lon="12.27988863363862">
        <ele>1179.3699999999999</ele>
        <time>2023-03-12T07:24:21Z</time>
      </trkpt>
      <trkpt lat="46.731388801708817" lon="12.279901290312409">
        <ele>1179.3299999999999</ele>
        <time>2023-03-12T07:24:22Z</time>
      </trkpt>
      <trkpt lat="46.731200376525521" lon="12.280022911727428">
        <ele>1177.22</ele>
        <time>2023-03-12T07:24:39Z</time>
      </trkpt>
      <trkpt lat="46.731035420671105" lon="12.280127350240946">
        <ele>1175.03</ele>
        <time>2023-03-12T07:24:53Z</time>
      </trkpt>
      <trkpt lat="46.730912122875452" lon="12.28026581928134">
        <ele>1176.73</ele>
        <time>2023-03-12T07:25:06Z</time>
      </trkpt>
      <trkpt lat="46.730772480368614" lon="12.280373526737094">
        <ele>1178.1300000000001</ele>
        <time>2023-03-12T07:25:18Z</time>
      </trkpt>
      <trkpt lat="46.730666030198336" lon="12.280500512570143">
        <ele>1179.25</ele>
        <time>2023-03-12T07:25:29Z</time>
      </trkpt>
      <trkpt lat="46.730580702424049" lon="12.280612410977483">
        <ele>1178.96</ele>
        <time>2023-03-12T07:25:39Z</time>
      </trkpt>
      <trkpt lat="46.730404598638415" lon="12.280699415132403">
        <ele>1180.4100000000001</ele>
        <time>2023-03-12T07:25:54Z</time>
      </trkpt>
      <trkpt lat="46.730340728536248" lon="12.280725566670299">
        <ele>1182.5699999999999</ele>
        <time>2023-03-12T07:26:04Z</time>
      </trkpt>
      <trkpt lat="46.730327568948269" lon="12.280742498114705">
        <ele>1182.9300000000001</ele>
        <time>2023-03-12T07:26:07Z</time>
      </trkpt>
      <trkpt lat="46.730189016088843" lon="12.280841991305351">
        <ele>1183.3499999999999</ele>
        <time>2023-03-12T07:26:21Z</time>
      </trkpt>
      <trkpt lat="46.730062533169985" lon="12.280937964096665">
        <ele>1182.0799999999999</ele>
        <time>2023-03-12T07:26:34Z</time>
      </trkpt>
      <trkpt lat="46.729906965047121" lon="12.281011808663607">
        <ele>1179.6099999999999</ele>
        <time>2023-03-12T07:26:48Z</time>
      </trkpt>
      <trkpt lat="46.729886513203382" lon="12.281032428145409">
        <ele>1179.1600000000001</ele>
        <time>2023-03-12T07:26:50Z</time>
      </trkpt>
      <trkpt lat="46.729834210127592" lon="12.281077522784472">
        <ele>1178.04</ele>
        <time>2023-03-12T07:26:56Z</time>
      </trkpt>
      <trkpt lat="46.72966062091291" lon="12.281150612980127">
        <ele>1176.1700000000001</ele>
        <time>2023-03-12T07:27:09Z</time>
      </trkpt>
      <trkpt lat="46.729592308402061" lon="12.281197132542729">
        <ele>1176.03</ele>
        <time>2023-03-12T07:27:15Z</time>
      </trkpt>
      <trkpt lat="46.729491055011749" lon="12.281270725652575">
        <ele>1176.72</ele>
        <time>2023-03-12T07:27:25Z</time>
      </trkpt>
      <trkpt lat="46.729343449696898" lon="12.28131883777678">
        <ele>1178.3800000000001</ele>
        <time>2023-03-12T07:27:37Z</time>
      </trkpt>
      <trkpt lat="46.729222079738975" lon="12.281402237713337">
        <ele>1179.1199999999999</ele>
        <time>2023-03-12T07:27:50Z</time>
      </trkpt>
      <trkpt lat="46.729046059772372" lon="12.281441884115338">
        <ele>1179.72</ele>
        <time>2023-03-12T07:28:05Z</time>
      </trkpt>
      <trkpt lat="46.728886719793081" lon="12.281449344009161">
        <ele>1179.48</ele>
        <time>2023-03-12T07:28:17Z</time>
      </trkpt>
      <trkpt lat="46.728848414495587" lon="12.281471975147724">
        <ele>1179.25</ele>
        <time>2023-03-12T07:28:21Z</time>
      </trkpt>
      <trkpt lat="46.728744395077229" lon="12.281538359820843">
        <ele>1178.51</ele>
        <time>2023-03-12T07:28:31Z</time>
      </trkpt>
      <trkpt lat="46.728630065917969" lon="12.281650174409151">
        <ele>1177.8199999999999</ele>
        <time>2023-03-12T07:28:41Z</time>
      </trkpt>
      <trkpt lat="46.728613050654531" lon="12.281668446958065">
        <ele>1177.77</ele>
        <time>2023-03-12T07:28:43Z</time>
      </trkpt>
      <trkpt lat="46.728519592434168" lon="12.28178252466023">
        <ele>1178.3399999999999</ele>
        <time>2023-03-12T07:28:54Z</time>
      </trkpt>
      <trkpt lat="46.728607015684247" lon="12.281923340633512">
        <ele>1181</ele>
        <time>2023-03-12T07:32:27Z</time>
      </trkpt>
      <trkpt lat="46.728608105331659" lon="12.281945804134011">
        <ele>1183.74</ele>
        <time>2023-03-12T07:32:43Z</time>
      </trkpt>
      <trkpt lat="46.72860031016171" lon="12.282014032825828">
        <ele>1187.9300000000001</ele>
        <time>2023-03-12T07:33:27Z</time>
      </trkpt>
      <trkpt lat="46.728647835552692" lon="12.282125679776073">
        <ele>1187.96</ele>
        <time>2023-03-12T07:33:43Z</time>
      </trkpt>
      <trkpt lat="46.72866384498775" lon="12.282176474109292">
        <ele>1188.97</ele>
        <time>2023-03-12T07:33:56Z</time>
      </trkpt>
      <trkpt lat="46.728682117536664" lon="12.282310919836164">
        <ele>1189.0599999999999</ele>
        <time>2023-03-12T07:34:15Z</time>
      </trkpt>
      <trkpt lat="46.728726206347346" lon="12.282425248995423">
        <ele>1189.4000000000001</ele>
        <time>2023-03-12T07:34:30Z</time>
      </trkpt>
      <trkpt lat="46.728812707588077" lon="12.282496243715286">
        <ele>1198.6300000000001</ele>
        <time>2023-03-12T07:35:38Z</time>
      </trkpt>
      <trkpt lat="46.728857802227139" lon="12.282540667802095">
        <ele>1199.8399999999999</ele>
        <time>2023-03-12T07:35:48Z</time>
      </trkpt>
      <trkpt lat="46.728876158595085" lon="12.282605795189738">
        <ele>1201.6600000000001</ele>
        <time>2023-03-12T07:36:00Z</time>
      </trkpt>
      <trkpt lat="46.728759231045842" lon="12.282737055793405">
        <ele>1201.1800000000001</ele>
        <time>2023-03-12T07:36:17Z</time>
      </trkpt>
      <trkpt lat="46.728748250752687" lon="12.282898826524615">
        <ele>1207.1099999999999</ele>
        <time>2023-03-12T07:37:02Z</time>
      </trkpt>
      <trkpt lat="46.728754872456193" lon="12.282985914498568">
        <ele>1207.01</ele>
        <time>2023-03-12T07:37:13Z</time>
      </trkpt>
      <trkpt lat="46.728768367320299" lon="12.283090353012085">
        <ele>1210.47</ele>
        <time>2023-03-12T07:38:00Z</time>
      </trkpt>
      <trkpt lat="46.72866677865386" lon="12.283291015774012">
        <ele>1215.96</ele>
        <time>2023-03-12T07:41:22Z</time>
      </trkpt>
      <trkpt lat="46.728583546355367" lon="12.283455552533269">
        <ele>1214.8800000000001</ele>
        <time>2023-03-12T07:41:37Z</time>
      </trkpt>
      <trkpt lat="46.728514060378075" lon="12.283531073480844">
        <ele>1214.5699999999999</ele>
        <time>2023-03-12T07:41:48Z</time>
      </trkpt>
      <trkpt lat="46.728447591885924" lon="12.283602738752961">
        <ele>1215.29</ele>
        <time>2023-03-12T07:41:58Z</time>
      </trkpt>
      <trkpt lat="46.728412387892604" lon="12.283638948574662">
        <ele>1215.1400000000001</ele>
        <time>2023-03-12T07:42:02Z</time>
      </trkpt>
      <trkpt lat="46.728323455899954" lon="12.28381086140871">
        <ele>1214.49</ele>
        <time>2023-03-12T07:42:16Z</time>
      </trkpt>
      <trkpt lat="46.728250365704298" lon="12.283989731222391">
        <ele>1213.3399999999999</ele>
        <time>2023-03-12T07:42:29Z</time>
      </trkpt>
      <trkpt lat="46.728168725967407" lon="12.284171618521214">
        <ele>1211.5</ele>
        <time>2023-03-12T07:42:43Z</time>
      </trkpt>
      <trkpt lat="46.728153303265572" lon="12.284188130870461">
        <ele>1211.3</ele>
        <time>2023-03-12T07:42:45Z</time>
      </trkpt>
      <trkpt lat="46.728086918592453" lon="12.284290138632059">
        <ele>1212.4200000000001</ele>
        <time>2023-03-12T07:42:54Z</time>
      </trkpt>
      <trkpt lat="46.728027490898967" lon="12.284393319860101">
        <ele>1212.3800000000001</ele>
        <time>2023-03-12T07:43:02Z</time>
      </trkpt>
      <trkpt lat="46.727963453158736" lon="12.284562131389976">
        <ele>1210.55</ele>
        <time>2023-03-12T07:43:14Z</time>
      </trkpt>
      <trkpt lat="46.727949623018503" lon="12.284638909623027">
        <ele>1212.97</ele>
        <time>2023-03-12T07:43:26Z</time>
      </trkpt>
      <trkpt lat="46.727926237508655" lon="12.284823562949896">
        <ele>1214.8699999999999</ele>
        <time>2023-03-12T07:43:41Z</time>
      </trkpt>
      <trkpt lat="46.727856751531363" lon="12.285025985911489">
        <ele>1216.4000000000001</ele>
        <time>2023-03-12T07:43:58Z</time>
      </trkpt>
      <trkpt lat="46.727780643850565" lon="12.285213991999626">
        <ele>1215.8099999999999</ele>
        <time>2023-03-12T07:44:13Z</time>
      </trkpt>
      <trkpt lat="46.727753402665257" lon="12.285347180441022">
        <ele>1217.1600000000001</ele>
        <time>2023-03-12T07:44:25Z</time>
      </trkpt>
      <trkpt lat="46.7277149297297" lon="12.285506185144186">
        <ele>1215.97</ele>
        <time>2023-03-12T07:44:37Z</time>
      </trkpt>
      <trkpt lat="46.727687353268266" lon="12.285586148500443">
        <ele>1214.51</ele>
        <time>2023-03-12T07:44:42Z</time>
      </trkpt>
      <trkpt lat="46.727660279721022" lon="12.285800892859697">
        <ele>1212.3599999999999</ele>
        <time>2023-03-12T07:44:55Z</time>
      </trkpt>
      <trkpt lat="46.727624824270606" lon="12.285963837057352">
        <ele>1211.1600000000001</ele>
        <time>2023-03-12T07:45:06Z</time>
      </trkpt>
      <trkpt lat="46.727597834542394" lon="12.286174725741148">
        <ele>1208.8</ele>
        <time>2023-03-12T07:45:20Z</time>
      </trkpt>
      <trkpt lat="46.727575454860926" lon="12.286323504522443">
        <ele>1206.47</ele>
        <time>2023-03-12T07:45:32Z</time>
      </trkpt>
      <trkpt lat="46.72756053507328" lon="12.28644504211843">
        <ele>1202.8499999999999</ele>
        <time>2023-03-12T07:45:45Z</time>
      </trkpt>
      <trkpt lat="46.727547040209174" lon="12.286494914442301">
        <ele>1201.1900000000001</ele>
        <time>2023-03-12T07:45:50Z</time>
      </trkpt>
      <trkpt lat="46.727514686062932" lon="12.286570016294718">
        <ele>1199.26</ele>
        <time>2023-03-12T07:45:56Z</time>
      </trkpt>
      <trkpt lat="46.727427765727043" lon="12.286676885560155">
        <ele>1195.0999999999999</ele>
        <time>2023-03-12T07:46:08Z</time>
      </trkpt>
      <trkpt lat="46.727412426844239" lon="12.286691218614578">
        <ele>1193.99</ele>
        <time>2023-03-12T07:46:10Z</time>
      </trkpt>
      <trkpt lat="46.727359788492322" lon="12.286821138113737">
        <ele>1188.2</ele>
        <time>2023-03-12T07:46:21Z</time>
      </trkpt>
      <trkpt lat="46.72735040076077" lon="12.28685793466866">
        <ele>1186.6600000000001</ele>
        <time>2023-03-12T07:46:24Z</time>
      </trkpt>
      <trkpt lat="46.727323913946748" lon="12.286960780620575">
        <ele>1182.22</ele>
        <time>2023-03-12T07:46:32Z</time>
      </trkpt>
      <trkpt lat="46.727274879813194" lon="12.287094471976161">
        <ele>1176.4300000000001</ele>
        <time>2023-03-12T07:46:42Z</time>
      </trkpt>
      <trkpt lat="46.727223498746753" lon="12.28718776255846">
        <ele>1173.1800000000001</ele>
        <time>2023-03-12T07:46:52Z</time>
      </trkpt>
      <trkpt lat="46.727186786010861" lon="12.287299577146769">
        <ele>1170.98</ele>
        <time>2023-03-12T07:47:00Z</time>
      </trkpt>
      <trkpt lat="46.727137332782149" lon="12.287425976246595">
        <ele>1166.52</ele>
        <time>2023-03-12T07:47:10Z</time>
      </trkpt>
      <trkpt lat="46.727094752714038" lon="12.287606103345752">
        <ele>1161.6600000000001</ele>
        <time>2023-03-12T07:47:24Z</time>
      </trkpt>
      <trkpt lat="46.727040354162455" lon="12.287796456366777">
        <ele>1157.54</ele>
        <time>2023-03-12T07:47:42Z</time>
      </trkpt>
      <trkpt lat="46.726990314200521" lon="12.287996197119355">
        <ele>1152.0599999999999</ele>
        <time>2023-03-12T07:47:58Z</time>
      </trkpt>
      <trkpt lat="46.726936837658286" lon="12.288204068318009">
        <ele>1147.48</ele>
        <time>2023-03-12T07:48:16Z</time>
      </trkpt>
      <trkpt lat="46.726883109658957" lon="12.288431636989117">
        <ele>1145.55</ele>
        <time>2023-03-12T07:48:32Z</time>
      </trkpt>
      <trkpt lat="46.726854527369142" lon="12.288567759096622">
        <ele>1147.46</ele>
        <time>2023-03-12T07:48:43Z</time>
      </trkpt>
      <trkpt lat="46.726842792704701" lon="12.288641519844532">
        <ele>1147.96</ele>
        <time>2023-03-12T07:48:49Z</time>
      </trkpt>
      <trkpt lat="46.726785795763135" lon="12.288857437670231">
        <ele>1153.76</ele>
        <time>2023-03-12T07:49:03Z</time>
      </trkpt>
      <trkpt lat="46.726717315614223" lon="12.289031697437167">
        <ele>1160.04</ele>
        <time>2023-03-12T07:49:18Z</time>
      </trkpt>
      <trkpt lat="46.72668781131506" lon="12.289182906970382">
        <ele>1166.53</ele>
        <time>2023-03-12T07:49:32Z</time>
      </trkpt>
      <trkpt lat="46.726667527109385" lon="12.289291955530643">
        <ele>1176.1600000000001</ele>
        <time>2023-03-12T07:49:49Z</time>
      </trkpt>
      <trkpt lat="46.726620923727751" lon="12.289513824507594">
        <ele>1192.99</ele>
        <time>2023-03-12T07:50:02Z</time>
      </trkpt>
      <trkpt lat="46.726554036140442" lon="12.289712894707918">
        <ele>1209.95</ele>
        <time>2023-03-12T07:50:17Z</time>
      </trkpt>
      <trkpt lat="46.726496871560812" lon="12.289852704852819">
        <ele>1220.78</ele>
        <time>2023-03-12T07:50:32Z</time>
      </trkpt>
      <trkpt lat="46.726428559049964" lon="12.289960077032447">
        <ele>1228.9100000000001</ele>
        <time>2023-03-12T07:50:46Z</time>
      </trkpt>
      <trkpt lat="46.726374579593539" lon="12.290107849985361">
        <ele>1236.48</ele>
        <time>2023-03-12T07:51:02Z</time>
      </trkpt>
      <trkpt lat="46.726321941241622" lon="12.290183957666159">
        <ele>1236.73</ele>
        <time>2023-03-12T07:51:11Z</time>
      </trkpt>
      <trkpt lat="46.72627885825932" lon="12.290337849408388">
        <ele>1239.6099999999999</ele>
        <time>2023-03-12T07:51:29Z</time>
      </trkpt>
      <trkpt lat="46.72620945610106" lon="12.290480928495526">
        <ele>1240.9300000000001</ele>
        <time>2023-03-12T07:51:46Z</time>
      </trkpt>
      <trkpt lat="46.726172743365169" lon="12.290640100836754">
        <ele>1241.4400000000001</ele>
        <time>2023-03-12T07:51:59Z</time>
      </trkpt>
      <trkpt lat="46.72616109251976" lon="12.290666587650776">
        <ele>1246.01</ele>
        <time>2023-03-12T07:52:16Z</time>
      </trkpt>
      <trkpt lat="46.726144244894385" lon="12.290687207132578">
        <ele>1259.4400000000001</ele>
        <time>2023-03-12T07:53:26Z</time>
      </trkpt>
      <trkpt lat="46.726113818585873" lon="12.2907430306077">
        <ele>1260.1400000000001</ele>
        <time>2023-03-12T07:53:38Z</time>
      </trkpt>
      <trkpt lat="46.726075010374188" lon="12.290820144116879">
        <ele>1258.6500000000001</ele>
        <time>2023-03-12T07:53:48Z</time>
      </trkpt>
      <trkpt lat="46.726046176627278" lon="12.29089742526412">
        <ele>1257.0799999999999</ele>
        <time>2023-03-12T07:54:01Z</time>
      </trkpt>
      <trkpt lat="46.725970571860671" lon="12.291008234024048">
        <ele>1254.8699999999999</ele>
        <time>2023-03-12T07:54:16Z</time>
      </trkpt>
      <trkpt lat="46.725958334282041" lon="12.291140248999">
        <ele>1253.3900000000001</ele>
        <time>2023-03-12T07:54:26Z</time>
      </trkpt>
      <trkpt lat="46.725951209664345" lon="12.291172603145242">
        <ele>1253.28</ele>
        <time>2023-03-12T07:54:28Z</time>
      </trkpt>
      <trkpt lat="46.72588893212378" lon="12.291301432996988">
        <ele>1250.5899999999999</ele>
        <time>2023-03-12T07:54:41Z</time>
      </trkpt>
      <trkpt lat="46.725809890776873" lon="12.291383156552911">
        <ele>1249.0999999999999</ele>
        <time>2023-03-12T07:54:56Z</time>
      </trkpt>
      <trkpt lat="46.725740740075707" lon="12.291498575359583">
        <ele>1245.5799999999999</ele>
        <time>2023-03-12T07:55:11Z</time>
      </trkpt>
      <trkpt lat="46.725671757012606" lon="12.291660849004984">
        <ele>1244.0899999999999</ele>
        <time>2023-03-12T07:55:25Z</time>
      </trkpt>
      <trkpt lat="46.725586177781224" lon="12.291776435449719">
        <ele>1242.95</ele>
        <time>2023-03-12T07:55:41Z</time>
      </trkpt>
      <trkpt lat="46.725564217194915" lon="12.291865451261401">
        <ele>1242.45</ele>
        <time>2023-03-12T07:55:49Z</time>
      </trkpt>
      <trkpt lat="46.725516775622964" lon="12.292019929736853">
        <ele>1240.8900000000001</ele>
        <time>2023-03-12T07:56:03Z</time>
      </trkpt>
      <trkpt lat="46.725512081757188" lon="12.292036945000291">
        <ele>1240.49</ele>
        <time>2023-03-12T07:56:05Z</time>
      </trkpt>
      <trkpt lat="46.725501604378223" lon="12.29208086617291">
        <ele>1240.3299999999999</ele>
        <time>2023-03-12T07:56:09Z</time>
      </trkpt>
      <trkpt lat="46.725470256060362" lon="12.292238026857376">
        <ele>1239.79</ele>
        <time>2023-03-12T07:56:22Z</time>
      </trkpt>
      <trkpt lat="46.725419377908111" lon="12.292411029338837">
        <ele>1235.9400000000001</ele>
        <time>2023-03-12T07:56:37Z</time>
      </trkpt>
      <trkpt lat="46.725385347381234" lon="12.292601130902767">
        <ele>1234.4200000000001</ele>
        <time>2023-03-12T07:56:51Z</time>
      </trkpt>
      <trkpt lat="46.725260457023978" lon="12.292801458388567">
        <ele>1231.1500000000001</ele>
        <time>2023-03-12T07:57:10Z</time>
      </trkpt>
      <trkpt lat="46.72516280785203" lon="12.292947806417942">
        <ele>1230.6400000000001</ele>
        <time>2023-03-12T07:57:22Z</time>
      </trkpt>
      <trkpt lat="46.725060883909464" lon="12.293068841099739">
        <ele>1233.21</ele>
        <time>2023-03-12T07:57:33Z</time>
      </trkpt>
      <trkpt lat="46.72499617561698" lon="12.293190127238631">
        <ele>1236.8</ele>
        <time>2023-03-12T07:57:44Z</time>
      </trkpt>
      <trkpt lat="46.724916882812977" lon="12.29336011223495">
        <ele>1240.6900000000001</ele>
        <time>2023-03-12T07:57:57Z</time>
      </trkpt>
      <trkpt lat="46.7248276155442" lon="12.293477961793542">
        <ele>1240.6199999999999</ele>
        <time>2023-03-12T07:58:09Z</time>
      </trkpt>
      <trkpt lat="46.724795931950212" lon="12.293557422235608">
        <ele>1239.6300000000001</ele>
        <time>2023-03-12T07:58:15Z</time>
      </trkpt>
      <trkpt lat="46.724705575034022" lon="12.293761856853962">
        <ele>1235.05</ele>
        <time>2023-03-12T07:58:31Z</time>
      </trkpt>
      <trkpt lat="46.724603231996298" lon="12.293903259560466">
        <ele>1233.51</ele>
        <time>2023-03-12T07:58:45Z</time>
      </trkpt>
      <trkpt lat="46.724510863423347" lon="12.29407693259418">
        <ele>1233.78</ele>
        <time>2023-03-12T07:58:59Z</time>
      </trkpt>
      <trkpt lat="46.724412459880114" lon="12.294229064136744">
        <ele>1233.8</ele>
        <time>2023-03-12T07:59:12Z</time>
      </trkpt>
      <trkpt lat="46.724304752424359" lon="12.294390415772796">
        <ele>1235.03</ele>
        <time>2023-03-12T07:59:25Z</time>
      </trkpt>
      <trkpt lat="46.724282372742891" lon="12.29441212490201">
        <ele>1235.3299999999999</ele>
        <time>2023-03-12T07:59:28Z</time>
      </trkpt>
      <trkpt lat="46.724163517355919" lon="12.294522346928716">
        <ele>1237.6800000000001</ele>
        <time>2023-03-12T07:59:41Z</time>
      </trkpt>
      <trkpt lat="46.72406243160367" lon="12.294642878696322">
        <ele>1239.8</ele>
        <time>2023-03-12T07:59:53Z</time>
      </trkpt>
      <trkpt lat="46.723978780210018" lon="12.294687973335385">
        <ele>1240.72</ele>
        <time>2023-03-12T08:00:01Z</time>
      </trkpt>
      <trkpt lat="46.723840814083815" lon="12.294829543679953">
        <ele>1245.0799999999999</ele>
        <time>2023-03-12T08:00:14Z</time>
      </trkpt>
      <trkpt lat="46.723749786615372" lon="12.294957367703319">
        <ele>1248.6800000000001</ele>
        <time>2023-03-12T08:00:27Z</time>
      </trkpt>
      <trkpt lat="46.72372967004776" lon="12.295081838965416">
        <ele>1253.22</ele>
        <time>2023-03-12T08:00:39Z</time>
      </trkpt>
      <trkpt lat="46.723728245124221" lon="12.295206813141704">
        <ele>1256.9000000000001</ele>
        <time>2023-03-12T08:00:50Z</time>
      </trkpt>
      <trkpt lat="46.723733022809029" lon="12.295375540852547">
        <ele>1259.04</ele>
        <time>2023-03-12T08:01:03Z</time>
      </trkpt>
      <trkpt lat="46.723706871271133" lon="12.295529935508966">
        <ele>1257.46</ele>
        <time>2023-03-12T08:01:14Z</time>
      </trkpt>
      <trkpt lat="46.723684743046761" lon="12.295583831146359">
        <ele>1256.54</ele>
        <time>2023-03-12T08:01:19Z</time>
      </trkpt>
      <trkpt lat="46.723618609830737" lon="12.295754235237837">
        <ele>1255.27</ele>
        <time>2023-03-12T08:01:31Z</time>
      </trkpt>
      <trkpt lat="46.723536215722561" lon="12.29595229960978">
        <ele>1256.6300000000001</ele>
        <time>2023-03-12T08:01:46Z</time>
      </trkpt>
      <trkpt lat="46.723529761657119" lon="12.296018013730645">
        <ele>1258.49</ele>
        <time>2023-03-12T08:01:50Z</time>
      </trkpt>
      <trkpt lat="46.723552728071809" lon="12.296254802495241">
        <ele>1263.6400000000001</ele>
        <time>2023-03-12T08:02:06Z</time>
      </trkpt>
      <trkpt lat="46.723609725013375" lon="12.296424368396401">
        <ele>1268.1700000000001</ele>
        <time>2023-03-12T08:02:18Z</time>
      </trkpt>
      <trkpt lat="46.723693460226059" lon="12.296602986752987">
        <ele>1268.3800000000001</ele>
        <time>2023-03-12T08:02:32Z</time>
      </trkpt>
      <trkpt lat="46.723786415532231" lon="12.296712035313249">
        <ele>1264.73</ele>
        <time>2023-03-12T08:02:47Z</time>
      </trkpt>
      <trkpt lat="46.723843831568956" lon="12.296847738325596">
        <ele>1260.3699999999999</ele>
        <time>2023-03-12T08:03:03Z</time>
      </trkpt>
      <trkpt lat="46.723801251500845" lon="12.297058124095201">
        <ele>1254.45</ele>
        <time>2023-03-12T08:03:22Z</time>
      </trkpt>
      <trkpt lat="46.723736291751266" lon="12.297154432162642">
        <ele>1254.22</ele>
        <time>2023-03-12T08:03:31Z</time>
      </trkpt>
      <trkpt lat="46.723674014210701" lon="12.297287536785007">
        <ele>1250.51</ele>
        <time>2023-03-12T08:03:50Z</time>
      </trkpt>
      <trkpt lat="46.72363000921905" lon="12.297422820702195">
        <ele>1247.9200000000001</ele>
        <time>2023-03-12T08:04:04Z</time>
      </trkpt>
      <trkpt lat="46.723612323403358" lon="12.297535389661789">
        <ele>1246.1600000000001</ele>
        <time>2023-03-12T08:04:18Z</time>
      </trkpt>
      <trkpt lat="46.723621459677815" lon="12.297618202865124">
        <ele>1248.3599999999999</ele>
        <time>2023-03-12T08:04:30Z</time>
      </trkpt>
      <trkpt lat="46.7235894408077" lon="12.297646282240748">
        <ele>1252.72</ele>
        <time>2023-03-12T08:04:42Z</time>
      </trkpt>
      <trkpt lat="46.723528923466802" lon="12.297846274450421">
        <ele>1257.6300000000001</ele>
        <time>2023-03-12T08:04:59Z</time>
      </trkpt>
      <trkpt lat="46.723501430824399" lon="12.298008380457759">
        <ele>1261.8099999999999</ele>
        <time>2023-03-12T08:05:13Z</time>
      </trkpt>
      <trkpt lat="46.723463293164968" lon="12.298143664374948">
        <ele>1266.48</ele>
        <time>2023-03-12T08:05:23Z</time>
      </trkpt>
      <trkpt lat="46.72345457598567" lon="12.298272326588631">
        <ele>1268.4100000000001</ele>
        <time>2023-03-12T08:05:34Z</time>
      </trkpt>
      <trkpt lat="46.723367488011718" lon="12.298363856971264">
        <ele>1270.45</ele>
        <time>2023-03-12T08:05:47Z</time>
      </trkpt>
      <trkpt lat="46.723263803869486" lon="12.298372406512499">
        <ele>1269.46</ele>
        <time>2023-03-12T08:06:00Z</time>
      </trkpt>
      <trkpt lat="46.723170513287187" lon="12.29839101433754">
        <ele>1269.3099999999999</ele>
        <time>2023-03-12T08:06:13Z</time>
      </trkpt>
      <trkpt lat="46.723136734217405" lon="12.298456309363246">
        <ele>1268.5699999999999</ele>
        <time>2023-03-12T08:06:19Z</time>
      </trkpt>
      <trkpt lat="46.72308711335063" lon="12.298637442290783">
        <ele>1263.8399999999999</ele>
        <time>2023-03-12T08:06:33Z</time>
      </trkpt>
      <trkpt lat="46.723009496927261" lon="12.298705335706472">
        <ele>1265.1900000000001</ele>
        <time>2023-03-12T08:06:44Z</time>
      </trkpt>
      <trkpt lat="46.72301821410656" lon="12.298800554126501">
        <ele>1261.97</ele>
        <time>2023-03-12T08:06:57Z</time>
      </trkpt>
      <trkpt lat="46.723009580746293" lon="12.298830226063728">
        <ele>1261.49</ele>
        <time>2023-03-12T08:07:00Z</time>
      </trkpt>
      <trkpt lat="46.722974041476846" lon="12.298862747848034">
        <ele>1264.0799999999999</ele>
        <time>2023-03-12T08:07:08Z</time>
      </trkpt>
      <trkpt lat="46.722974460572004" lon="12.298975232988596">
        <ele>1267.8699999999999</ele>
        <time>2023-03-12T08:07:21Z</time>
      </trkpt>
      <trkpt lat="46.722964905202389" lon="12.299158042296767">
        <ele>1268.8900000000001</ele>
        <time>2023-03-12T08:07:35Z</time>
      </trkpt>
      <trkpt lat="46.722978567704558" lon="12.299313526600599">
        <ele>1268.3699999999999</ele>
        <time>2023-03-12T08:07:46Z</time>
      </trkpt>
      <trkpt lat="46.722981920465827" lon="12.299361387267709">
        <ele>1268.53</ele>
        <time>2023-03-12T08:07:50Z</time>
      </trkpt>
      <trkpt lat="46.722989128902555" lon="12.299505556002259">
        <ele>1266.04</ele>
        <time>2023-03-12T08:08:04Z</time>
      </trkpt>
      <trkpt lat="46.722968844696879" lon="12.299678726121783">
        <ele>1263.3</ele>
        <time>2023-03-12T08:08:18Z</time>
      </trkpt>
      <trkpt lat="46.72296641394496" lon="12.299802778288722">
        <ele>1263.98</ele>
        <time>2023-03-12T08:08:31Z</time>
      </trkpt>
      <trkpt lat="46.722942106425762" lon="12.299845945090055">
        <ele>1263.8199999999999</ele>
        <time>2023-03-12T08:08:42Z</time>
      </trkpt>
      <trkpt lat="46.722930036485195" lon="12.299985168501735">
        <ele>1262.3399999999999</ele>
        <time>2023-03-12T08:08:55Z</time>
      </trkpt>
      <trkpt lat="46.722872788086534" lon="12.300105784088373">
        <ele>1261.6600000000001</ele>
        <time>2023-03-12T08:09:08Z</time>
      </trkpt>
      <trkpt lat="46.722854096442461" lon="12.300117099657655">
        <ele>1262.74</ele>
        <time>2023-03-12T08:09:13Z</time>
      </trkpt>
      <trkpt lat="46.72280422411859" lon="12.300149956718087">
        <ele>1264.46</ele>
        <time>2023-03-12T08:09:25Z</time>
      </trkpt>
      <trkpt lat="46.72279248945415" lon="12.300190860405564">
        <ele>1290.6600000000001</ele>
        <time>2023-03-12T08:13:39Z</time>
      </trkpt>
      <trkpt lat="46.722769439220428" lon="12.300207624211907">
        <ele>1289.4300000000001</ele>
        <time>2023-03-12T08:13:53Z</time>
      </trkpt>
      <trkpt lat="46.722745969891548" lon="12.300332263112068">
        <ele>1288.3900000000001</ele>
        <time>2023-03-12T08:14:07Z</time>
      </trkpt>
      <trkpt lat="46.722743874415755" lon="12.300373166799545">
        <ele>1291.9000000000001</ele>
        <time>2023-03-12T08:16:10Z</time>
      </trkpt>
      <trkpt lat="46.722759045660496" lon="12.300495710223913">
        <ele>1294.49</ele>
        <time>2023-03-12T08:18:31Z</time>
      </trkpt>
      <trkpt lat="46.722764493897557" lon="12.300509456545115">
        <ele>1294.23</ele>
        <time>2023-03-12T08:18:32Z</time>
      </trkpt>
      <trkpt lat="46.722878823056817" lon="12.30078530497849">
        <ele>1288.1400000000001</ele>
        <time>2023-03-12T08:18:50Z</time>
      </trkpt>
      <trkpt lat="46.722912602126598" lon="12.300982614979148">
        <ele>1281.0999999999999</ele>
        <time>2023-03-12T08:19:06Z</time>
      </trkpt>
      <trkpt lat="46.722928611561656" lon="12.301015891134739">
        <ele>1282.4100000000001</ele>
        <time>2023-03-12T08:19:24Z</time>
      </trkpt>
      <trkpt lat="46.722916625440121" lon="12.301057130098343">
        <ele>1288.8499999999999</ele>
        <time>2023-03-12T08:19:46Z</time>
      </trkpt>
      <trkpt lat="46.722861053422093" lon="12.30109853670001">
        <ele>1290.9200000000001</ele>
        <time>2023-03-12T08:20:02Z</time>
      </trkpt>
      <trkpt lat="46.722853425890207" lon="12.301108259707689">
        <ele>1290.8900000000001</ele>
        <time>2023-03-12T08:20:03Z</time>
      </trkpt>
      <trkpt lat="46.722765499725938" lon="12.301232060417533">
        <ele>1285.8499999999999</ele>
        <time>2023-03-12T08:20:18Z</time>
      </trkpt>
      <trkpt lat="46.722741527482867" lon="12.301338678225875">
        <ele>1281.45</ele>
        <time>2023-03-12T08:20:26Z</time>
      </trkpt>
      <trkpt lat="46.722739096730947" lon="12.301404727622867">
        <ele>1281.9400000000001</ele>
        <time>2023-03-12T08:20:30Z</time>
      </trkpt>
      <trkpt lat="46.722710598260164" lon="12.301587872207165">
        <ele>1279.9000000000001</ele>
        <time>2023-03-12T08:20:43Z</time>
      </trkpt>
      <trkpt lat="46.722677908837795" lon="12.301840502768755">
        <ele>1277.72</ele>
        <time>2023-03-12T08:20:58Z</time>
      </trkpt>
      <trkpt lat="46.722651673480868" lon="12.302075196057558">
        <ele>1278.5999999999999</ele>
        <time>2023-03-12T08:21:12Z</time>
      </trkpt>
      <trkpt lat="46.722639435902238" lon="12.302423464134336">
        <ele>1281.3299999999999</ele>
        <time>2023-03-12T08:21:30Z</time>
      </trkpt>
      <trkpt lat="46.722586965188384" lon="12.302572997286916">
        <ele>1281.76</ele>
        <time>2023-03-12T08:21:41Z</time>
      </trkpt>
      <trkpt lat="46.722456123679876" lon="12.302702413871884">
        <ele>1282.47</ele>
        <time>2023-03-12T08:21:56Z</time>
      </trkpt>
      <trkpt lat="46.722388146445155" lon="12.302780700847507">
        <ele>1282.8499999999999</ele>
        <time>2023-03-12T08:22:08Z</time>
      </trkpt>
      <trkpt lat="46.722371801733971" lon="12.302796458825469">
        <ele>1285.04</ele>
        <time>2023-03-12T08:22:10Z</time>
      </trkpt>
      <trkpt lat="46.722309440374374" lon="12.302896790206432">
        <ele>1290.04</ele>
        <time>2023-03-12T08:22:22Z</time>
      </trkpt>
      <trkpt lat="46.722258478403091" lon="12.302981279790401">
        <ele>1292</ele>
        <time>2023-03-12T08:22:36Z</time>
      </trkpt>
      <trkpt lat="46.722213048487902" lon="12.303131902590394">
        <ele>1295.78</ele>
        <time>2023-03-12T08:22:53Z</time>
      </trkpt>
      <trkpt lat="46.72216116450727" lon="12.303318651393056">
        <ele>1297.1700000000001</ele>
        <time>2023-03-12T08:23:11Z</time>
      </trkpt>
      <trkpt lat="46.722080195322633" lon="12.303473884239793">
        <ele>1296.4200000000001</ele>
        <time>2023-03-12T08:23:31Z</time>
      </trkpt>
      <trkpt lat="46.721999729052186" lon="12.303582513704896">
        <ele>1296.76</ele>
        <time>2023-03-12T08:23:46Z</time>
      </trkpt>
      <trkpt lat="46.721923789009452" lon="12.303671278059483">
        <ele>1296.3900000000001</ele>
        <time>2023-03-12T08:23:57Z</time>
      </trkpt>
      <trkpt lat="46.721838545054197" lon="12.303815949708223">
        <ele>1293.98</ele>
        <time>2023-03-12T08:24:10Z</time>
      </trkpt>
      <trkpt lat="46.721715917810798" lon="12.303983252495527">
        <ele>1293.26</ele>
        <time>2023-03-12T08:24:24Z</time>
      </trkpt>
      <trkpt lat="46.721597062423825" lon="12.30412557721138">
        <ele>1295.98</ele>
        <time>2023-03-12T08:24:37Z</time>
      </trkpt>
      <trkpt lat="46.721492288634181" lon="12.304264465346932">
        <ele>1295.1400000000001</ele>
        <time>2023-03-12T08:24:50Z</time>
      </trkpt>
      <trkpt lat="46.721357088536024" lon="12.304363874718547">
        <ele>1293.6300000000001</ele>
        <time>2023-03-12T08:25:04Z</time>
      </trkpt>
      <trkpt lat="46.721220463514328" lon="12.304497146978974">
        <ele>1291.73</ele>
        <time>2023-03-12T08:25:19Z</time>
      </trkpt>
      <trkpt lat="46.721121054142714" lon="12.304570823907852">
        <ele>1286.5</ele>
        <time>2023-03-12T08:25:29Z</time>
      </trkpt>
      <trkpt lat="46.721023488789797" lon="12.30469336733222">
        <ele>1284.6900000000001</ele>
        <time>2023-03-12T08:25:41Z</time>
      </trkpt>
      <trkpt lat="46.720960456877947" lon="12.304865280166268">
        <ele>1285.7</ele>
        <time>2023-03-12T08:25:55Z</time>
      </trkpt>
      <trkpt lat="46.720908740535378" lon="12.30501975864172">
        <ele>1284.8800000000001</ele>
        <time>2023-03-12T08:26:07Z</time>
      </trkpt>
      <trkpt lat="46.720836153253913" lon="12.305216146633029">
        <ele>1286.45</ele>
        <time>2023-03-12T08:26:22Z</time>
      </trkpt>
      <trkpt lat="46.720790304243565" lon="12.305390406399965">
        <ele>1293.55</ele>
        <time>2023-03-12T08:26:35Z</time>
      </trkpt>
      <trkpt lat="46.72076172195375" lon="12.305581765249372">
        <ele>1297.21</ele>
        <time>2023-03-12T08:26:48Z</time>
      </trkpt>
      <trkpt lat="46.720740599557757" lon="12.305754097178578">
        <ele>1304.6199999999999</ele>
        <time>2023-03-12T08:27:02Z</time>
      </trkpt>
      <trkpt lat="46.720747640356421" lon="12.305944869294763">
        <ele>1314.0599999999999</ele>
        <time>2023-03-12T08:27:15Z</time>
      </trkpt>
      <trkpt lat="46.720743281766772" lon="12.306130528450012">
        <ele>1316.76</ele>
        <time>2023-03-12T08:27:30Z</time>
      </trkpt>
      <trkpt lat="46.720727691426873" lon="12.306335214525461">
        <ele>1318.25</ele>
        <time>2023-03-12T08:27:48Z</time>
      </trkpt>
      <trkpt lat="46.720714699476957" lon="12.306445436552167">
        <ele>1320.74</ele>
        <time>2023-03-12T08:28:01Z</time>
      </trkpt>
      <trkpt lat="46.72070992179215" lon="12.306439988315105">
        <ele>1322.27</ele>
        <time>2023-03-12T08:28:12Z</time>
      </trkpt>
      <trkpt lat="46.720662899315357" lon="12.306661102920771">
        <ele>1320.8499999999999</ele>
        <time>2023-03-12T08:28:25Z</time>
      </trkpt>
      <trkpt lat="46.720654014497995" lon="12.306695217266679">
        <ele>1320.78</ele>
        <time>2023-03-12T08:28:27Z</time>
      </trkpt>
      <trkpt lat="46.720623001456261" lon="12.306913398206234">
        <ele>1318.6099999999999</ele>
        <time>2023-03-12T08:28:40Z</time>
      </trkpt>
      <trkpt lat="46.720600286498666" lon="12.307099727913737">
        <ele>1317.3299999999999</ele>
        <time>2023-03-12T08:28:51Z</time>
      </trkpt>
      <trkpt lat="46.720611182972789" lon="12.307371636852622">
        <ele>1319.02</ele>
        <time>2023-03-12T08:29:08Z</time>
      </trkpt>
      <trkpt lat="46.720685278996825" lon="12.307593086734414">
        <ele>1321.9300000000001</ele>
        <time>2023-03-12T08:29:23Z</time>
      </trkpt>
      <trkpt lat="46.720718890428543" lon="12.307800119742751">
        <ele>1322.6500000000001</ele>
        <time>2023-03-12T08:29:37Z</time>
      </trkpt>
      <trkpt lat="46.720752250403166" lon="12.30800237506628">
        <ele>1324.9200000000001</ele>
        <time>2023-03-12T08:29:50Z</time>
      </trkpt>
      <trkpt lat="46.720739426091313" lon="12.30822809971869">
        <ele>1322.71</ele>
        <time>2023-03-12T08:30:04Z</time>
      </trkpt>
      <trkpt lat="46.720690056681633" lon="12.308422392234206">
        <ele>1317.5899999999999</ele>
        <time>2023-03-12T08:30:19Z</time>
      </trkpt>
      <trkpt lat="46.720655523240566" lon="12.308581480756402">
        <ele>1312.95</ele>
        <time>2023-03-12T08:30:34Z</time>
      </trkpt>
      <trkpt lat="46.720568351447582" lon="12.308736378327012">
        <ele>1312.3699999999999</ele>
        <time>2023-03-12T08:30:49Z</time>
      </trkpt>
      <trkpt lat="46.720478245988488" lon="12.308865543454885">
        <ele>1315.6400000000001</ele>
        <time>2023-03-12T08:31:04Z</time>
      </trkpt>
      <trkpt lat="46.720433738082647" lon="12.308950535953045">
        <ele>1317.3699999999999</ele>
        <time>2023-03-12T08:31:16Z</time>
      </trkpt>
      <trkpt lat="46.720370957627892" lon="12.309053465723991">
        <ele>1319.8699999999999</ele>
        <time>2023-03-12T08:31:30Z</time>
      </trkpt>
      <trkpt lat="46.720309350639582" lon="12.309150360524654">
        <ele>1322.8800000000001</ele>
        <time>2023-03-12T08:31:45Z</time>
      </trkpt>
      <trkpt lat="46.720244642347097" lon="12.309268796816468">
        <ele>1327.29</ele>
        <time>2023-03-12T08:31:59Z</time>
      </trkpt>
      <trkpt lat="46.720188315957785" lon="12.309380108490586">
        <ele>1328.78</ele>
        <time>2023-03-12T08:32:12Z</time>
      </trkpt>
      <trkpt lat="46.720089325681329" lon="12.309510782361031">
        <ele>1331.3900000000001</ele>
        <time>2023-03-12T08:32:27Z</time>
      </trkpt>
      <trkpt lat="46.719998130574822" lon="12.309628967195749">
        <ele>1336.9200000000001</ele>
        <time>2023-03-12T08:32:41Z</time>
      </trkpt>
      <trkpt lat="46.719945911318064" lon="12.309750085696578">
        <ele>1339.9400000000001</ele>
        <time>2023-03-12T08:32:54Z</time>
      </trkpt>
      <trkpt lat="46.71989637427032" lon="12.309823175892234">
        <ele>1344.8699999999999</ele>
        <time>2023-03-12T08:33:06Z</time>
      </trkpt>
      <trkpt lat="46.719859074801207" lon="12.310037333518267">
        <ele>1348.5</ele>
        <time>2023-03-12T08:33:22Z</time>
      </trkpt>
      <trkpt lat="46.719857733696699" lon="12.310099694877863">
        <ele>1348.6800000000001</ele>
        <time>2023-03-12T08:33:27Z</time>
      </trkpt>
      <trkpt lat="46.719809286296368" lon="12.310338327661157">
        <ele>1351.5</ele>
        <time>2023-03-12T08:33:44Z</time>
      </trkpt>
      <trkpt lat="46.719734016805887" lon="12.310454752296209">
        <ele>1354.8599999999999</ele>
        <time>2023-03-12T08:33:59Z</time>
      </trkpt>
      <trkpt lat="46.719706943258643" lon="12.310496913269162">
        <ele>1356</ele>
        <time>2023-03-12T08:34:03Z</time>
      </trkpt>
      <trkpt lat="46.719642234966159" lon="12.310730768367648">
        <ele>1360.26</ele>
        <time>2023-03-12T08:34:19Z</time>
      </trkpt>
      <trkpt lat="46.719617759808898" lon="12.310808720067143">
        <ele>1359.72</ele>
        <time>2023-03-12T08:34:26Z</time>
      </trkpt>
      <trkpt lat="46.719561601057649" lon="12.311037881299853">
        <ele>1358.8099999999999</ele>
        <time>2023-03-12T08:34:42Z</time>
      </trkpt>
      <trkpt lat="46.71954751946032" lon="12.311067637056112">
        <ele>1358.9200000000001</ele>
        <time>2023-03-12T08:34:46Z</time>
      </trkpt>
      <trkpt lat="46.719532599672675" lon="12.311121448874474">
        <ele>1358.1800000000001</ele>
        <time>2023-03-12T08:34:50Z</time>
      </trkpt>
      <trkpt lat="46.719490271061659" lon="12.311386065557599">
        <ele>1358.02</ele>
        <time>2023-03-12T08:35:07Z</time>
      </trkpt>
      <trkpt lat="46.719449032098055" lon="12.311520930379629">
        <ele>1357.26</ele>
        <time>2023-03-12T08:35:20Z</time>
      </trkpt>
      <trkpt lat="46.719440231099725" lon="12.311540711671114">
        <ele>1358.3</ele>
        <time>2023-03-12T08:35:32Z</time>
      </trkpt>
      <trkpt lat="46.71941164880991" lon="12.311607263982296">
        <ele>1358.9300000000001</ele>
        <time>2023-03-12T08:35:41Z</time>
      </trkpt>
      <trkpt lat="46.719405278563499" lon="12.311619082465768">
        <ele>1359.6900000000001</ele>
        <time>2023-03-12T08:35:49Z</time>
      </trkpt>
      <trkpt lat="46.719325063750148" lon="12.311851261183619">
        <ele>1356.6400000000001</ele>
        <time>2023-03-12T08:36:04Z</time>
      </trkpt>
      <trkpt lat="46.719229677692056" lon="12.312107915058732">
        <ele>1355.8199999999999</ele>
        <time>2023-03-12T08:36:20Z</time>
      </trkpt>
      <trkpt lat="46.719197826460004" lon="12.312354426831007">
        <ele>1355.78</ele>
        <time>2023-03-12T08:36:35Z</time>
      </trkpt>
      <trkpt lat="46.719239484518766" lon="12.312597166746855">
        <ele>1357.8099999999999</ele>
        <time>2023-03-12T08:36:51Z</time>
      </trkpt>
      <trkpt lat="46.719269910827279" lon="12.312728343531489">
        <ele>1359.55</ele>
        <time>2023-03-12T08:37:03Z</time>
      </trkpt>
      <trkpt lat="46.719276532530785" lon="12.312855329364538">
        <ele>1361.28</ele>
        <time>2023-03-12T08:37:16Z</time>
      </trkpt>
      <trkpt lat="46.719279969111085" lon="12.312980052083731">
        <ele>1361.4000000000001</ele>
        <time>2023-03-12T08:37:28Z</time>
      </trkpt>
      <trkpt lat="46.719329506158829" lon="12.313106786459684">
        <ele>1365.1600000000001</ele>
        <time>2023-03-12T08:37:43Z</time>
      </trkpt>
      <trkpt lat="46.719350628554821" lon="12.313189515843987">
        <ele>1365.8900000000001</ele>
        <time>2023-03-12T08:37:51Z</time>
      </trkpt>
      <trkpt lat="46.719358591362834" lon="12.313216421753168">
        <ele>1365.77</ele>
        <time>2023-03-12T08:37:53Z</time>
      </trkpt>
      <trkpt lat="46.719459090381861" lon="12.313441392034292">
        <ele>1365.9100000000001</ele>
        <time>2023-03-12T08:38:10Z</time>
      </trkpt>
      <trkpt lat="46.719479039311409" lon="12.313502244651318">
        <ele>1365.54</ele>
        <time>2023-03-12T08:38:19Z</time>
      </trkpt>
      <trkpt lat="46.719488594681025" lon="12.313523702323437">
        <ele>1370.22</ele>
        <time>2023-03-12T08:41:05Z</time>
      </trkpt>
      <trkpt lat="46.719471327960491" lon="12.313581285998225">
        <ele>1373.3699999999999</ele>
        <time>2023-03-12T08:41:36Z</time>
      </trkpt>
      <trkpt lat="46.71942925080657" lon="12.313739871606231">
        <ele>1372.5599999999999</ele>
        <time>2023-03-12T08:41:49Z</time>
      </trkpt>
      <trkpt lat="46.719428077340126" lon="12.313908934593201">
        <ele>1372.55</ele>
        <time>2023-03-12T08:42:04Z</time>
      </trkpt>
      <trkpt lat="46.719455905258656" lon="12.314075399190187">
        <ele>1372.52</ele>
        <time>2023-03-12T08:42:17Z</time>
      </trkpt>
      <trkpt lat="46.719460682943463" lon="12.314225854352117">
        <ele>1372.3199999999999</ele>
        <time>2023-03-12T08:42:31Z</time>
      </trkpt>
      <trkpt lat="46.719426400959492" lon="12.314364658668637">
        <ele>1372.25</ele>
        <time>2023-03-12T08:42:46Z</time>
      </trkpt>
      <trkpt lat="46.719403099268675" lon="12.314514694735408">
        <ele>1373.49</ele>
        <time>2023-03-12T08:43:00Z</time>
      </trkpt>
      <trkpt lat="46.719389436766505" lon="12.31470244936645">
        <ele>1373.5799999999999</ele>
        <time>2023-03-12T08:43:17Z</time>
      </trkpt>
      <trkpt lat="46.71935984864831" lon="12.314916858449578">
        <ele>1372.24</ele>
        <time>2023-03-12T08:43:33Z</time>
      </trkpt>
      <trkpt lat="46.719295391812921" lon="12.315065301954746">
        <ele>1370.3099999999999</ele>
        <time>2023-03-12T08:43:49Z</time>
      </trkpt>
      <trkpt lat="46.719200257211924" lon="12.315125735476613">
        <ele>1371.8599999999999</ele>
        <time>2023-03-12T08:44:02Z</time>
      </trkpt>
      <trkpt lat="46.719054831191897" lon="12.315194718539715">
        <ele>1377.79</ele>
        <time>2023-03-12T08:44:16Z</time>
      </trkpt>
      <trkpt lat="46.718887276947498" lon="12.31523310765624">
        <ele>1384.21</ele>
        <time>2023-03-12T08:44:33Z</time>
      </trkpt>
      <trkpt lat="46.718806559219956" lon="12.315275017172098">
        <ele>1386.6300000000001</ele>
        <time>2023-03-12T08:44:42Z</time>
      </trkpt>
      <trkpt lat="46.718693319708109" lon="12.315382221713662">
        <ele>1391.3800000000001</ele>
        <time>2023-03-12T08:44:54Z</time>
      </trkpt>
      <trkpt lat="46.71860296279192" lon="12.315516415983438">
        <ele>1395.6500000000001</ele>
        <time>2023-03-12T08:45:08Z</time>
      </trkpt>
      <trkpt lat="46.718522999435663" lon="12.315660500898957">
        <ele>1399.01</ele>
        <time>2023-03-12T08:45:23Z</time>
      </trkpt>
      <trkpt lat="46.718448149040341" lon="12.31573342345655">
        <ele>1400.04</ele>
        <time>2023-03-12T08:47:02Z</time>
      </trkpt>
      <trkpt lat="46.718433313071728" lon="12.315744906663895">
        <ele>1401</ele>
        <time>2023-03-12T08:48:04Z</time>
      </trkpt>
      <trkpt lat="46.718408670276403" lon="12.31583995744586">
        <ele>1403.0699999999999</ele>
        <time>2023-03-12T08:49:00Z</time>
      </trkpt>
      <trkpt lat="46.71840506605804" lon="12.315860744565725">
        <ele>1402.8199999999999</ele>
        <time>2023-03-12T08:49:16Z</time>
      </trkpt>
      <trkpt lat="46.718392744660378" lon="12.315888991579413">
        <ele>1402.3199999999999</ele>
        <time>2023-03-12T08:49:18Z</time>
      </trkpt>
      <trkpt lat="46.718290569260716" lon="12.316067609935999">
        <ele>1399.3399999999999</ele>
        <time>2023-03-12T08:49:33Z</time>
      </trkpt>
      <trkpt lat="46.718260981142521" lon="12.316138688474894">
        <ele>1397.29</ele>
        <time>2023-03-12T08:49:40Z</time>
      </trkpt>
      <trkpt lat="46.718180850148201" lon="12.316320575773716">
        <ele>1395.3099999999999</ele>
        <time>2023-03-12T08:49:54Z</time>
      </trkpt>
      <trkpt lat="46.718106083571911" lon="12.316459631547332">
        <ele>1390.96</ele>
        <time>2023-03-12T08:50:07Z</time>
      </trkpt>
      <trkpt lat="46.71808110550046" lon="12.316587455570698">
        <ele>1385.27</ele>
        <time>2023-03-12T08:50:16Z</time>
      </trkpt>
      <trkpt lat="46.718064174056053" lon="12.316719219088554">
        <ele>1380.7</ele>
        <time>2023-03-12T08:50:25Z</time>
      </trkpt>
      <trkpt lat="46.718025701120496" lon="12.316907476633787">
        <ele>1371.5899999999999</ele>
        <time>2023-03-12T08:50:39Z</time>
      </trkpt>
      <trkpt lat="46.718002902343869" lon="12.317066229879856">
        <ele>1365.98</ele>
        <time>2023-03-12T08:50:50Z</time>
      </trkpt>
      <trkpt lat="46.717977924272418" lon="12.317293882369995">
        <ele>1361.1099999999999</ele>
        <time>2023-03-12T08:51:03Z</time>
      </trkpt>
      <trkpt lat="46.717931572347879" lon="12.317575514316559">
        <ele>1363.21</ele>
        <time>2023-03-12T08:51:17Z</time>
      </trkpt>
      <trkpt lat="46.717897625640035" lon="12.317652460187674">
        <ele>1362.7</ele>
        <time>2023-03-12T08:51:22Z</time>
      </trkpt>
      <trkpt lat="46.717758821323514" lon="12.317762011662126">
        <ele>1364.1300000000001</ele>
        <time>2023-03-12T08:51:35Z</time>
      </trkpt>
      <trkpt lat="46.71765748411417" lon="12.317962842062116">
        <ele>1364.3399999999999</ele>
        <time>2023-03-12T08:51:49Z</time>
      </trkpt>
      <trkpt lat="46.717604426667094" lon="12.318167528137565">
        <ele>1365.05</ele>
        <time>2023-03-12T08:52:01Z</time>
      </trkpt>
      <trkpt lat="46.717665195465088" lon="12.318389983847737">
        <ele>1366.6900000000001</ele>
        <time>2023-03-12T08:52:12Z</time>
      </trkpt>
      <trkpt lat="46.717676678672433" lon="12.318580839782953">
        <ele>1369</ele>
        <time>2023-03-12T08:52:23Z</time>
      </trkpt>
      <trkpt lat="46.717677181586623" lon="12.318759374320507">
        <ele>1368.1900000000001</ele>
        <time>2023-03-12T08:52:34Z</time>
      </trkpt>
      <trkpt lat="46.717680199071765" lon="12.318835817277431">
        <ele>1368.1600000000001</ele>
        <time>2023-03-12T08:52:38Z</time>
      </trkpt>
      <trkpt lat="46.717684473842382" lon="12.319084256887436">
        <ele>1366.98</ele>
        <time>2023-03-12T08:52:52Z</time>
      </trkpt>
      <trkpt lat="46.717681707814336" lon="12.319133961573243">
        <ele>1365.72</ele>
        <time>2023-03-12T08:52:55Z</time>
      </trkpt>
      <trkpt lat="46.717679528519511" lon="12.319275364279747">
        <ele>1363.6300000000001</ele>
        <time>2023-03-12T08:53:03Z</time>
      </trkpt>
      <trkpt lat="46.71764818020165" lon="12.319501843303442">
        <ele>1363.53</ele>
        <time>2023-03-12T08:53:16Z</time>
      </trkpt>
      <trkpt lat="46.717611802741885" lon="12.319688256829977">
        <ele>1363.5799999999999</ele>
        <time>2023-03-12T08:53:28Z</time>
      </trkpt>
      <trkpt lat="46.717609623447061" lon="12.319922028109431">
        <ele>1363.6600000000001</ele>
        <time>2023-03-12T08:53:41Z</time>
      </trkpt>
      <trkpt lat="46.717630662024021" lon="12.320112464949489">
        <ele>1363.04</ele>
        <time>2023-03-12T08:53:53Z</time>
      </trkpt>
      <trkpt lat="46.717646168544888" lon="12.320288987830281">
        <ele>1360.6199999999999</ele>
        <time>2023-03-12T08:54:04Z</time>
      </trkpt>
      <trkpt lat="46.717669973149896" lon="12.320432150736451">
        <ele>1359.3299999999999</ele>
        <time>2023-03-12T08:54:15Z</time>
      </trkpt>
      <trkpt lat="46.717692520469427" lon="12.320580678060651">
        <ele>1356.3099999999999</ele>
        <time>2023-03-12T08:54:24Z</time>
      </trkpt>
      <trkpt lat="46.717706099152565" lon="12.320765918120742">
        <ele>1352.28</ele>
        <time>2023-03-12T08:54:35Z</time>
      </trkpt>
      <trkpt lat="46.717706266790628" lon="12.320950655266643">
        <ele>1350.3</ele>
        <time>2023-03-12T08:54:46Z</time>
      </trkpt>
      <trkpt lat="46.717672906816006" lon="12.321111336350441">
        <ele>1347.1700000000001</ele>
        <time>2023-03-12T08:54:57Z</time>
      </trkpt>
      <trkpt lat="46.717640971764922" lon="12.321257265284657">
        <ele>1348.6900000000001</ele>
        <time>2023-03-12T08:55:07Z</time>
      </trkpt>
      <trkpt lat="46.717607192695141" lon="12.32145382091403">
        <ele>1349.5</ele>
        <time>2023-03-12T08:55:19Z</time>
      </trkpt>
      <trkpt lat="46.71760568395257" lon="12.321641910821199">
        <ele>1349.75</ele>
        <time>2023-03-12T08:55:31Z</time>
      </trkpt>
      <trkpt lat="46.717629907652736" lon="12.321793287992477">
        <ele>1351.76</ele>
        <time>2023-03-12T08:55:42Z</time>
      </trkpt>
      <trkpt lat="46.717632003128529" lon="12.321827067062259">
        <ele>1351.8299999999999</ele>
        <time>2023-03-12T08:55:44Z</time>
      </trkpt>
      <trkpt lat="46.717627309262753" lon="12.322074836120009">
        <ele>1352.0799999999999</ele>
        <time>2023-03-12T08:55:57Z</time>
      </trkpt>
      <trkpt lat="46.717614401131868" lon="12.322292262688279">
        <ele>1354.96</ele>
        <time>2023-03-12T08:56:09Z</time>
      </trkpt>
      <trkpt lat="46.717568216845393" lon="12.32249166816473">
        <ele>1358.9000000000001</ele>
        <time>2023-03-12T08:56:21Z</time>
      </trkpt>
      <trkpt lat="46.717489091679454" lon="12.322639776393771">
        <ele>1362.3</ele>
        <time>2023-03-12T08:56:34Z</time>
      </trkpt>
      <trkpt lat="46.717410134151578" lon="12.322766510769725">
        <ele>1365.1800000000001</ele>
        <time>2023-03-12T08:56:47Z</time>
      </trkpt>
      <trkpt lat="46.717318100854754" lon="12.322905901819468">
        <ele>1369.1400000000001</ele>
        <time>2023-03-12T08:57:04Z</time>
      </trkpt>
      <trkpt lat="46.717237886041403" lon="12.322995336726308">
        <ele>1372.3800000000001</ele>
        <time>2023-03-12T08:57:19Z</time>
      </trkpt>
      <trkpt lat="46.71715565957129" lon="12.323113940656185">
        <ele>1376.45</ele>
        <time>2023-03-12T08:57:35Z</time>
      </trkpt>
      <trkpt lat="46.717087011784315" lon="12.323200609534979">
        <ele>1379.01</ele>
        <time>2023-03-12T08:57:46Z</time>
      </trkpt>
      <trkpt lat="46.717019286006689" lon="12.323327176272869">
        <ele>1381.04</ele>
        <time>2023-03-12T08:57:59Z</time>
      </trkpt>
      <trkpt lat="46.716953236609697" lon="12.323478972539306">
        <ele>1380.72</ele>
        <time>2023-03-12T08:58:11Z</time>
      </trkpt>
      <trkpt lat="46.71690939925611" lon="12.323598582297564">
        <ele>1379.1700000000001</ele>
        <time>2023-03-12T08:58:22Z</time>
      </trkpt>
      <trkpt lat="46.716850558295846" lon="12.323744930326939">
        <ele>1377.1800000000001</ele>
        <time>2023-03-12T08:58:35Z</time>
      </trkpt>
      <trkpt lat="46.716807391494513" lon="12.323878286406398">
        <ele>1375.8199999999999</ele>
        <time>2023-03-12T08:58:48Z</time>
      </trkpt>
      <trkpt lat="46.716767158359289" lon="12.323968056589365">
        <ele>1374.6800000000001</ele>
        <time>2023-03-12T08:58:57Z</time>
      </trkpt>
      <trkpt lat="46.716705299913883" lon="12.324085738509893">
        <ele>1373.9200000000001</ele>
        <time>2023-03-12T08:59:08Z</time>
      </trkpt>
      <trkpt lat="46.716623743996024" lon="12.324053635820746">
        <ele>1403.5699999999999</ele>
        <time>2023-03-12T09:02:42Z</time>
      </trkpt>
      <trkpt lat="46.71655853278935" lon="12.32411976903677">
        <ele>1402.3099999999999</ele>
        <time>2023-03-12T09:03:00Z</time>
      </trkpt>
      <trkpt lat="46.716505810618401" lon="12.324304422363639">
        <ele>1400.1800000000001</ele>
        <time>2023-03-12T09:03:16Z</time>
      </trkpt>
      <trkpt lat="46.716468343511224" lon="12.324507683515549">
        <ele>1398.5699999999999</ele>
        <time>2023-03-12T09:03:28Z</time>
      </trkpt>
      <trkpt lat="46.716437414288521" lon="12.324668532237411">
        <ele>1394.8199999999999</ele>
        <time>2023-03-12T09:03:38Z</time>
      </trkpt>
      <trkpt lat="46.716400450095534" lon="12.32483365572989">
        <ele>1390.9300000000001</ele>
        <time>2023-03-12T09:03:50Z</time>
      </trkpt>
      <trkpt lat="46.716367593035102" lon="12.325013699010015">
        <ele>1386.5599999999999</ele>
        <time>2023-03-12T09:04:03Z</time>
      </trkpt>
      <trkpt lat="46.716324593871832" lon="12.325194831937551">
        <ele>1386</ele>
        <time>2023-03-12T09:04:18Z</time>
      </trkpt>
      <trkpt lat="46.71627463772893" lon="12.325328858569264">
        <ele>1385.8699999999999</ele>
        <time>2023-03-12T09:04:30Z</time>
      </trkpt>
      <trkpt lat="46.716222418472171" lon="12.325457939878106">
        <ele>1386.6300000000001</ele>
        <time>2023-03-12T09:04:42Z</time>
      </trkpt>
      <trkpt lat="46.716217305511236" lon="12.325482415035367">
        <ele>1386.8399999999999</ele>
        <time>2023-03-12T09:04:44Z</time>
      </trkpt>
      <trkpt lat="46.716173635795712" lon="12.325599761679769">
        <ele>1390.1700000000001</ele>
        <time>2023-03-12T09:04:57Z</time>
      </trkpt>
      <trkpt lat="46.71612560749054" lon="12.325730267912149">
        <ele>1391.1099999999999</ele>
        <time>2023-03-12T09:05:12Z</time>
      </trkpt>
      <trkpt lat="46.716094762086868" lon="12.325903857126832">
        <ele>1392.21</ele>
        <time>2023-03-12T09:05:27Z</time>
      </trkpt>
      <trkpt lat="46.716061653569341" lon="12.326051881536841">
        <ele>1395.47</ele>
        <time>2023-03-12T09:05:40Z</time>
      </trkpt>
      <trkpt lat="46.71604597941041" lon="12.326129078865051">
        <ele>1399.5</ele>
        <time>2023-03-12T09:05:47Z</time>
      </trkpt>
      <trkpt lat="46.716042794287205" lon="12.326158415526152">
        <ele>1400.6800000000001</ele>
        <time>2023-03-12T09:05:49Z</time>
      </trkpt>
      <trkpt lat="46.716024857014418" lon="12.326345918700099">
        <ele>1405.1900000000001</ele>
        <time>2023-03-12T09:06:03Z</time>
      </trkpt>
      <trkpt lat="46.715997699648142" lon="12.32653895393014">
        <ele>1409.73</ele>
        <time>2023-03-12T09:06:16Z</time>
      </trkpt>
      <trkpt lat="46.715963166207075" lon="12.326673734933138">
        <ele>1414.5899999999999</ele>
        <time>2023-03-12T09:06:28Z</time>
      </trkpt>
      <trkpt lat="46.715941792353988" lon="12.326837098225951">
        <ele>1418.75</ele>
        <time>2023-03-12T09:06:40Z</time>
      </trkpt>
      <trkpt lat="46.715895105153322" lon="12.327002221718431">
        <ele>1423.1900000000001</ele>
        <time>2023-03-12T09:06:51Z</time>
      </trkpt>
      <trkpt lat="46.715882616117597" lon="12.327116802334785">
        <ele>1424.0999999999999</ele>
        <time>2023-03-12T09:06:58Z</time>
      </trkpt>
      <trkpt lat="46.715904073789716" lon="12.327152257785201">
        <ele>1426.4100000000001</ele>
        <time>2023-03-12T09:07:09Z</time>
      </trkpt>
      <trkpt lat="46.715938858687878" lon="12.327202633023262">
        <ele>1429.3299999999999</ele>
        <time>2023-03-12T09:07:23Z</time>
      </trkpt>
      <trkpt lat="46.715958472341299" lon="12.327230963855982">
        <ele>1429.29</ele>
        <time>2023-03-12T09:07:26Z</time>
      </trkpt>
      <trkpt lat="46.716058384627104" lon="12.327254600822926">
        <ele>1426.04</ele>
        <time>2023-03-12T09:07:37Z</time>
      </trkpt>
      <trkpt lat="46.716167517006397" lon="12.327281087636948">
        <ele>1422.8599999999999</ele>
        <time>2023-03-12T09:07:52Z</time>
      </trkpt>
      <trkpt lat="46.716282349079847" lon="12.327314950525761">
        <ele>1420.78</ele>
        <time>2023-03-12T09:08:05Z</time>
      </trkpt>
      <trkpt lat="46.716421404853463" lon="12.327353339642286">
        <ele>1416.1500000000001</ele>
        <time>2023-03-12T09:08:20Z</time>
      </trkpt>
      <trkpt lat="46.716547217220068" lon="12.327350657433271">
        <ele>1414.73</ele>
        <time>2023-03-12T09:08:31Z</time>
      </trkpt>
      <trkpt lat="46.716602621600032" lon="12.327381502836943">
        <ele>1416.1300000000001</ele>
        <time>2023-03-12T09:08:36Z</time>
      </trkpt>
      <trkpt lat="46.716695073992014" lon="12.327411761507392">
        <ele>1415.1199999999999</ele>
        <time>2023-03-12T09:08:47Z</time>
      </trkpt>
      <trkpt lat="46.716789118945599" lon="12.327390974387527">
        <ele>1413.45</ele>
        <time>2023-03-12T09:08:59Z</time>
      </trkpt>
      <trkpt lat="46.716801607981324" lon="12.327386867254972">
        <ele>1413.52</ele>
        <time>2023-03-12T09:09:00Z</time>
      </trkpt>
      <trkpt lat="46.716825244948268" lon="12.327380161732435">
        <ele>1413.5799999999999</ele>
        <time>2023-03-12T09:09:02Z</time>
      </trkpt>
      <trkpt lat="46.716904202476144" lon="12.327295923605561">
        <ele>1413.5599999999999</ele>
        <time>2023-03-12T09:09:12Z</time>
      </trkpt>
      <trkpt lat="46.717003863304853" lon="12.327219815924764">
        <ele>1414.0599999999999</ele>
        <time>2023-03-12T09:09:21Z</time>
      </trkpt>
      <trkpt lat="46.717109391465783" lon="12.327125268056989">
        <ele>1413.5</ele>
        <time>2023-03-12T09:09:36Z</time>
      </trkpt>
      <trkpt lat="46.717206872999668" lon="12.327035581693053">
        <ele>1412.8399999999999</ele>
        <time>2023-03-12T09:09:51Z</time>
      </trkpt>
      <trkpt lat="46.717282393947244" lon="12.32697238214314">
        <ele>1414.71</ele>
        <time>2023-03-12T09:10:00Z</time>
      </trkpt>
      <trkpt lat="46.717400997877121" lon="12.32688931748271">
        <ele>1416.55</ele>
        <time>2023-03-12T09:10:18Z</time>
      </trkpt>
      <trkpt lat="46.717492528259754" lon="12.327010352164507">
        <ele>1415.8699999999999</ele>
        <time>2023-03-12T09:10:32Z</time>
      </trkpt>
      <trkpt lat="46.717554638162255" lon="12.327188216149807">
        <ele>1414.03</ele>
        <time>2023-03-12T09:10:48Z</time>
      </trkpt>
      <trkpt lat="46.717568803578615" lon="12.327378569170833">
        <ele>1411.52</ele>
        <time>2023-03-12T09:11:02Z</time>
      </trkpt>
      <trkpt lat="46.717588920146227" lon="12.327526090666652">
        <ele>1409.3599999999999</ele>
        <time>2023-03-12T09:11:16Z</time>
      </trkpt>
      <trkpt lat="46.717553213238716" lon="12.327694064006209">
        <ele>1407.6099999999999</ele>
        <time>2023-03-12T09:11:30Z</time>
      </trkpt>
      <trkpt lat="46.717555392533541" lon="12.327869078144431">
        <ele>1409.23</ele>
        <time>2023-03-12T09:11:46Z</time>
      </trkpt>
      <trkpt lat="46.717569809406996" lon="12.327973935753107">
        <ele>1410.9200000000001</ele>
        <time>2023-03-12T09:12:01Z</time>
      </trkpt>
      <trkpt lat="46.717571569606662" lon="12.328064879402518">
        <ele>1411.21</ele>
        <time>2023-03-12T09:12:16Z</time>
      </trkpt>
      <trkpt lat="46.717527480795979" lon="12.328099999576807">
        <ele>1415.3</ele>
        <time>2023-03-12T09:12:31Z</time>
      </trkpt>
      <trkpt lat="46.717497138306499" lon="12.32816613279283">
        <ele>1418.29</ele>
        <time>2023-03-12T09:12:47Z</time>
      </trkpt>
      <trkpt lat="46.717486828565598" lon="12.328261854127049">
        <ele>1420.79</ele>
        <time>2023-03-12T09:12:57Z</time>
      </trkpt>
      <trkpt lat="46.717463694512844" lon="12.328329412266612">
        <ele>1422.5</ele>
        <time>2023-03-12T09:13:07Z</time>
      </trkpt>
      <trkpt lat="46.717439135536551" lon="12.328492440283298">
        <ele>1423.55</ele>
        <time>2023-03-12T09:13:21Z</time>
      </trkpt>
      <trkpt lat="46.717438045889139" lon="12.328655300661922">
        <ele>1423.3900000000001</ele>
        <time>2023-03-12T09:13:34Z</time>
      </trkpt>
      <trkpt lat="46.717454306781292" lon="12.328841630369425">
        <ele>1423.1400000000001</ele>
        <time>2023-03-12T09:13:49Z</time>
      </trkpt>
      <trkpt lat="46.717453049495816" lon="12.328992001712322">
        <ele>1422.1500000000001</ele>
        <time>2023-03-12T09:14:01Z</time>
      </trkpt>
      <trkpt lat="46.717427652329206" lon="12.329156203195453">
        <ele>1421.22</ele>
        <time>2023-03-12T09:14:14Z</time>
      </trkpt>
      <trkpt lat="46.717321956530213" lon="12.329315291717649">
        <ele>1418.8299999999999</ele>
        <time>2023-03-12T09:14:29Z</time>
      </trkpt>
      <trkpt lat="46.717180134728551" lon="12.329449066892266">
        <ele>1418.4000000000001</ele>
        <time>2023-03-12T09:14:44Z</time>
      </trkpt>
      <trkpt lat="46.71710972674191" lon="12.329562054947019">
        <ele>1421.4400000000001</ele>
        <time>2023-03-12T09:14:56Z</time>
      </trkpt>
      <trkpt lat="46.717105619609356" lon="12.3295733705163">
        <ele>1421.6300000000001</ele>
        <time>2023-03-12T09:14:57Z</time>
      </trkpt>
      <trkpt lat="46.717031188309193" lon="12.32972290366888">
        <ele>1423.5999999999999</ele>
        <time>2023-03-12T09:15:13Z</time>
      </trkpt>
      <trkpt lat="46.716986848041415" lon="12.329882495105267">
        <ele>1426.4200000000001</ele>
        <time>2023-03-12T09:15:29Z</time>
      </trkpt>
      <trkpt lat="46.716886600479484" lon="12.329977210611105">
        <ele>1425.0999999999999</ele>
        <time>2023-03-12T09:15:46Z</time>
      </trkpt>
      <trkpt lat="46.716778809204698" lon="12.330063292756677">
        <ele>1425.5</ele>
        <time>2023-03-12T09:16:03Z</time>
      </trkpt>
      <trkpt lat="46.716757351532578" lon="12.330078799277544">
        <ele>1425.55</ele>
        <time>2023-03-12T09:16:07Z</time>
      </trkpt>
      <trkpt lat="46.71673983335495" lon="12.330097574740648">
        <ele>1425.77</ele>
        <time>2023-03-12T09:16:10Z</time>
      </trkpt>
      <trkpt lat="46.716659869998693" lon="12.330126827582717">
        <ele>1428.1099999999999</ele>
        <time>2023-03-12T09:16:25Z</time>
      </trkpt>
      <trkpt lat="46.716521149501204" lon="12.330218106508255">
        <ele>1433.26</ele>
        <time>2023-03-12T09:16:42Z</time>
      </trkpt>
      <trkpt lat="46.716404221951962" lon="12.330359425395727">
        <ele>1438.04</ele>
        <time>2023-03-12T09:16:59Z</time>
      </trkpt>
      <trkpt lat="46.71631327830255" lon="12.33050175011158">
        <ele>1438.6800000000001</ele>
        <time>2023-03-12T09:17:14Z</time>
      </trkpt>
      <trkpt lat="46.716272626072168" lon="12.330672573298216">
        <ele>1440.6400000000001</ele>
        <time>2023-03-12T09:17:29Z</time>
      </trkpt>
      <trkpt lat="46.716237086802721" lon="12.33084381558001">
        <ele>1440.6500000000001</ele>
        <time>2023-03-12T09:17:43Z</time>
      </trkpt>
      <trkpt lat="46.716211941093206" lon="12.331037605181336">
        <ele>1442.2</ele>
        <time>2023-03-12T09:18:02Z</time>
      </trkpt>
      <trkpt lat="46.716205319389701" lon="12.331169787794352">
        <ele>1442.97</ele>
        <time>2023-03-12T09:18:16Z</time>
      </trkpt>
      <trkpt lat="46.716171624138951" lon="12.331380592659116">
        <ele>1444.8900000000001</ele>
        <time>2023-03-12T09:18:30Z</time>
      </trkpt>
      <trkpt lat="46.71616617590189" lon="12.33142870478332">
        <ele>1445.22</ele>
        <time>2023-03-12T09:18:33Z</time>
      </trkpt>
      <trkpt lat="46.716191237792373" lon="12.331488048657775">
        <ele>1467.1900000000001</ele>
        <time>2023-03-12T09:20:02Z</time>
      </trkpt>
      <trkpt lat="46.716312691569328" lon="12.331440942361951">
        <ele>1470.1600000000001</ele>
        <time>2023-03-12T09:20:19Z</time>
      </trkpt>
      <trkpt lat="46.716433390974998" lon="12.331513864919543">
        <ele>1470.8</ele>
        <time>2023-03-12T09:20:36Z</time>
      </trkpt>
      <trkpt lat="46.716533806174994" lon="12.331635486334562">
        <ele>1470.28</ele>
        <time>2023-03-12T09:20:51Z</time>
      </trkpt>
      <trkpt lat="46.716631455346942" lon="12.331738835200667">
        <ele>1470.3</ele>
        <time>2023-03-12T09:21:07Z</time>
      </trkpt>
      <trkpt lat="46.716689625754952" lon="12.331891972571611">
        <ele>1470.03</ele>
        <time>2023-03-12T09:21:21Z</time>
      </trkpt>
      <trkpt lat="46.71666313894093" lon="12.33199498616159">
        <ele>1471.22</ele>
        <time>2023-03-12T09:21:37Z</time>
      </trkpt>
      <trkpt lat="46.716559790074825" lon="12.332120295614004">
        <ele>1471.3699999999999</ele>
        <time>2023-03-12T09:21:53Z</time>
      </trkpt>
      <trkpt lat="46.716556772589684" lon="12.3321533203125">
        <ele>1471.6900000000001</ele>
        <time>2023-03-12T09:21:56Z</time>
      </trkpt>
      <trkpt lat="46.71663966961205" lon="12.332281647250056">
        <ele>1477.9200000000001</ele>
        <time>2023-03-12T09:22:32Z</time>
      </trkpt>
      <trkpt lat="46.716774450615048" lon="12.332323389127851">
        <ele>1477.52</ele>
        <time>2023-03-12T09:22:50Z</time>
      </trkpt>
      <trkpt lat="46.716920044273138" lon="12.332292040809989">
        <ele>1480.9400000000001</ele>
        <time>2023-03-12T09:23:06Z</time>
      </trkpt>
      <trkpt lat="46.71696119941771" lon="12.332281228154898">
        <ele>1483.3499999999999</ele>
        <time>2023-03-12T09:23:09Z</time>
      </trkpt>
      <trkpt lat="46.717033199965954" lon="12.332341577857733">
        <ele>1488.8900000000001</ele>
        <time>2023-03-12T09:23:18Z</time>
      </trkpt>
      <trkpt lat="46.717008892446756" lon="12.332434700801969">
        <ele>1490.54</ele>
        <time>2023-03-12T09:23:30Z</time>
      </trkpt>
      <trkpt lat="46.716923732310534" lon="12.33255548402667">
        <ele>1491.0899999999999</ele>
        <time>2023-03-12T09:23:44Z</time>
      </trkpt>
      <trkpt lat="46.716833291575313" lon="12.332674507051706">
        <ele>1490.0999999999999</ele>
        <time>2023-03-12T09:23:58Z</time>
      </trkpt>
      <trkpt lat="46.716747879981995" lon="12.33280174434185">
        <ele>1490.4000000000001</ele>
        <time>2023-03-12T09:24:13Z</time>
      </trkpt>
      <trkpt lat="46.716637490317225" lon="12.332959743216634">
        <ele>1489.22</ele>
        <time>2023-03-12T09:24:30Z</time>
      </trkpt>
      <trkpt lat="46.716568507254124" lon="12.333029480651021">
        <ele>1489.23</ele>
        <time>2023-03-12T09:24:46Z</time>
      </trkpt>
      <trkpt lat="46.716458704322577" lon="12.33311883173883">
        <ele>1487.6199999999999</ele>
        <time>2023-03-12T09:25:00Z</time>
      </trkpt>
      <trkpt lat="46.716382093727589" lon="12.333308095112443">
        <ele>1486.46</ele>
        <time>2023-03-12T09:25:15Z</time>
      </trkpt>
      <trkpt lat="46.716361306607723" lon="12.333424100652337">
        <ele>1486.6700000000001</ele>
        <time>2023-03-12T09:25:26Z</time>
      </trkpt>
      <trkpt lat="46.716313110664487" lon="12.333577405661345">
        <ele>1486.3</ele>
        <time>2023-03-12T09:25:40Z</time>
      </trkpt>
      <trkpt lat="46.716263322159648" lon="12.333721490576863">
        <ele>1489.23</ele>
        <time>2023-03-12T09:25:55Z</time>
      </trkpt>
      <trkpt lat="46.716237841174006" lon="12.333768513053656">
        <ele>1489.8099999999999</ele>
        <time>2023-03-12T09:26:01Z</time>
      </trkpt>
      <trkpt lat="46.716167852282524" lon="12.333885859698057">
        <ele>1492.6800000000001</ele>
        <time>2023-03-12T09:26:15Z</time>
      </trkpt>
      <trkpt lat="46.716050170361996" lon="12.334044277667999">
        <ele>1495.8099999999999</ele>
        <time>2023-03-12T09:26:28Z</time>
      </trkpt>
      <trkpt lat="46.715957466512918" lon="12.334186267107725">
        <ele>1499.6400000000001</ele>
        <time>2023-03-12T09:26:41Z</time>
      </trkpt>
      <trkpt lat="46.715903235599399" lon="12.334329262375832">
        <ele>1501.51</ele>
        <time>2023-03-12T09:26:53Z</time>
      </trkpt>
      <trkpt lat="46.715863421559334" lon="12.334488769993186">
        <ele>1503.72</ele>
        <time>2023-03-12T09:27:06Z</time>
      </trkpt>
      <trkpt lat="46.715837437659502" lon="12.334563452750444">
        <ele>1504.47</ele>
        <time>2023-03-12T09:27:13Z</time>
      </trkpt>
      <trkpt lat="46.715820506215096" lon="12.33462774194777">
        <ele>1504.6800000000001</ele>
        <time>2023-03-12T09:27:18Z</time>
      </trkpt>
      <trkpt lat="46.715793767943978" lon="12.334771156311035">
        <ele>1503.8800000000001</ele>
        <time>2023-03-12T09:27:29Z</time>
      </trkpt>
      <trkpt lat="46.715770047158003" lon="12.334948182106018">
        <ele>1500.8900000000001</ele>
        <time>2023-03-12T09:27:43Z</time>
      </trkpt>
      <trkpt lat="46.715778931975365" lon="12.335138535127044">
        <ele>1498.2</ele>
        <time>2023-03-12T09:27:59Z</time>
      </trkpt>
      <trkpt lat="46.715778596699238" lon="12.33522922731936">
        <ele>1497.3099999999999</ele>
        <time>2023-03-12T09:28:05Z</time>
      </trkpt>
      <trkpt lat="46.715789744630456" lon="12.335355542600155">
        <ele>1497.48</ele>
        <time>2023-03-12T09:28:12Z</time>
      </trkpt>
      <trkpt lat="46.715763257816434" lon="12.335499292239547">
        <ele>1498.3299999999999</ele>
        <time>2023-03-12T09:28:23Z</time>
      </trkpt>
      <trkpt lat="46.715716905891895" lon="12.335654944181442">
        <ele>1498.6900000000001</ele>
        <time>2023-03-12T09:28:36Z</time>
      </trkpt>
      <trkpt lat="46.715699890628457" lon="12.33569928444922">
        <ele>1499.4100000000001</ele>
        <time>2023-03-12T09:28:40Z</time>
      </trkpt>
      <trkpt lat="46.71564725227654" lon="12.335852421820164">
        <ele>1502.05</ele>
        <time>2023-03-12T09:28:54Z</time>
      </trkpt>
      <trkpt lat="46.715616658329964" lon="12.335939174517989">
        <ele>1504.0899999999999</ele>
        <time>2023-03-12T09:29:08Z</time>
      </trkpt>
      <trkpt lat="46.71561548486352" lon="12.335942443460226">
        <ele>1506.29</ele>
        <time>2023-03-12T09:29:14Z</time>
      </trkpt>
      <trkpt lat="46.715588495135307" lon="12.33603741042316">
        <ele>1512.29</ele>
        <time>2023-03-12T09:29:30Z</time>
      </trkpt>
      <trkpt lat="46.715547339990735" lon="12.336162887513638">
        <ele>1515.6099999999999</ele>
        <time>2023-03-12T09:29:43Z</time>
      </trkpt>
      <trkpt lat="46.715542562305927" lon="12.336341002956033">
        <ele>1521.6199999999999</ele>
        <time>2023-03-12T09:30:02Z</time>
      </trkpt>
      <trkpt lat="46.715548262000084" lon="12.336528589949012">
        <ele>1524.1199999999999</ele>
        <time>2023-03-12T09:30:21Z</time>
      </trkpt>
      <trkpt lat="46.715558068826795" lon="12.33669999986887">
        <ele>1525.5799999999999</ele>
        <time>2023-03-12T09:30:36Z</time>
      </trkpt>
      <trkpt lat="46.71556125395" lon="12.336836373433471">
        <ele>1526.0699999999999</ele>
        <time>2023-03-12T09:30:49Z</time>
      </trkpt>
      <trkpt lat="46.715541053563356" lon="12.336992947384715">
        <ele>1528.8099999999999</ele>
        <time>2023-03-12T09:31:03Z</time>
      </trkpt>
      <trkpt lat="46.715522278100252" lon="12.337074670940638">
        <ele>1529.6900000000001</ele>
        <time>2023-03-12T09:31:11Z</time>
      </trkpt>
      <trkpt lat="46.71551238745451" lon="12.337116496637464">
        <ele>1530.1199999999999</ele>
        <time>2023-03-12T09:31:14Z</time>
      </trkpt>
      <trkpt lat="46.715459246188402" lon="12.337236190214753">
        <ele>1530.47</ele>
        <time>2023-03-12T09:31:25Z</time>
      </trkpt>
      <trkpt lat="46.715413900092244" lon="12.337368540465832">
        <ele>1531.5999999999999</ele>
        <time>2023-03-12T09:31:39Z</time>
      </trkpt>
      <trkpt lat="46.715379869565368" lon="12.337524527683854">
        <ele>1532.27</ele>
        <time>2023-03-12T09:31:55Z</time>
      </trkpt>
      <trkpt lat="46.715350616723299" lon="12.337663751095533">
        <ele>1534.5</ele>
        <time>2023-03-12T09:32:07Z</time>
      </trkpt>
      <trkpt lat="46.715361932292581" lon="12.337836921215057">
        <ele>1537.8199999999999</ele>
        <time>2023-03-12T09:32:20Z</time>
      </trkpt>
      <trkpt lat="46.715384982526302" lon="12.337984861806035">
        <ele>1542.8900000000001</ele>
        <time>2023-03-12T09:32:34Z</time>
      </trkpt>
      <trkpt lat="46.715395292267203" lon="12.338044457137585">
        <ele>1543.54</ele>
        <time>2023-03-12T09:32:39Z</time>
      </trkpt>
      <trkpt lat="46.715416666120291" lon="12.338209832087159">
        <ele>1545.3099999999999</ele>
        <time>2023-03-12T09:32:52Z</time>
      </trkpt>
      <trkpt lat="46.715444577857852" lon="12.338356766849756">
        <ele>1546.6500000000001</ele>
        <time>2023-03-12T09:33:06Z</time>
      </trkpt>
      <trkpt lat="46.715433346107602" lon="12.338385935872793">
        <ele>1548.3900000000001</ele>
        <time>2023-03-12T09:33:20Z</time>
      </trkpt>
      <trkpt lat="46.715436028316617" lon="12.338391216471791">
        <ele>1549.3900000000001</ele>
        <time>2023-03-12T09:33:37Z</time>
      </trkpt>
      <trkpt lat="46.715457150712609" lon="12.338481405749917">
        <ele>1549.1800000000001</ele>
        <time>2023-03-12T09:33:53Z</time>
      </trkpt>
      <trkpt lat="46.715469220653176" lon="12.338663879781961">
        <ele>1548.3599999999999</ele>
        <time>2023-03-12T09:34:09Z</time>
      </trkpt>
      <trkpt lat="46.715475423261523" lon="12.338801259174943">
        <ele>1548.0999999999999</ele>
        <time>2023-03-12T09:34:20Z</time>
      </trkpt>
      <trkpt lat="46.715534934774041" lon="12.338903937488794">
        <ele>1551.78</ele>
        <time>2023-03-12T09:35:00Z</time>
      </trkpt>
      <trkpt lat="46.715576592832804" lon="12.338956072926521">
        <ele>1553.55</ele>
        <time>2023-03-12T09:35:15Z</time>
      </trkpt>
      <trkpt lat="46.715638283640146" lon="12.338989851996303">
        <ele>1554.55</ele>
        <time>2023-03-12T09:35:29Z</time>
      </trkpt>
      <trkpt lat="46.715729730203748" lon="12.339068977162242">
        <ele>1556.03</ele>
        <time>2023-03-12T09:35:45Z</time>
      </trkpt>
      <trkpt lat="46.715729562565684" lon="12.339188838377595">
        <ele>1556.3299999999999</ele>
        <time>2023-03-12T09:35:58Z</time>
      </trkpt>
      <trkpt lat="46.715766610577703" lon="12.339214151725173">
        <ele>1558.01</ele>
        <time>2023-03-12T09:36:33Z</time>
      </trkpt>
      <trkpt lat="46.715902565047145" lon="12.339116502553225">
        <ele>1558.5899999999999</ele>
        <time>2023-03-12T09:36:52Z</time>
      </trkpt>
      <trkpt lat="46.715978169813752" lon="12.339047016575933">
        <ele>1559.5</ele>
        <time>2023-03-12T09:37:08Z</time>
      </trkpt>
      <trkpt lat="46.716039692983031" lon="12.338968059048057">
        <ele>1561.1900000000001</ele>
        <time>2023-03-12T09:37:21Z</time>
      </trkpt>
      <trkpt lat="46.716132732108235" lon="12.338890107348561">
        <ele>1564.1800000000001</ele>
        <time>2023-03-12T09:37:35Z</time>
      </trkpt>
      <trkpt lat="46.716170785948634" lon="12.338847778737545">
        <ele>1566.1600000000001</ele>
        <time>2023-03-12T09:37:48Z</time>
      </trkpt>
      <trkpt lat="46.716185957193375" lon="12.338893041014671">
        <ele>1568.1700000000001</ele>
        <time>2023-03-12T09:38:05Z</time>
      </trkpt>
      <trkpt lat="46.716222837567329" lon="12.338972585275769">
        <ele>1568.4200000000001</ele>
        <time>2023-03-12T09:38:18Z</time>
      </trkpt>
      <trkpt lat="46.716262400150299" lon="12.339062858372927">
        <ele>1568.55</ele>
        <time>2023-03-12T09:38:33Z</time>
      </trkpt>
      <trkpt lat="46.71630347147584" lon="12.339187413454056">
        <ele>1568.4100000000001</ele>
        <time>2023-03-12T09:38:46Z</time>
      </trkpt>
      <trkpt lat="46.716360468417406" lon="12.339268047362566">
        <ele>1569.03</ele>
        <time>2023-03-12T09:38:58Z</time>
      </trkpt>
      <trkpt lat="46.716424003243446" lon="12.33940701931715">
        <ele>1569.6800000000001</ele>
        <time>2023-03-12T09:39:15Z</time>
      </trkpt>
      <trkpt lat="46.716451831161976" lon="12.339542722329497">
        <ele>1570.28</ele>
        <time>2023-03-12T09:39:33Z</time>
      </trkpt>
      <trkpt lat="46.716488543897867" lon="12.339618327096105">
        <ele>1572.6400000000001</ele>
        <time>2023-03-12T09:39:50Z</time>
      </trkpt>
      <trkpt lat="46.716500110924244" lon="12.339740535244346">
        <ele>1580.4300000000001</ele>
        <time>2023-03-12T09:40:40Z</time>
      </trkpt>
      <trkpt lat="46.716468427330256" lon="12.339778337627649">
        <ele>1580.3499999999999</ele>
        <time>2023-03-12T09:40:56Z</time>
      </trkpt>
      <trkpt lat="46.716404389590025" lon="12.339873388409615">
        <ele>1581.04</ele>
        <time>2023-03-12T09:41:14Z</time>
      </trkpt>
      <trkpt lat="46.716295341029763" lon="12.33995134010911">
        <ele>1587.5</ele>
        <time>2023-03-12T09:42:55Z</time>
      </trkpt>
      <trkpt lat="46.716243792325258" lon="12.340026944875717">
        <ele>1588.5999999999999</ele>
        <time>2023-03-12T09:43:14Z</time>
      </trkpt>
      <trkpt lat="46.716161398217082" lon="12.340156529098749">
        <ele>1586.05</ele>
        <time>2023-03-12T09:43:27Z</time>
      </trkpt>
      <trkpt lat="46.716076573356986" lon="12.340288292616606">
        <ele>1584.8099999999999</ele>
        <time>2023-03-12T09:43:42Z</time>
      </trkpt>
      <trkpt lat="46.716035753488541" lon="12.340335566550493">
        <ele>1584.6900000000001</ele>
        <time>2023-03-12T09:43:53Z</time>
      </trkpt>
      <trkpt lat="46.716005075722933" lon="12.340504378080368">
        <ele>1585.2</ele>
        <time>2023-03-12T09:44:05Z</time>
      </trkpt>
      <trkpt lat="46.715960651636124" lon="12.340566404163837">
        <ele>1586.4300000000001</ele>
        <time>2023-03-12T09:44:15Z</time>
      </trkpt>
      <trkpt lat="46.715903151780367" lon="12.340627089142799">
        <ele>1588.24</ele>
        <time>2023-03-12T09:44:26Z</time>
      </trkpt>
      <trkpt lat="46.715891333296895" lon="12.340656677260995">
        <ele>1588.5799999999999</ele>
        <time>2023-03-12T09:44:29Z</time>
      </trkpt>
      <trkpt lat="46.715801227837801" lon="12.340741669759154">
        <ele>1589.2</ele>
        <time>2023-03-12T09:44:43Z</time>
      </trkpt>
      <trkpt lat="46.715727970004082" lon="12.340794559568167">
        <ele>1590.1900000000001</ele>
        <time>2023-03-12T09:44:56Z</time>
      </trkpt>
      <trkpt lat="46.715722102671862" lon="12.340790620073676">
        <ele>1593.29</ele>
        <time>2023-03-12T09:45:14Z</time>
      </trkpt>
      <trkpt lat="46.715712295845151" lon="12.340817945078015">
        <ele>1595.5799999999999</ele>
        <time>2023-03-12T09:45:29Z</time>
      </trkpt>
      <trkpt lat="46.715670637786388" lon="12.340893214568496">
        <ele>1596.0899999999999</ele>
        <time>2023-03-12T09:45:41Z</time>
      </trkpt>
      <trkpt lat="46.715650605037808" lon="12.340890783816576">
        <ele>1601.4000000000001</ele>
        <time>2023-03-12T09:46:33Z</time>
      </trkpt>
      <trkpt lat="46.715607605874538" lon="12.340956162661314">
        <ele>1602.23</ele>
        <time>2023-03-12T09:46:54Z</time>
      </trkpt>
      <trkpt lat="46.715555805712938" lon="12.341076778247952">
        <ele>1602.8800000000001</ele>
        <time>2023-03-12T09:47:07Z</time>
      </trkpt>
      <trkpt lat="46.715535270050168" lon="12.341229496523738">
        <ele>1602.3</ele>
        <time>2023-03-12T09:47:22Z</time>
      </trkpt>
      <trkpt lat="46.715577431023121" lon="12.341250870376825">
        <ele>1606.6099999999999</ele>
        <time>2023-03-12T09:48:07Z</time>
      </trkpt>
      <trkpt lat="46.715657478198409" lon="12.341289259493351">
        <ele>1607.9300000000001</ele>
        <time>2023-03-12T09:48:21Z</time>
      </trkpt>
      <trkpt lat="46.715745404362679" lon="12.341291690245271">
        <ele>1608.6700000000001</ele>
        <time>2023-03-12T09:48:33Z</time>
      </trkpt>
      <trkpt lat="46.715772980824113" lon="12.341306358575821">
        <ele>1608.5999999999999</ele>
        <time>2023-03-12T09:48:37Z</time>
      </trkpt>
      <trkpt lat="46.715800473466516" lon="12.341315746307373">
        <ele>1608.3199999999999</ele>
        <time>2023-03-12T09:48:40Z</time>
      </trkpt>
      <trkpt lat="46.715831821784377" lon="12.341321529820561">
        <ele>1608.3800000000001</ele>
        <time>2023-03-12T09:48:44Z</time>
      </trkpt>
      <trkpt lat="46.715908264741302" lon="12.341322116553783">
        <ele>1607.8900000000001</ele>
        <time>2023-03-12T09:48:55Z</time>
      </trkpt>
      <trkpt lat="46.716017397120595" lon="12.341308537870646">
        <ele>1605.1900000000001</ele>
        <time>2023-03-12T09:49:12Z</time>
      </trkpt>
      <trkpt lat="46.716109933331609" lon="12.34131122007966">
        <ele>1603.1199999999999</ele>
        <time>2023-03-12T09:49:27Z</time>
      </trkpt>
      <trkpt lat="46.716208923608065" lon="12.341370731592178">
        <ele>1603.3399999999999</ele>
        <time>2023-03-12T09:49:41Z</time>
      </trkpt>
      <trkpt lat="46.71621018089354" lon="12.341478187590837">
        <ele>1603.22</ele>
        <time>2023-03-12T09:49:51Z</time>
      </trkpt>
      <trkpt lat="46.716127786785364" lon="12.341565107926726">
        <ele>1604.3299999999999</ele>
        <time>2023-03-12T09:50:04Z</time>
      </trkpt>
      <trkpt lat="46.716049499809742" lon="12.341635348275304">
        <ele>1605.27</ele>
        <time>2023-03-12T09:50:15Z</time>
      </trkpt>
      <trkpt lat="46.715989401564002" lon="12.341688154265285">
        <ele>1605.9100000000001</ele>
        <time>2023-03-12T09:50:23Z</time>
      </trkpt>
      <trkpt lat="46.715944055467844" lon="12.341725202277303">
        <ele>1606.76</ele>
        <time>2023-03-12T09:50:33Z</time>
      </trkpt>
      <trkpt lat="46.715922178700566" lon="12.341682370752096">
        <ele>1610.7</ele>
        <time>2023-03-12T09:50:53Z</time>
      </trkpt>
      <trkpt lat="46.715919328853488" lon="12.34168404713273">
        <ele>1616.45</ele>
        <time>2023-03-12T09:53:10Z</time>
      </trkpt>
      <trkpt lat="46.715836264193058" lon="12.341726208105683">
        <ele>1616.3499999999999</ele>
        <time>2023-03-12T09:53:24Z</time>
      </trkpt>
      <trkpt lat="46.715775579214096" lon="12.341790413483977">
        <ele>1615.79</ele>
        <time>2023-03-12T09:53:33Z</time>
      </trkpt>
      <trkpt lat="46.715701567009091" lon="12.341881524771452">
        <ele>1614.49</ele>
        <time>2023-03-12T09:53:44Z</time>
      </trkpt>
      <trkpt lat="46.715622441843152" lon="12.341991076245904">
        <ele>1613.4200000000001</ele>
        <time>2023-03-12T09:53:59Z</time>
      </trkpt>
      <trkpt lat="46.715520350262523" lon="12.342090653255582">
        <ele>1612.3800000000001</ele>
        <time>2023-03-12T09:54:16Z</time>
      </trkpt>
      <trkpt lat="46.715440219268203" lon="12.342185871675611">
        <ele>1613.04</ele>
        <time>2023-03-12T09:54:33Z</time>
      </trkpt>
      <trkpt lat="46.715382216498256" lon="12.34228016808629">
        <ele>1612.6400000000001</ele>
        <time>2023-03-12T09:54:49Z</time>
      </trkpt>
      <trkpt lat="46.715301079675555" lon="12.34237739816308">
        <ele>1613.6500000000001</ele>
        <time>2023-03-12T09:55:05Z</time>
      </trkpt>
      <trkpt lat="46.715225139632821" lon="12.34246926382184">
        <ele>1615.45</ele>
        <time>2023-03-12T09:55:21Z</time>
      </trkpt>
      <trkpt lat="46.715140230953693" lon="12.342536905780435">
        <ele>1620.49</ele>
        <time>2023-03-12T09:55:37Z</time>
      </trkpt>
      <trkpt lat="46.715040151029825" lon="12.342615779489279">
        <ele>1622.6500000000001</ele>
        <time>2023-03-12T09:55:53Z</time>
      </trkpt>
      <trkpt lat="46.714978208765388" lon="12.342694150283933">
        <ele>1624.8800000000001</ele>
        <time>2023-03-12T09:56:08Z</time>
      </trkpt>
      <trkpt lat="46.714975945651531" lon="12.34273262321949">
        <ele>1628.6500000000001</ele>
        <time>2023-03-12T09:56:25Z</time>
      </trkpt>
      <trkpt lat="46.715036798268557" lon="12.34279221855104">
        <ele>1632.2</ele>
        <time>2023-03-12T09:56:40Z</time>
      </trkpt>
      <trkpt lat="46.715070996433496" lon="12.34287092462182">
        <ele>1634.72</ele>
        <time>2023-03-12T09:56:52Z</time>
      </trkpt>
      <trkpt lat="46.715111313387752" lon="12.342918450012803">
        <ele>1635.4300000000001</ele>
        <time>2023-03-12T09:57:06Z</time>
      </trkpt>
      <trkpt lat="46.715116007253528" lon="12.342931944876909">
        <ele>1640.03</ele>
        <time>2023-03-12T09:57:21Z</time>
      </trkpt>
      <trkpt lat="46.715180380269885" lon="12.342944014817476">
        <ele>1641.3099999999999</ele>
        <time>2023-03-12T09:57:36Z</time>
      </trkpt>
      <trkpt lat="46.715273000299931" lon="12.342892969027162">
        <ele>1643.26</ele>
        <time>2023-03-12T09:57:54Z</time>
      </trkpt>
      <trkpt lat="46.715368470177054" lon="12.342904703691602">
        <ele>1645.71</ele>
        <time>2023-03-12T09:58:09Z</time>
      </trkpt>
      <trkpt lat="46.715509202331305" lon="12.342887185513973">
        <ele>1645.1800000000001</ele>
        <time>2023-03-12T09:58:25Z</time>
      </trkpt>
      <trkpt lat="46.715639038011432" lon="12.342968489974737">
        <ele>1648.4100000000001</ele>
        <time>2023-03-12T09:58:41Z</time>
      </trkpt>
      <trkpt lat="46.715679271146655" lon="12.343135289847851">
        <ele>1650.9400000000001</ele>
        <time>2023-03-12T09:58:57Z</time>
      </trkpt>
      <trkpt lat="46.71570441685617" lon="12.343269735574722">
        <ele>1653.6600000000001</ele>
        <time>2023-03-12T09:59:11Z</time>
      </trkpt>
      <trkpt lat="46.715687904506922" lon="12.343395967036486">
        <ele>1654.96</ele>
        <time>2023-03-12T09:59:24Z</time>
      </trkpt>
      <trkpt lat="46.715654293075204" lon="12.343494286760688">
        <ele>1654.55</ele>
        <time>2023-03-12T09:59:34Z</time>
      </trkpt>
      <trkpt lat="46.715593440458179" lon="12.34361850656569">
        <ele>1654.3</ele>
        <time>2023-03-12T09:59:47Z</time>
      </trkpt>
      <trkpt lat="46.715532084926963" lon="12.343737613409758">
        <ele>1654.55</ele>
        <time>2023-03-12T09:59:58Z</time>
      </trkpt>
      <trkpt lat="46.7154351901263" lon="12.343909442424774">
        <ele>1652.9300000000001</ele>
        <time>2023-03-12T10:00:13Z</time>
      </trkpt>
      <trkpt lat="46.715385820716619" lon="12.343981778249145">
        <ele>1653.46</ele>
        <time>2023-03-12T10:00:20Z</time>
      </trkpt>
      <trkpt lat="46.715363441035151" lon="12.344043049961329">
        <ele>1654.74</ele>
        <time>2023-03-12T10:00:24Z</time>
      </trkpt>
      <trkpt lat="46.715271407738328" lon="12.344267349690199">
        <ele>1655.6199999999999</ele>
        <time>2023-03-12T10:00:40Z</time>
      </trkpt>
      <trkpt lat="46.715215584263206" lon="12.34438318759203">
        <ele>1655.1700000000001</ele>
        <time>2023-03-12T10:00:50Z</time>
      </trkpt>
      <trkpt lat="46.715190438553691" lon="12.344445548951626">
        <ele>1655.21</ele>
        <time>2023-03-12T10:00:57Z</time>
      </trkpt>
      <trkpt lat="46.715181134641171" lon="12.344471616670489">
        <ele>1655.1600000000001</ele>
        <time>2023-03-12T10:00:59Z</time>
      </trkpt>
      <trkpt lat="46.715118186548352" lon="12.344586197286844">
        <ele>1655.54</ele>
        <time>2023-03-12T10:01:10Z</time>
      </trkpt>
      <trkpt lat="46.715100584551692" lon="12.344617629423738">
        <ele>1655.76</ele>
        <time>2023-03-12T10:01:13Z</time>
      </trkpt>
      <trkpt lat="46.715035540983081" lon="12.344727599993348">
        <ele>1656.0799999999999</ele>
        <time>2023-03-12T10:01:22Z</time>
      </trkpt>
      <trkpt lat="46.714974772185087" lon="12.344859279692173">
        <ele>1655.8299999999999</ele>
        <time>2023-03-12T10:01:33Z</time>
      </trkpt>
      <trkpt lat="46.714910650625825" lon="12.344981823116541">
        <ele>1657.45</ele>
        <time>2023-03-12T10:01:45Z</time>
      </trkpt>
      <trkpt lat="46.714850468561053" lon="12.34510344453156">
        <ele>1658.5799999999999</ele>
        <time>2023-03-12T10:01:57Z</time>
      </trkpt>
      <trkpt lat="46.714815767481923" lon="12.345198579132557">
        <ele>1658.49</ele>
        <time>2023-03-12T10:02:07Z</time>
      </trkpt>
      <trkpt lat="46.714806379750371" lon="12.345291953533888">
        <ele>1659.3800000000001</ele>
        <time>2023-03-12T10:02:24Z</time>
      </trkpt>
      <trkpt lat="46.71481903642416" lon="12.345298072323203">
        <ele>1661.9200000000001</ele>
        <time>2023-03-12T10:02:42Z</time>
      </trkpt>
      <trkpt lat="46.714874356985092" lon="12.345316261053085">
        <ele>1663.1099999999999</ele>
        <time>2023-03-12T10:02:58Z</time>
      </trkpt>
      <trkpt lat="46.714963288977742" lon="12.345288097858429">
        <ele>1664.75</ele>
        <time>2023-03-12T10:03:11Z</time>
      </trkpt>
      <trkpt lat="46.715066889300942" lon="12.345355320721865">
        <ele>1666.3800000000001</ele>
        <time>2023-03-12T10:03:27Z</time>
      </trkpt>
      <trkpt lat="46.71510050073266" lon="12.345458250492811">
        <ele>1667.23</ele>
        <time>2023-03-12T10:03:38Z</time>
      </trkpt>
      <trkpt lat="46.715100333094597" lon="12.345603676512837">
        <ele>1669.21</ele>
        <time>2023-03-12T10:03:52Z</time>
      </trkpt>
      <trkpt lat="46.715055489912629" lon="12.345686489716172">
        <ele>1669.6700000000001</ele>
        <time>2023-03-12T10:04:07Z</time>
      </trkpt>
      <trkpt lat="46.714982148259878" lon="12.34577382914722">
        <ele>1670.02</ele>
        <time>2023-03-12T10:04:21Z</time>
      </trkpt>
      <trkpt lat="46.714956918731332" lon="12.345774751156569">
        <ele>1670.53</ele>
        <time>2023-03-12T10:04:36Z</time>
      </trkpt>
      <trkpt lat="46.714953565970063" lon="12.345893690362573">
        <ele>1671.6600000000001</ele>
        <time>2023-03-12T10:04:51Z</time>
      </trkpt>
      <trkpt lat="46.714992458000779" lon="12.34596929512918">
        <ele>1673.4200000000001</ele>
        <time>2023-03-12T10:05:07Z</time>
      </trkpt>
      <trkpt lat="46.715041324496269" lon="12.346108099445701">
        <ele>1679.26</ele>
        <time>2023-03-12T10:06:19Z</time>
      </trkpt>
      <trkpt lat="46.715060267597437" lon="12.346224104985595">
        <ele>1680.79</ele>
        <time>2023-03-12T10:06:35Z</time>
      </trkpt>
      <trkpt lat="46.715115336701274" lon="12.346262913197279">
        <ele>1682.0599999999999</ele>
        <time>2023-03-12T10:06:50Z</time>
      </trkpt>
      <trkpt lat="46.715175770223141" lon="12.346321921795607">
        <ele>1683.5</ele>
        <time>2023-03-12T10:07:06Z</time>
      </trkpt>
      <trkpt lat="46.715217847377062" lon="12.346422085538507">
        <ele>1686.27</ele>
        <time>2023-03-12T10:07:24Z</time>
      </trkpt>
      <trkpt lat="46.715211728587747" lon="12.346523171290755">
        <ele>1687.3099999999999</ele>
        <time>2023-03-12T10:07:38Z</time>
      </trkpt>
      <trkpt lat="46.715237544849515" lon="12.346597770228982">
        <ele>1690.47</ele>
        <time>2023-03-12T10:07:53Z</time>
      </trkpt>
      <trkpt lat="46.71527543105185" lon="12.34676037915051">
        <ele>1698.0899999999999</ele>
        <time>2023-03-12T10:08:53Z</time>
      </trkpt>
      <trkpt lat="46.715298481285572" lon="12.346809413284063">
        <ele>1698.3</ele>
        <time>2023-03-12T10:09:04Z</time>
      </trkpt>
      <trkpt lat="46.71536578796804" lon="12.346889544278383">
        <ele>1697.75</ele>
        <time>2023-03-12T10:09:18Z</time>
      </trkpt>
      <trkpt lat="46.71547869220376" lon="12.346918042749166">
        <ele>1697.45</ele>
        <time>2023-03-12T10:09:32Z</time>
      </trkpt>
      <trkpt lat="46.715546669438481" lon="12.346975291147828">
        <ele>1698.6700000000001</ele>
        <time>2023-03-12T10:09:44Z</time>
      </trkpt>
      <trkpt lat="46.715563014149666" lon="12.347010411322117">
        <ele>1702.01</ele>
        <time>2023-03-12T10:09:58Z</time>
      </trkpt>
      <trkpt lat="46.715561086311936" lon="12.347039328888059">
        <ele>1704.47</ele>
        <time>2023-03-12T10:10:24Z</time>
      </trkpt>
      <trkpt lat="46.715538455173373" lon="12.34706380404532">
        <ele>1706.27</ele>
        <time>2023-03-12T10:10:44Z</time>
      </trkpt>
      <trkpt lat="46.715428233146667" lon="12.34710537828505">
        <ele>1706.5</ele>
        <time>2023-03-12T10:11:01Z</time>
      </trkpt>
      <trkpt lat="46.715329913422465" lon="12.347216187044978">
        <ele>1705.78</ele>
        <time>2023-03-12T10:11:17Z</time>
      </trkpt>
      <trkpt lat="46.715240478515625" lon="12.347312159836292">
        <ele>1704.79</ele>
        <time>2023-03-12T10:11:31Z</time>
      </trkpt>
      <trkpt lat="46.71514643356204" lon="12.347447527572513">
        <ele>1703.24</ele>
        <time>2023-03-12T10:11:45Z</time>
      </trkpt>
      <trkpt lat="46.715051718056202" lon="12.347612818703055">
        <ele>1698.6099999999999</ele>
        <time>2023-03-12T10:12:00Z</time>
      </trkpt>
      <trkpt lat="46.714971419423819" lon="12.347735948860645">
        <ele>1695.25</ele>
        <time>2023-03-12T10:12:14Z</time>
      </trkpt>
      <trkpt lat="46.714886426925659" lon="12.347864611074328">
        <ele>1692.3599999999999</ele>
        <time>2023-03-12T10:12:30Z</time>
      </trkpt>
      <trkpt lat="46.714831022545695" lon="12.347979610785842">
        <ele>1690.54</ele>
        <time>2023-03-12T10:12:42Z</time>
      </trkpt>
      <trkpt lat="46.714765224605799" lon="12.348096203058958">
        <ele>1688.4200000000001</ele>
        <time>2023-03-12T10:12:57Z</time>
      </trkpt>
      <trkpt lat="46.714695654809475" lon="12.34821748919785">
        <ele>1687.6400000000001</ele>
        <time>2023-03-12T10:13:12Z</time>
      </trkpt>
      <trkpt lat="46.714593395590782" lon="12.348304325714707">
        <ele>1688.0999999999999</ele>
        <time>2023-03-12T10:13:27Z</time>
      </trkpt>
      <trkpt lat="46.71451167203486" lon="12.348379846662283">
        <ele>1689.29</ele>
        <time>2023-03-12T10:13:41Z</time>
      </trkpt>
      <trkpt lat="46.714398264884949" lon="12.348496606573462">
        <ele>1701.8800000000001</ele>
        <time>2023-03-12T10:14:25Z</time>
      </trkpt>
      <trkpt lat="46.714326096698642" lon="12.348574977368116">
        <ele>1702.8599999999999</ele>
        <time>2023-03-12T10:14:38Z</time>
      </trkpt>
      <trkpt lat="46.714250072836876" lon="12.348675476387143">
        <ele>1703.6099999999999</ele>
        <time>2023-03-12T10:14:53Z</time>
      </trkpt>
      <trkpt lat="46.714174635708332" lon="12.34886440448463">
        <ele>1704.9200000000001</ele>
        <time>2023-03-12T10:15:08Z</time>
      </trkpt>
      <trkpt lat="46.714094588533044" lon="12.348924251273274">
        <ele>1704</ele>
        <time>2023-03-12T10:15:19Z</time>
      </trkpt>
      <trkpt lat="46.714058378711343" lon="12.348962724208832">
        <ele>1705.1600000000001</ele>
        <time>2023-03-12T10:15:30Z</time>
      </trkpt>
      <trkpt lat="46.714070616289973" lon="12.348975799977779">
        <ele>1711.53</ele>
        <time>2023-03-12T10:15:52Z</time>
      </trkpt>
      <trkpt lat="46.714093666523695" lon="12.349049560725689">
        <ele>1714.04</ele>
        <time>2023-03-12T10:16:05Z</time>
      </trkpt>
      <trkpt lat="46.714119398966432" lon="12.349253157153726">
        <ele>1733.3299999999999</ele>
        <time>2023-03-12T10:17:36Z</time>
      </trkpt>
      <trkpt lat="46.714133732020855" lon="12.349285176023841">
        <ele>1735.96</ele>
        <time>2023-03-12T10:17:51Z</time>
      </trkpt>
      <trkpt lat="46.714155776426196" lon="12.349331947043538">
        <ele>1737.5599999999999</ele>
        <time>2023-03-12T10:18:05Z</time>
      </trkpt>
      <trkpt lat="46.714213276281953" lon="12.349449377506971">
        <ele>1739.0799999999999</ele>
        <time>2023-03-12T10:18:21Z</time>
      </trkpt>
      <trkpt lat="46.714243534952402" lon="12.349580805748701">
        <ele>1739.95</ele>
        <time>2023-03-12T10:18:35Z</time>
      </trkpt>
      <trkpt lat="46.714254850521684" lon="12.349711144343019">
        <ele>1739.8099999999999</ele>
        <time>2023-03-12T10:18:52Z</time>
      </trkpt>
      <trkpt lat="46.714236242696643" lon="12.349800663068891">
        <ele>1741.78</ele>
        <time>2023-03-12T10:19:08Z</time>
      </trkpt>
      <trkpt lat="46.714220736175776" lon="12.349868305027485">
        <ele>1743.8599999999999</ele>
        <time>2023-03-12T10:19:23Z</time>
      </trkpt>
      <trkpt lat="46.714213946834207" lon="12.349918680265546">
        <ele>1747.3</ele>
        <time>2023-03-12T10:19:37Z</time>
      </trkpt>
      <trkpt lat="46.714223921298981" lon="12.349965199828148">
        <ele>1750.3</ele>
        <time>2023-03-12T10:19:51Z</time>
      </trkpt>
      <trkpt lat="46.714245462790132" lon="12.350031081587076">
        <ele>1753.05</ele>
        <time>2023-03-12T10:20:04Z</time>
      </trkpt>
      <trkpt lat="46.714289132505655" lon="12.350140465423465">
        <ele>1757.27</ele>
        <time>2023-03-12T10:20:21Z</time>
      </trkpt>
      <trkpt lat="46.714350571855903" lon="12.350205173715949">
        <ele>1759.3900000000001</ele>
        <time>2023-03-12T10:20:37Z</time>
      </trkpt>
      <trkpt lat="46.714425003156066" lon="12.350323023274541">
        <ele>1758.8199999999999</ele>
        <time>2023-03-12T10:20:51Z</time>
      </trkpt>
      <trkpt lat="46.714516701176763" lon="12.350361831486225">
        <ele>1759.1199999999999</ele>
        <time>2023-03-12T10:21:05Z</time>
      </trkpt>
      <trkpt lat="46.714530196040869" lon="12.350403154268861">
        <ele>1760.97</ele>
        <time>2023-03-12T10:21:22Z</time>
      </trkpt>
      <trkpt lat="46.714537488296628" lon="12.350482530891895">
        <ele>1762.6300000000001</ele>
        <time>2023-03-12T10:21:34Z</time>
      </trkpt>
      <trkpt lat="46.714571937918663" lon="12.350577749311924">
        <ele>1765.5699999999999</ele>
        <time>2023-03-12T10:21:49Z</time>
      </trkpt>
      <trkpt lat="46.714569255709648" lon="12.350656958296895">
        <ele>1766.8</ele>
        <time>2023-03-12T10:22:03Z</time>
      </trkpt>
      <trkpt lat="46.714612003415823" lon="12.350752260535955">
        <ele>1768.3900000000001</ele>
        <time>2023-03-12T10:22:18Z</time>
      </trkpt>
      <trkpt lat="46.714609237387776" lon="12.350768772885203">
        <ele>1773.1500000000001</ele>
        <time>2023-03-12T10:22:39Z</time>
      </trkpt>
      <trkpt lat="46.714596748352051" lon="12.350811436772346">
        <ele>1776.3199999999999</ele>
        <time>2023-03-12T10:22:57Z</time>
      </trkpt>
      <trkpt lat="46.714574368670583" lon="12.350857704877853">
        <ele>1778.54</ele>
        <time>2023-03-12T10:23:16Z</time>
      </trkpt>
      <trkpt lat="46.714510163292289" lon="12.350884778425097">
        <ele>1778.9200000000001</ele>
        <time>2023-03-12T10:23:36Z</time>
      </trkpt>
      <trkpt lat="46.714449226856232" lon="12.35095870681107">
        <ele>1779.5</ele>
        <time>2023-03-12T10:23:45Z</time>
      </trkpt>
      <trkpt lat="46.714337160810828" lon="12.351062139496207">
        <ele>1777.6600000000001</ele>
        <time>2023-03-12T10:23:59Z</time>
      </trkpt>
      <trkpt lat="46.714296257123351" lon="12.35110622830689">
        <ele>1775.79</ele>
        <time>2023-03-12T10:24:04Z</time>
      </trkpt>
      <trkpt lat="46.714206151664257" lon="12.351217372342944">
        <ele>1770.6900000000001</ele>
        <time>2023-03-12T10:24:18Z</time>
      </trkpt>
      <trkpt lat="46.714110262691975" lon="12.351315775886178">
        <ele>1767.26</ele>
        <time>2023-03-12T10:24:32Z</time>
      </trkpt>
      <trkpt lat="46.714021498337388" lon="12.351440666243434">
        <ele>1765.23</ele>
        <time>2023-03-12T10:24:45Z</time>
      </trkpt>
      <trkpt lat="46.713961148634553" lon="12.351548708975315">
        <ele>1763.9000000000001</ele>
        <time>2023-03-12T10:24:55Z</time>
      </trkpt>
      <trkpt lat="46.713905408978462" lon="12.351631605997682">
        <ele>1760.4200000000001</ele>
        <time>2023-03-12T10:25:06Z</time>
      </trkpt>
      <trkpt lat="46.71389258466661" lon="12.351691368967295">
        <ele>1761.46</ele>
        <time>2023-03-12T10:25:23Z</time>
      </trkpt>
      <trkpt lat="46.713834749534726" lon="12.351736295968294">
        <ele>1762.3199999999999</ele>
        <time>2023-03-12T10:25:31Z</time>
      </trkpt>
      <trkpt lat="46.713721929118037" lon="12.35184358432889">
        <ele>1761.28</ele>
        <time>2023-03-12T10:25:44Z</time>
      </trkpt>
      <trkpt lat="46.713715894147754" lon="12.351861437782645">
        <ele>1761</ele>
        <time>2023-03-12T10:25:45Z</time>
      </trkpt>
      <trkpt lat="46.7137670237571" lon="12.351979538798332">
        <ele>1759.8299999999999</ele>
        <time>2023-03-12T10:25:56Z</time>
      </trkpt>
      <trkpt lat="46.713871713727713" lon="12.351927822455764">
        <ele>1759.22</ele>
        <time>2023-03-12T10:26:10Z</time>
      </trkpt>
      <trkpt lat="46.713995095342398" lon="12.351885912939906">
        <ele>1757.55</ele>
        <time>2023-03-12T10:26:27Z</time>
      </trkpt>
      <trkpt lat="46.714100623503327" lon="12.351897647604346">
        <ele>1759.1500000000001</ele>
        <time>2023-03-12T10:26:44Z</time>
      </trkpt>
      <trkpt lat="46.71418335288763" lon="12.351988591253757">
        <ele>1764.0699999999999</ele>
        <time>2023-03-12T10:27:32Z</time>
      </trkpt>
      <trkpt lat="46.714227693155408" lon="12.352073499932885">
        <ele>1765.6900000000001</ele>
        <time>2023-03-12T10:27:49Z</time>
      </trkpt>
      <trkpt lat="46.71429080888629" lon="12.352209454402328">
        <ele>1770.0599999999999</ele>
        <time>2023-03-12T10:28:06Z</time>
      </trkpt>
      <trkpt lat="46.714297430589795" lon="12.352287154644728">
        <ele>1774.3800000000001</ele>
        <time>2023-03-12T10:28:18Z</time>
      </trkpt>
      <trkpt lat="46.714257197454572" lon="12.35236200504005">
        <ele>1778.8</ele>
        <time>2023-03-12T10:28:33Z</time>
      </trkpt>
      <trkpt lat="46.714251078665257" lon="12.352468706667423">
        <ele>1785.25</ele>
        <time>2023-03-12T10:28:47Z</time>
      </trkpt>
      <trkpt lat="46.714264573529363" lon="12.352582449093461">
        <ele>1788.8599999999999</ele>
        <time>2023-03-12T10:29:00Z</time>
      </trkpt>
      <trkpt lat="46.714278738945723" lon="12.352771880105138">
        <ele>1794.1400000000001</ele>
        <time>2023-03-12T10:29:14Z</time>
      </trkpt>
      <trkpt lat="46.714269770309329" lon="12.352800043299794">
        <ele>1795.8499999999999</ele>
        <time>2023-03-12T10:29:26Z</time>
      </trkpt>
      <trkpt lat="46.714277900755405" lon="12.352919988334179">
        <ele>1795.1900000000001</ele>
        <time>2023-03-12T10:29:38Z</time>
      </trkpt>
      <trkpt lat="46.714285360649228" lon="12.352977152913809">
        <ele>1796.1300000000001</ele>
        <time>2023-03-12T10:29:55Z</time>
      </trkpt>
      <trkpt lat="46.714281421154737" lon="12.35305049456656">
        <ele>1796.22</ele>
        <time>2023-03-12T10:30:09Z</time>
      </trkpt>
      <trkpt lat="46.714298520237207" lon="12.353145629167557">
        <ele>1796.3900000000001</ele>
        <time>2023-03-12T10:30:22Z</time>
      </trkpt>
      <trkpt lat="46.71432844363153" lon="12.35323179513216">
        <ele>1796.47</ele>
        <time>2023-03-12T10:30:34Z</time>
      </trkpt>
      <trkpt lat="46.714316373690963" lon="12.353360205888748">
        <ele>1804.55</ele>
        <time>2023-03-12T10:45:09Z</time>
      </trkpt>
      <trkpt lat="46.714278822764754" lon="12.353388536721468">
        <ele>1805.8</ele>
        <time>2023-03-12T10:45:14Z</time>
      </trkpt>
      <trkpt lat="46.714226854965091" lon="12.353436732664704">
        <ele>1805.6099999999999</ele>
        <time>2023-03-12T10:45:19Z</time>
      </trkpt>
      <trkpt lat="46.714118979871273" lon="12.353401528671384">
        <ele>1803.3299999999999</ele>
        <time>2023-03-12T10:45:33Z</time>
      </trkpt>
      <trkpt lat="46.714074807241559" lon="12.353364313021302">
        <ele>1802.28</ele>
        <time>2023-03-12T10:45:39Z</time>
      </trkpt>
      <trkpt lat="46.713989395648241" lon="12.353338245302439">
        <ele>1801.21</ele>
        <time>2023-03-12T10:45:52Z</time>
      </trkpt>
      <trkpt lat="46.71398201957345" lon="12.353332713246346">
        <ele>1802.3099999999999</ele>
        <time>2023-03-12T10:45:59Z</time>
      </trkpt>
      <trkpt lat="46.713939607143402" lon="12.353345034644008">
        <ele>1803.28</ele>
        <time>2023-03-12T10:46:03Z</time>
      </trkpt>
      <trkpt lat="46.713825613260269" lon="12.353438325226307">
        <ele>1807.3599999999999</ele>
        <time>2023-03-12T10:46:16Z</time>
      </trkpt>
      <trkpt lat="46.71370885334909" lon="12.353500938042998">
        <ele>1808.45</ele>
        <time>2023-03-12T10:46:30Z</time>
      </trkpt>
      <trkpt lat="46.713586896657944" lon="12.353580566123128">
        <ele>1807.3399999999999</ele>
        <time>2023-03-12T10:46:45Z</time>
      </trkpt>
      <trkpt lat="46.713529648259282" lon="12.353613087907434">
        <ele>1805.55</ele>
        <time>2023-03-12T10:46:59Z</time>
      </trkpt>
      <trkpt lat="46.713434346020222" lon="12.353688105940819">
        <ele>1804.0999999999999</ele>
        <time>2023-03-12T10:47:12Z</time>
      </trkpt>
      <trkpt lat="46.713311048224568" lon="12.353780390694737">
        <ele>1803.1600000000001</ele>
        <time>2023-03-12T10:47:27Z</time>
      </trkpt>
      <trkpt lat="46.7132109683007" lon="12.353885918855667">
        <ele>1801.8</ele>
        <time>2023-03-12T10:47:40Z</time>
      </trkpt>
      <trkpt lat="46.713144080713391" lon="12.354005612432957">
        <ele>1799.0599999999999</ele>
        <time>2023-03-12T10:47:52Z</time>
      </trkpt>
      <trkpt lat="46.71309563331306" lon="12.354075098410249">
        <ele>1796.78</ele>
        <time>2023-03-12T10:47:59Z</time>
      </trkpt>
      <trkpt lat="46.713043916970491" lon="12.354184901341796">
        <ele>1793.71</ele>
        <time>2023-03-12T10:48:08Z</time>
      </trkpt>
      <trkpt lat="46.712946351617575" lon="12.354314820840955">
        <ele>1793.5699999999999</ele>
        <time>2023-03-12T10:48:22Z</time>
      </trkpt>
      <trkpt lat="46.712908046320081" lon="12.354425713419914">
        <ele>1793.47</ele>
        <time>2023-03-12T10:48:32Z</time>
      </trkpt>
      <trkpt lat="46.712805619463325" lon="12.354554207995534">
        <ele>1795.27</ele>
        <time>2023-03-12T10:48:47Z</time>
      </trkpt>
      <trkpt lat="46.712787849828601" lon="12.354583628475666">
        <ele>1795.8399999999999</ele>
        <time>2023-03-12T10:48:50Z</time>
      </trkpt>
      <trkpt lat="46.712692128494382" lon="12.354775825515389">
        <ele>1797.0999999999999</ele>
        <time>2023-03-12T10:49:09Z</time>
      </trkpt>
      <trkpt lat="46.712625492364168" lon="12.354895602911711">
        <ele>1797.6600000000001</ele>
        <time>2023-03-12T10:49:23Z</time>
      </trkpt>
      <trkpt lat="46.712543768808246" lon="12.354955030605197">
        <ele>1795.47</ele>
        <time>2023-03-12T10:52:14Z</time>
      </trkpt>
      <trkpt lat="46.712542260065675" lon="12.354955784976482">
        <ele>1794.05</ele>
        <time>2023-03-12T10:52:59Z</time>
      </trkpt>
      <trkpt lat="46.712501691654325" lon="12.354943212121725">
        <ele>1794.49</ele>
        <time>2023-03-12T11:28:33Z</time>
      </trkpt>
      <trkpt lat="46.71244871802628" lon="12.354927035048604">
        <ele>1792.79</ele>
        <time>2023-03-12T11:28:43Z</time>
      </trkpt>
      <trkpt lat="46.712396498769522" lon="12.35492636449635">
        <ele>1791.1199999999999</ele>
        <time>2023-03-12T11:28:49Z</time>
      </trkpt>
      <trkpt lat="46.712228860706091" lon="12.354832235723734">
        <ele>1786.75</ele>
        <time>2023-03-12T11:29:07Z</time>
      </trkpt>
      <trkpt lat="46.712222574278712" lon="12.354818405583501">
        <ele>1786.6900000000001</ele>
        <time>2023-03-12T11:29:08Z</time>
      </trkpt>
      <trkpt lat="46.712255598977208" lon="12.354593183845282">
        <ele>1786.0899999999999</ele>
        <time>2023-03-12T11:29:22Z</time>
      </trkpt>
      <trkpt lat="46.712305471301079" lon="12.354459324851632">
        <ele>1784.46</ele>
        <time>2023-03-12T11:29:34Z</time>
      </trkpt>
      <trkpt lat="46.712289797142148" lon="12.354394365102053">
        <ele>1783.3399999999999</ele>
        <time>2023-03-12T11:29:41Z</time>
      </trkpt>
      <trkpt lat="46.71232801862061" lon="12.354233516380191">
        <ele>1781.6199999999999</ele>
        <time>2023-03-12T11:29:53Z</time>
      </trkpt>
      <trkpt lat="46.712317205965519" lon="12.354178028181195">
        <ele>1780.45</ele>
        <time>2023-03-12T11:29:58Z</time>
      </trkpt>
      <trkpt lat="46.712271608412266" lon="12.354034697636962">
        <ele>1777.6700000000001</ele>
        <time>2023-03-12T11:30:10Z</time>
      </trkpt>
      <trkpt lat="46.712225005030632" lon="12.353868316859007">
        <ele>1773.5699999999999</ele>
        <time>2023-03-12T11:30:24Z</time>
      </trkpt>
      <trkpt lat="46.712198266759515" lon="12.353787012398243">
        <ele>1771.52</ele>
        <time>2023-03-12T11:30:33Z</time>
      </trkpt>
      <trkpt lat="46.712145879864693" lon="12.353693721815944">
        <ele>1769.71</ele>
        <time>2023-03-12T11:30:46Z</time>
      </trkpt>
      <trkpt lat="46.712180413305759" lon="12.353544104844332">
        <ele>1768.78</ele>
        <time>2023-03-12T11:30:59Z</time>
      </trkpt>
      <trkpt lat="46.712220059707761" lon="12.353478223085403">
        <ele>1768.8599999999999</ele>
        <time>2023-03-12T11:31:06Z</time>
      </trkpt>
      <trkpt lat="46.712237829342484" lon="12.353440504521132">
        <ele>1769.24</ele>
        <time>2023-03-12T11:31:09Z</time>
      </trkpt>
      <trkpt lat="46.712316116318107" lon="12.353348303586245">
        <ele>1768.1600000000001</ele>
        <time>2023-03-12T11:31:20Z</time>
      </trkpt>
      <trkpt lat="46.712389625608921" lon="12.353238500654697">
        <ele>1767.3699999999999</ele>
        <time>2023-03-12T11:31:31Z</time>
      </trkpt>
      <trkpt lat="46.712450059130788" lon="12.35313112847507">
        <ele>1765.6300000000001</ele>
        <time>2023-03-12T11:31:40Z</time>
      </trkpt>
      <trkpt lat="46.712518539279699" lon="12.352996515110135">
        <ele>1765.02</ele>
        <time>2023-03-12T11:31:51Z</time>
      </trkpt>
      <trkpt lat="46.712549217045307" lon="12.352920491248369">
        <ele>1765.1900000000001</ele>
        <time>2023-03-12T11:32:02Z</time>
      </trkpt>
      <trkpt lat="46.712554916739464" lon="12.352878833189607">
        <ele>1765.5799999999999</ele>
        <time>2023-03-12T11:32:05Z</time>
      </trkpt>
      <trkpt lat="46.712557515129447" lon="12.352815214544535">
        <ele>1765.99</ele>
        <time>2023-03-12T11:32:09Z</time>
      </trkpt>
      <trkpt lat="46.71260210685432" lon="12.352667022496462">
        <ele>1764.97</ele>
        <time>2023-03-12T11:32:20Z</time>
      </trkpt>
      <trkpt lat="46.712648794054985" lon="12.352530229836702">
        <ele>1764.0799999999999</ele>
        <time>2023-03-12T11:32:33Z</time>
      </trkpt>
      <trkpt lat="46.712652901187539" lon="12.352509861811996">
        <ele>1765.8</ele>
        <time>2023-03-12T11:32:45Z</time>
      </trkpt>
      <trkpt lat="46.712654074653983" lon="12.352407434955239">
        <ele>1767.29</ele>
        <time>2023-03-12T11:32:59Z</time>
      </trkpt>
      <trkpt lat="46.712684500962496" lon="12.352239461615682">
        <ele>1762.71</ele>
        <time>2023-03-12T11:33:15Z</time>
      </trkpt>
      <trkpt lat="46.712721548974514" lon="12.352099735289812">
        <ele>1758.6700000000001</ele>
        <time>2023-03-12T11:33:30Z</time>
      </trkpt>
      <trkpt lat="46.712776366621256" lon="12.351949783042073">
        <ele>1754.4300000000001</ele>
        <time>2023-03-12T11:33:43Z</time>
      </trkpt>
      <trkpt lat="46.712830765172839" lon="12.351840315386653">
        <ele>1750.29</ele>
        <time>2023-03-12T11:33:55Z</time>
      </trkpt>
      <trkpt lat="46.712838057428598" lon="12.351819025352597">
        <ele>1750.04</ele>
        <time>2023-03-12T11:33:57Z</time>
      </trkpt>
      <trkpt lat="46.7128586769104" lon="12.351777451112866">
        <ele>1749.3</ele>
        <time>2023-03-12T11:34:00Z</time>
      </trkpt>
      <trkpt lat="46.712902178987861" lon="12.35165448859334">
        <ele>1749.77</ele>
        <time>2023-03-12T11:34:07Z</time>
      </trkpt>
      <trkpt lat="46.713014412671328" lon="12.351437313482165">
        <ele>1745.9200000000001</ele>
        <time>2023-03-12T11:34:23Z</time>
      </trkpt>
      <trkpt lat="46.713093034923077" lon="12.351253665983677">
        <ele>1740.1700000000001</ele>
        <time>2023-03-12T11:34:36Z</time>
      </trkpt>
      <trkpt lat="46.713163023814559" lon="12.351118549704552">
        <ele>1736.6199999999999</ele>
        <time>2023-03-12T11:34:46Z</time>
      </trkpt>
      <trkpt lat="46.713226810097694" lon="12.35102710314095">
        <ele>1733.3</ele>
        <time>2023-03-12T11:34:57Z</time>
      </trkpt>
      <trkpt lat="46.713258912786841" lon="12.350903889164329">
        <ele>1732.78</ele>
        <time>2023-03-12T11:35:07Z</time>
      </trkpt>
      <trkpt lat="46.713312808424234" lon="12.350756200030446">
        <ele>1733.02</ele>
        <time>2023-03-12T11:35:19Z</time>
      </trkpt>
      <trkpt lat="46.713321357965469" lon="12.350585209205747">
        <ele>1733.45</ele>
        <time>2023-03-12T11:35:31Z</time>
      </trkpt>
      <trkpt lat="46.713361004367471" lon="12.350367028266191">
        <ele>1734.48</ele>
        <time>2023-03-12T11:35:42Z</time>
      </trkpt>
      <trkpt lat="46.713466197252274" lon="12.350100232288241">
        <ele>1737.26</ele>
        <time>2023-03-12T11:35:58Z</time>
      </trkpt>
      <trkpt lat="46.71356569044292" lon="12.349958745762706">
        <ele>1738.46</ele>
        <time>2023-03-12T11:36:09Z</time>
      </trkpt>
      <trkpt lat="46.7137117870152" lon="12.349790185689926">
        <ele>1738.1900000000001</ele>
        <time>2023-03-12T11:36:24Z</time>
      </trkpt>
      <trkpt lat="46.713834749534726" lon="12.349638054147363">
        <ele>1738.6500000000001</ele>
        <time>2023-03-12T11:36:38Z</time>
      </trkpt>
      <trkpt lat="46.713943378999829" lon="12.349436469376087">
        <ele>1735.6600000000001</ele>
        <time>2023-03-12T11:36:53Z</time>
      </trkpt>
      <trkpt lat="46.71404555439949" lon="12.349229352548718">
        <ele>1733.1600000000001</ele>
        <time>2023-03-12T11:37:07Z</time>
      </trkpt>
      <trkpt lat="46.714045135304332" lon="12.34918593429029">
        <ele>1732</ele>
        <time>2023-03-12T11:37:10Z</time>
      </trkpt>
      <trkpt lat="46.713966261595488" lon="12.34909507445991">
        <ele>1725.51</ele>
        <time>2023-03-12T11:37:20Z</time>
      </trkpt>
      <trkpt lat="46.713825613260269" lon="12.349184928461909">
        <ele>1717.49</ele>
        <time>2023-03-12T11:37:34Z</time>
      </trkpt>
      <trkpt lat="46.713699884712696" lon="12.349352985620499">
        <ele>1711.8900000000001</ele>
        <time>2023-03-12T11:37:46Z</time>
      </trkpt>
      <trkpt lat="46.713638193905354" lon="12.349351895973086">
        <ele>1710.5999999999999</ele>
        <time>2023-03-12T11:37:50Z</time>
      </trkpt>
      <trkpt lat="46.713600559160113" lon="12.349326498806477">
        <ele>1709.77</ele>
        <time>2023-03-12T11:37:53Z</time>
      </trkpt>
      <trkpt lat="46.713669039309025" lon="12.3491854313761">
        <ele>1706.0599999999999</ele>
        <time>2023-03-12T11:38:05Z</time>
      </trkpt>
      <trkpt lat="46.713700471445918" lon="12.349157771095634">
        <ele>1705.5599999999999</ele>
        <time>2023-03-12T11:38:08Z</time>
      </trkpt>
      <trkpt lat="46.713806418702006" lon="12.349044615402818">
        <ele>1701.8099999999999</ele>
        <time>2023-03-12T11:38:18Z</time>
      </trkpt>
      <trkpt lat="46.713922005146742" lon="12.348909499123693">
        <ele>1698.5999999999999</ele>
        <time>2023-03-12T11:38:30Z</time>
      </trkpt>
      <trkpt lat="46.714038010686636" lon="12.348774299025536">
        <ele>1699.02</ele>
        <time>2023-03-12T11:38:41Z</time>
      </trkpt>
      <trkpt lat="46.714144460856915" lon="12.348578246310353">
        <ele>1701.21</ele>
        <time>2023-03-12T11:38:53Z</time>
      </trkpt>
      <trkpt lat="46.714258957654238" lon="12.348367357626557">
        <ele>1703.6300000000001</ele>
        <time>2023-03-12T11:39:07Z</time>
      </trkpt>
      <trkpt lat="46.714393068104982" lon="12.348212208598852">
        <ele>1702.24</ele>
        <time>2023-03-12T11:39:20Z</time>
      </trkpt>
      <trkpt lat="46.714461212977767" lon="12.348159151151776">
        <ele>1700.8099999999999</ele>
        <time>2023-03-12T11:39:28Z</time>
      </trkpt>
      <trkpt lat="46.714559365063906" lon="12.348064351826906">
        <ele>1698.71</ele>
        <time>2023-03-12T11:39:39Z</time>
      </trkpt>
      <trkpt lat="46.71463530510664" lon="12.347979946061969">
        <ele>1698</ele>
        <time>2023-03-12T11:39:48Z</time>
      </trkpt>
      <trkpt lat="46.71469640918076" lon="12.347884392365813">
        <ele>1696.96</ele>
        <time>2023-03-12T11:39:56Z</time>
      </trkpt>
      <trkpt lat="46.714761704206467" lon="12.347793700173497">
        <ele>1693.48</ele>
        <time>2023-03-12T11:40:05Z</time>
      </trkpt>
      <trkpt lat="46.714894054457545" lon="12.347656823694706">
        <ele>1689.24</ele>
        <time>2023-03-12T11:40:19Z</time>
      </trkpt>
      <trkpt lat="46.715029589831829" lon="12.347498824819922">
        <ele>1684.1199999999999</ele>
        <time>2023-03-12T11:40:33Z</time>
      </trkpt>
      <trkpt lat="46.715146098285913" lon="12.347368402406573">
        <ele>1680.27</ele>
        <time>2023-03-12T11:40:47Z</time>
      </trkpt>
      <trkpt lat="46.715220278128982" lon="12.347289109602571">
        <ele>1681.6900000000001</ele>
        <time>2023-03-12T11:40:54Z</time>
      </trkpt>
      <trkpt lat="46.715297559276223" lon="12.347217611968517">
        <ele>1683.75</ele>
        <time>2023-03-12T11:41:01Z</time>
      </trkpt>
      <trkpt lat="46.715408619493246" lon="12.347098924219608">
        <ele>1682.5899999999999</ele>
        <time>2023-03-12T11:41:13Z</time>
      </trkpt>
      <trkpt lat="46.715518925338984" lon="12.346998006105423">
        <ele>1683.96</ele>
        <time>2023-03-12T11:41:24Z</time>
      </trkpt>
      <trkpt lat="46.715450193732977" lon="12.346884598955512">
        <ele>1684.5</ele>
        <time>2023-03-12T11:41:38Z</time>
      </trkpt>
      <trkpt lat="46.715305438265204" lon="12.346901027485728">
        <ele>1678.55</ele>
        <time>2023-03-12T11:41:51Z</time>
      </trkpt>
      <trkpt lat="46.71529253013432" lon="12.34689474105835">
        <ele>1678.29</ele>
        <time>2023-03-12T11:41:52Z</time>
      </trkpt>
      <trkpt lat="46.715203933417797" lon="12.346881749108434">
        <ele>1675.75</ele>
        <time>2023-03-12T11:41:59Z</time>
      </trkpt>
      <trkpt lat="46.71506923623383" lon="12.346758618950844">
        <ele>1672.5</ele>
        <time>2023-03-12T11:42:13Z</time>
      </trkpt>
      <trkpt lat="46.714989859610796" lon="12.346691563725471">
        <ele>1671.48</ele>
        <time>2023-03-12T11:42:25Z</time>
      </trkpt>
      <trkpt lat="46.714884918183088" lon="12.346687205135822">
        <ele>1669.5599999999999</ele>
        <time>2023-03-12T11:42:35Z</time>
      </trkpt>
      <trkpt lat="46.714747957885265" lon="12.346742274239659">
        <ele>1667.3699999999999</ele>
        <time>2023-03-12T11:42:47Z</time>
      </trkpt>
      <trkpt lat="46.714725578203797" lon="12.346750488504767">
        <ele>1666.9100000000001</ele>
        <time>2023-03-12T11:42:49Z</time>
      </trkpt>
      <trkpt lat="46.714643351733685" lon="12.346772532910109">
        <ele>1666.0799999999999</ele>
        <time>2023-03-12T11:42:56Z</time>
      </trkpt>
      <trkpt lat="46.714546205475926" lon="12.34665535390377">
        <ele>1664.5799999999999</ele>
        <time>2023-03-12T11:43:08Z</time>
      </trkpt>
      <trkpt lat="46.71445693820715" lon="12.34654588624835">
        <ele>1661.8599999999999</ele>
        <time>2023-03-12T11:43:19Z</time>
      </trkpt>
      <trkpt lat="46.714431457221508" lon="12.346531972289085">
        <ele>1661.3800000000001</ele>
        <time>2023-03-12T11:43:21Z</time>
      </trkpt>
      <trkpt lat="46.714412681758404" lon="12.346501043066382">
        <ele>1660.6900000000001</ele>
        <time>2023-03-12T11:43:24Z</time>
      </trkpt>
      <trkpt lat="46.714414693415165" lon="12.346437675878406">
        <ele>1659.27</ele>
        <time>2023-03-12T11:43:28Z</time>
      </trkpt>
      <trkpt lat="46.714380495250225" lon="12.346248412504792">
        <ele>1657.28</ele>
        <time>2023-03-12T11:43:41Z</time>
      </trkpt>
      <trkpt lat="46.714386194944382" lon="12.346208347007632">
        <ele>1656.8199999999999</ele>
        <time>2023-03-12T11:43:44Z</time>
      </trkpt>
      <trkpt lat="46.714391559362411" lon="12.346109608188272">
        <ele>1668.02</ele>
        <time>2023-03-12T11:46:10Z</time>
      </trkpt>
      <trkpt lat="46.714445874094963" lon="12.346049090847373">
        <ele>1668.0599999999999</ele>
        <time>2023-03-12T11:46:25Z</time>
      </trkpt>
      <trkpt lat="46.71455810777843" lon="12.345937695354223">
        <ele>1667.5799999999999</ele>
        <time>2023-03-12T11:46:40Z</time>
      </trkpt>
      <trkpt lat="46.714656427502632" lon="12.345850775018334">
        <ele>1666.3900000000001</ele>
        <time>2023-03-12T11:46:50Z</time>
      </trkpt>
      <trkpt lat="46.714760279282928" lon="12.345777936279774">
        <ele>1663.6199999999999</ele>
        <time>2023-03-12T11:47:01Z</time>
      </trkpt>
      <trkpt lat="46.714887181296945" lon="12.345677688717842">
        <ele>1659.78</ele>
        <time>2023-03-12T11:47:12Z</time>
      </trkpt>
      <trkpt lat="46.714989021420479" lon="12.345613650977612">
        <ele>1658.05</ele>
        <time>2023-03-12T11:47:21Z</time>
      </trkpt>
      <trkpt lat="46.715034786611795" lon="12.345548607409">
        <ele>1657.5899999999999</ele>
        <time>2023-03-12T11:47:26Z</time>
      </trkpt>
      <trkpt lat="46.715039983391762" lon="12.345341239124537">
        <ele>1654.76</ele>
        <time>2023-03-12T11:47:39Z</time>
      </trkpt>
      <trkpt lat="46.715028416365385" lon="12.345317769795656">
        <ele>1654.3499999999999</ele>
        <time>2023-03-12T11:47:41Z</time>
      </trkpt>
      <trkpt lat="46.71498809941113" lon="12.345286253839731">
        <ele>1653.1099999999999</ele>
        <time>2023-03-12T11:47:45Z</time>
      </trkpt>
      <trkpt lat="46.714864550158381" lon="12.345285834744573">
        <ele>1645.72</ele>
        <time>2023-03-12T11:47:57Z</time>
      </trkpt>
      <trkpt lat="46.714823395013809" lon="12.345289774239063">
        <ele>1644.6500000000001</ele>
        <time>2023-03-12T11:48:00Z</time>
      </trkpt>
      <trkpt lat="46.714787855744362" lon="12.34528910368681">
        <ele>1642.76</ele>
        <time>2023-03-12T11:48:03Z</time>
      </trkpt>
      <trkpt lat="46.714734798297286" lon="12.345182234421372">
        <ele>1641.27</ele>
        <time>2023-03-12T11:48:15Z</time>
      </trkpt>
      <trkpt lat="46.714872093871236" lon="12.344891298562288">
        <ele>1638.45</ele>
        <time>2023-03-12T11:48:33Z</time>
      </trkpt>
      <trkpt lat="46.714899586513638" lon="12.344832122325897">
        <ele>1637.6099999999999</ele>
        <time>2023-03-12T11:48:37Z</time>
      </trkpt>
      <trkpt lat="46.714963121339679" lon="12.344757104292512">
        <ele>1636.99</ele>
        <time>2023-03-12T11:48:44Z</time>
      </trkpt>
      <trkpt lat="46.715046940371394" lon="12.344507910311222">
        <ele>1633.3399999999999</ele>
        <time>2023-03-12T11:48:58Z</time>
      </trkpt>
      <trkpt lat="46.715068481862545" lon="12.344462480396032">
        <ele>1632.76</ele>
        <time>2023-03-12T11:49:01Z</time>
      </trkpt>
      <trkpt lat="46.715114917606115" lon="12.344280760735273">
        <ele>1629.6199999999999</ele>
        <time>2023-03-12T11:49:12Z</time>
      </trkpt>
      <trkpt lat="46.71512296423316" lon="12.344227451831102">
        <ele>1628.8599999999999</ele>
        <time>2023-03-12T11:49:15Z</time>
      </trkpt>
      <trkpt lat="46.715157497674227" lon="12.344154277816415">
        <ele>1628.05</ele>
        <time>2023-03-12T11:49:20Z</time>
      </trkpt>
      <trkpt lat="46.715183481574059" lon="12.344055790454149">
        <ele>1629.96</ele>
        <time>2023-03-12T11:49:26Z</time>
      </trkpt>
      <trkpt lat="46.715306947007775" lon="12.343904413282871">
        <ele>1631.1500000000001</ele>
        <time>2023-03-12T11:49:40Z</time>
      </trkpt>
      <trkpt lat="46.715345839038491" lon="12.343840962275863">
        <ele>1629.9400000000001</ele>
        <time>2023-03-12T11:49:46Z</time>
      </trkpt>
      <trkpt lat="46.715426724404097" lon="12.343657230958343">
        <ele>1627.47</ele>
        <time>2023-03-12T11:49:59Z</time>
      </trkpt>
      <trkpt lat="46.715497300028801" lon="12.343482887372375">
        <ele>1625.02</ele>
        <time>2023-03-12T11:50:12Z</time>
      </trkpt>
      <trkpt lat="46.715522864833474" lon="12.343435864895582">
        <ele>1625.22</ele>
        <time>2023-03-12T11:50:15Z</time>
      </trkpt>
      <trkpt lat="46.715570222586393" lon="12.343380376696587">
        <ele>1622.47</ele>
        <time>2023-03-12T11:50:20Z</time>
      </trkpt>
      <trkpt lat="46.715598721057177" lon="12.343200920149684">
        <ele>1620.6600000000001</ele>
        <time>2023-03-12T11:50:31Z</time>
      </trkpt>
      <trkpt lat="46.715583885088563" lon="12.342989109456539">
        <ele>1620.73</ele>
        <time>2023-03-12T11:50:43Z</time>
      </trkpt>
      <trkpt lat="46.715513980016112" lon="12.342877630144358">
        <ele>1621.3800000000001</ele>
        <time>2023-03-12T11:50:52Z</time>
      </trkpt>
      <trkpt lat="46.715383306145668" lon="12.342844102531672">
        <ele>1618.9300000000001</ele>
        <time>2023-03-12T11:51:04Z</time>
      </trkpt>
      <trkpt lat="46.715261768549681" lon="12.342840665951371">
        <ele>1614.0999999999999</ele>
        <time>2023-03-12T11:51:16Z</time>
      </trkpt>
      <trkpt lat="46.715170573443174" lon="12.342884000390768">
        <ele>1609.4300000000001</ele>
        <time>2023-03-12T11:51:24Z</time>
      </trkpt>
      <trkpt lat="46.715088598430157" lon="12.342890789732337">
        <ele>1606.5799999999999</ele>
        <time>2023-03-12T11:51:31Z</time>
      </trkpt>
      <trkpt lat="46.714914506301284" lon="12.342908978462219">
        <ele>1601.5699999999999</ele>
        <time>2023-03-12T11:51:45Z</time>
      </trkpt>
      <trkpt lat="46.714878799393773" lon="12.342911912128329">
        <ele>1602.01</ele>
        <time>2023-03-12T11:51:47Z</time>
      </trkpt>
      <trkpt lat="46.714835800230503" lon="12.342844856902957">
        <ele>1602.4100000000001</ele>
        <time>2023-03-12T11:51:53Z</time>
      </trkpt>
      <trkpt lat="46.714881062507629" lon="12.342708399519324">
        <ele>1602.1300000000001</ele>
        <time>2023-03-12T11:52:03Z</time>
      </trkpt>
      <trkpt lat="46.714915093034506" lon="12.342627933248878">
        <ele>1600.8299999999999</ele>
        <time>2023-03-12T11:52:09Z</time>
      </trkpt>
      <trkpt lat="46.715023638680577" lon="12.342480579391122">
        <ele>1598.5799999999999</ele>
        <time>2023-03-12T11:52:21Z</time>
      </trkpt>
      <trkpt lat="46.715050041675568" lon="12.342413859441876">
        <ele>1597.2</ele>
        <time>2023-03-12T11:52:25Z</time>
      </trkpt>
      <trkpt lat="46.715084491297603" lon="12.342386115342379">
        <ele>1596.8299999999999</ele>
        <time>2023-03-12T11:52:28Z</time>
      </trkpt>
      <trkpt lat="46.71514643356204" lon="12.34235099516809">
        <ele>1596.6099999999999</ele>
        <time>2023-03-12T11:52:33Z</time>
      </trkpt>
      <trkpt lat="46.715166885405779" lon="12.342322831973433">
        <ele>1595.8499999999999</ele>
        <time>2023-03-12T11:52:36Z</time>
      </trkpt>
      <trkpt lat="46.715237712487578" lon="12.342169107869267">
        <ele>1594.5</ele>
        <time>2023-03-12T11:52:49Z</time>
      </trkpt>
      <trkpt lat="46.715289428830147" lon="12.34204463660717">
        <ele>1591.71</ele>
        <time>2023-03-12T11:53:01Z</time>
      </trkpt>
      <trkpt lat="46.715308120474219" lon="12.341984454542398">
        <ele>1591.46</ele>
        <time>2023-03-12T11:53:14Z</time>
      </trkpt>
      <trkpt lat="46.715281549841166" lon="12.341878758743405">
        <ele>1595.76</ele>
        <time>2023-03-12T11:53:30Z</time>
      </trkpt>
      <trkpt lat="46.715285405516624" lon="12.341739954426885">
        <ele>1595.24</ele>
        <time>2023-03-12T11:53:39Z</time>
      </trkpt>
      <trkpt lat="46.715283310040832" lon="12.341689914464951">
        <ele>1594.8199999999999</ele>
        <time>2023-03-12T11:53:42Z</time>
      </trkpt>
      <trkpt lat="46.715304348617792" lon="12.341632749885321">
        <ele>1594.1199999999999</ele>
        <time>2023-03-12T11:53:47Z</time>
      </trkpt>
      <trkpt lat="46.715317005291581" lon="12.341502998024225">
        <ele>1590.5599999999999</ele>
        <time>2023-03-12T11:54:00Z</time>
      </trkpt>
      <trkpt lat="46.715323459357023" lon="12.341386154294014">
        <ele>1587.24</ele>
        <time>2023-03-12T11:54:11Z</time>
      </trkpt>
      <trkpt lat="46.71542739495635" lon="12.341312142089009">
        <ele>1584.5799999999999</ele>
        <time>2023-03-12T11:54:24Z</time>
      </trkpt>
      <trkpt lat="46.715482715517282" lon="12.341197729110718">
        <ele>1583.95</ele>
        <time>2023-03-12T11:54:32Z</time>
      </trkpt>
      <trkpt lat="46.715491013601422" lon="12.341135200113058">
        <ele>1584.28</ele>
        <time>2023-03-12T11:54:36Z</time>
      </trkpt>
      <trkpt lat="46.715511549264193" lon="12.340971082448959">
        <ele>1583.98</ele>
        <time>2023-03-12T11:54:46Z</time>
      </trkpt>
      <trkpt lat="46.715613389387727" lon="12.340810149908066">
        <ele>1584.0799999999999</ele>
        <time>2023-03-12T11:54:59Z</time>
      </trkpt>
      <trkpt lat="46.715645408257842" lon="12.340675033628941">
        <ele>1580.75</ele>
        <time>2023-03-12T11:55:19Z</time>
      </trkpt>
      <trkpt lat="46.715661250054836" lon="12.340640164911747">
        <ele>1580.24</ele>
        <time>2023-03-12T11:55:22Z</time>
      </trkpt>
      <trkpt lat="46.715703830122948" lon="12.34061342664063">
        <ele>1580.6099999999999</ele>
        <time>2023-03-12T11:55:33Z</time>
      </trkpt>
      <trkpt lat="46.715724281966686" lon="12.34055433422327">
        <ele>1587.21</ele>
        <time>2023-03-12T12:00:18Z</time>
      </trkpt>
      <trkpt lat="46.71573962084949" lon="12.340527093037963">
        <ele>1587.47</ele>
        <time>2023-03-12T12:00:20Z</time>
      </trkpt>
      <trkpt lat="46.715766526758671" lon="12.340473029762506">
        <ele>1587.21</ele>
        <time>2023-03-12T12:00:24Z</time>
      </trkpt>
      <trkpt lat="46.715775914490223" lon="12.340445620939136">
        <ele>1586.8199999999999</ele>
        <time>2023-03-12T12:00:26Z</time>
      </trkpt>
      <trkpt lat="46.715880688279867" lon="12.340238252654672">
        <ele>1582.6900000000001</ele>
        <time>2023-03-12T12:00:42Z</time>
      </trkpt>
      <trkpt lat="46.715888818725944" lon="12.340228362008929">
        <ele>1582.5799999999999</ele>
        <time>2023-03-12T12:00:43Z</time>
      </trkpt>
      <trkpt lat="46.715948833152652" lon="12.340147476643324">
        <ele>1580.8299999999999</ele>
        <time>2023-03-12T12:00:50Z</time>
      </trkpt>
      <trkpt lat="46.716063916683197" lon="12.340027783066034">
        <ele>1574.9400000000001</ele>
        <time>2023-03-12T12:01:03Z</time>
      </trkpt>
      <trkpt lat="46.716109178960323" lon="12.33995134010911">
        <ele>1571.8399999999999</ele>
        <time>2023-03-12T12:01:10Z</time>
      </trkpt>
      <trkpt lat="46.71616030856967" lon="12.339889397844672">
        <ele>1569.53</ele>
        <time>2023-03-12T12:01:17Z</time>
      </trkpt>
      <trkpt lat="46.716248989105225" lon="12.339779091998935">
        <ele>1565.01</ele>
        <time>2023-03-12T12:01:29Z</time>
      </trkpt>
      <trkpt lat="46.716349152848125" lon="12.339698374271393">
        <ele>1562.4300000000001</ele>
        <time>2023-03-12T12:01:39Z</time>
      </trkpt>
      <trkpt lat="46.716378154233098" lon="12.339542470872402">
        <ele>1559.3099999999999</ele>
        <time>2023-03-12T12:01:50Z</time>
      </trkpt>
      <trkpt lat="46.716370191425085" lon="12.339509110897779">
        <ele>1557.8299999999999</ele>
        <time>2023-03-12T12:01:53Z</time>
      </trkpt>
      <trkpt lat="46.716395672410727" lon="12.339398134499788">
        <ele>1553.3299999999999</ele>
        <time>2023-03-12T12:02:03Z</time>
      </trkpt>
      <trkpt lat="46.716373041272163" lon="12.339280117303133">
        <ele>1548.9400000000001</ele>
        <time>2023-03-12T12:02:15Z</time>
      </trkpt>
      <trkpt lat="46.71631864272058" lon="12.339122034609318">
        <ele>1543.02</ele>
        <time>2023-03-12T12:02:31Z</time>
      </trkpt>
      <trkpt lat="46.7163176368922" lon="12.339115412905812">
        <ele>1542.9000000000001</ele>
        <time>2023-03-12T12:02:32Z</time>
      </trkpt>
      <trkpt lat="46.71628980897367" lon="12.339000748470426">
        <ele>1541.1300000000001</ele>
        <time>2023-03-12T12:02:45Z</time>
      </trkpt>
      <trkpt lat="46.716242367401719" lon="12.338881641626358">
        <ele>1540.71</ele>
        <time>2023-03-12T12:02:56Z</time>
      </trkpt>
      <trkpt lat="46.716162739321589" lon="12.338834954425693">
        <ele>1544.1300000000001</ele>
        <time>2023-03-12T12:03:09Z</time>
      </trkpt>
      <trkpt lat="46.716150920838118" lon="12.338837468996644">
        <ele>1544.1900000000001</ele>
        <time>2023-03-12T12:03:10Z</time>
      </trkpt>
      <trkpt lat="46.716036507859826" lon="12.338925395160913">
        <ele>1544.6600000000001</ele>
        <time>2023-03-12T12:03:22Z</time>
      </trkpt>
      <trkpt lat="46.715899212285876" lon="12.339047268033028">
        <ele>1542.3099999999999</ele>
        <time>2023-03-12T12:03:36Z</time>
      </trkpt>
      <trkpt lat="46.715892339125276" lon="12.33906009234488">
        <ele>1541.97</ele>
        <time>2023-03-12T12:03:37Z</time>
      </trkpt>
      <trkpt lat="46.715856296941638" lon="12.339103259146214">
        <ele>1540.3499999999999</ele>
        <time>2023-03-12T12:03:42Z</time>
      </trkpt>
      <trkpt lat="46.715816063806415" lon="12.33911482617259">
        <ele>1538.97</ele>
        <time>2023-03-12T12:03:46Z</time>
      </trkpt>
      <trkpt lat="46.715752780437469" lon="12.339160088449717">
        <ele>1535.21</ele>
        <time>2023-03-12T12:03:54Z</time>
      </trkpt>
      <trkpt lat="46.71563308686018" lon="12.339264107868075">
        <ele>1528.53</ele>
        <time>2023-03-12T12:04:05Z</time>
      </trkpt>
      <trkpt lat="46.715415576472878" lon="12.338853729888797">
        <ele>1528.9100000000001</ele>
        <time>2023-03-12T12:05:21Z</time>
      </trkpt>
      <trkpt lat="46.715405266731977" lon="12.338736299425364">
        <ele>1527.3099999999999</ele>
        <time>2023-03-12T12:05:27Z</time>
      </trkpt>
      <trkpt lat="46.715411469340324" lon="12.338518956676126">
        <ele>1527.03</ele>
        <time>2023-03-12T12:05:39Z</time>
      </trkpt>
      <trkpt lat="46.715368805453181" lon="12.33830907382071">
        <ele>1526.3299999999999</ele>
        <time>2023-03-12T12:05:51Z</time>
      </trkpt>
      <trkpt lat="46.715322202071548" lon="12.337988885119557">
        <ele>1525.9100000000001</ele>
        <time>2023-03-12T12:06:07Z</time>
      </trkpt>
      <trkpt lat="46.71531449072063" lon="12.337685208767653">
        <ele>1524.9200000000001</ele>
        <time>2023-03-12T12:06:23Z</time>
      </trkpt>
      <trkpt lat="46.715364614501595" lon="12.337456718087196">
        <ele>1524.51</ele>
        <time>2023-03-12T12:06:36Z</time>
      </trkpt>
      <trkpt lat="46.715435022488236" lon="12.337219174951315">
        <ele>1520.8599999999999</ele>
        <time>2023-03-12T12:06:51Z</time>
      </trkpt>
      <trkpt lat="46.715504927560687" lon="12.336945841088891">
        <ele>1518.4000000000001</ele>
        <time>2023-03-12T12:07:07Z</time>
      </trkpt>
      <trkpt lat="46.715536443516612" lon="12.336703184992075">
        <ele>1517.6800000000001</ele>
        <time>2023-03-12T12:07:21Z</time>
      </trkpt>
      <trkpt lat="46.71552512794733" lon="12.336409315466881">
        <ele>1515.48</ele>
        <time>2023-03-12T12:07:37Z</time>
      </trkpt>
      <trkpt lat="46.715528815984726" lon="12.336145453155041">
        <ele>1513.4200000000001</ele>
        <time>2023-03-12T12:07:51Z</time>
      </trkpt>
      <trkpt lat="46.71558178961277" lon="12.335904892534018">
        <ele>1510.0999999999999</ele>
        <time>2023-03-12T12:08:05Z</time>
      </trkpt>
      <trkpt lat="46.715611377730966" lon="12.335804728791118">
        <ele>1508.3299999999999</ele>
        <time>2023-03-12T12:08:11Z</time>
      </trkpt>
      <trkpt lat="46.715632081031799" lon="12.335731806233525">
        <ele>1506.3399999999999</ele>
        <time>2023-03-12T12:08:15Z</time>
      </trkpt>
      <trkpt lat="46.71569854952395" lon="12.335473475977778">
        <ele>1501.55</ele>
        <time>2023-03-12T12:08:30Z</time>
      </trkpt>
      <trkpt lat="46.715716738253832" lon="12.335262419655919">
        <ele>1500.1500000000001</ele>
        <time>2023-03-12T12:08:42Z</time>
      </trkpt>
      <trkpt lat="46.715732244774699" lon="12.335025714710355">
        <ele>1501.21</ele>
        <time>2023-03-12T12:08:55Z</time>
      </trkpt>
      <trkpt lat="46.715753534808755" lon="12.334799151867628">
        <ele>1501.5599999999999</ele>
        <time>2023-03-12T12:09:08Z</time>
      </trkpt>
      <trkpt lat="46.715789157897234" lon="12.334593627601862">
        <ele>1499.8499999999999</ele>
        <time>2023-03-12T12:09:20Z</time>
      </trkpt>
      <trkpt lat="46.715795025229454" lon="12.334574684500694">
        <ele>1499.5999999999999</ele>
        <time>2023-03-12T12:09:21Z</time>
      </trkpt>
      <trkpt lat="46.715872222557664" lon="12.3343809787184">
        <ele>1496.8599999999999</ele>
        <time>2023-03-12T12:09:34Z</time>
      </trkpt>
      <trkpt lat="46.715943720191717" lon="12.33415525406599">
        <ele>1496.8599999999999</ele>
        <time>2023-03-12T12:09:48Z</time>
      </trkpt>
      <trkpt lat="46.716020833700895" lon="12.334008235484362">
        <ele>1495.8599999999999</ele>
        <time>2023-03-12T12:09:59Z</time>
      </trkpt>
      <trkpt lat="46.716127870604396" lon="12.333812937140465">
        <ele>1492.4000000000001</ele>
        <time>2023-03-12T12:10:12Z</time>
      </trkpt>
      <trkpt lat="46.716208253055811" lon="12.333669438958168">
        <ele>1489.3399999999999</ele>
        <time>2023-03-12T12:10:23Z</time>
      </trkpt>
      <trkpt lat="46.716253766790032" lon="12.333493335172534">
        <ele>1488.1600000000001</ele>
        <time>2023-03-12T12:10:34Z</time>
      </trkpt>
      <trkpt lat="46.716308500617743" lon="12.333240872249007">
        <ele>1488.73</ele>
        <time>2023-03-12T12:10:49Z</time>
      </trkpt>
      <trkpt lat="46.716399360448122" lon="12.333057643845677">
        <ele>1486.8499999999999</ele>
        <time>2023-03-12T12:11:02Z</time>
      </trkpt>
      <trkpt lat="46.716492818668485" lon="12.332960078492761">
        <ele>1482.4000000000001</ele>
        <time>2023-03-12T12:11:12Z</time>
      </trkpt>
      <trkpt lat="46.716589881107211" lon="12.332871397957206">
        <ele>1479.99</ele>
        <time>2023-03-12T12:11:21Z</time>
      </trkpt>
      <trkpt lat="46.716694654896855" lon="12.332758577540517">
        <ele>1475.0799999999999</ele>
        <time>2023-03-12T12:11:32Z</time>
      </trkpt>
      <trkpt lat="46.716719465330243" lon="12.332722367718816">
        <ele>1474.1500000000001</ele>
        <time>2023-03-12T12:11:37Z</time>
      </trkpt>
      <trkpt lat="46.716693481430411" lon="12.332599405199289">
        <ele>1476.5999999999999</ele>
        <time>2023-03-12T12:11:53Z</time>
      </trkpt>
      <trkpt lat="46.716700019314885" lon="12.332474514842033">
        <ele>1477.79</ele>
        <time>2023-03-12T12:12:07Z</time>
      </trkpt>
      <trkpt lat="46.716726087033749" lon="12.332405280321836">
        <ele>1477.6199999999999</ele>
        <time>2023-03-12T12:12:13Z</time>
      </trkpt>
      <trkpt lat="46.716749388724566" lon="12.332278043031693">
        <ele>1475.3699999999999</ele>
        <time>2023-03-12T12:12:25Z</time>
      </trkpt>
      <trkpt lat="46.716646123677492" lon="12.332196068018675">
        <ele>1472.48</ele>
        <time>2023-03-12T12:12:37Z</time>
      </trkpt>
      <trkpt lat="46.716602286323905" lon="12.332094646990299">
        <ele>1470.8900000000001</ele>
        <time>2023-03-12T12:12:46Z</time>
      </trkpt>
      <trkpt lat="46.716642519459128" lon="12.332002110779285">
        <ele>1469.27</ele>
        <time>2023-03-12T12:12:53Z</time>
      </trkpt>
      <trkpt lat="46.716674119234085" lon="12.331954669207335">
        <ele>1468.52</ele>
        <time>2023-03-12T12:12:57Z</time>
      </trkpt>
      <trkpt lat="46.716694487258792" lon="12.331921644508839">
        <ele>1467.22</ele>
        <time>2023-03-12T12:13:00Z</time>
      </trkpt>
      <trkpt lat="46.716709323227406" lon="12.33179859817028">
        <ele>1463.8099999999999</ele>
        <time>2023-03-12T12:13:08Z</time>
      </trkpt>
      <trkpt lat="46.716630700975657" lon="12.331651244312525">
        <ele>1459.26</ele>
        <time>2023-03-12T12:13:20Z</time>
      </trkpt>
      <trkpt lat="46.7165282741189" lon="12.331544877961278">
        <ele>1457.1300000000001</ele>
        <time>2023-03-12T12:13:31Z</time>
      </trkpt>
      <trkpt lat="46.716427356004715" lon="12.331500789150596">
        <ele>1455.8800000000001</ele>
        <time>2023-03-12T12:13:44Z</time>
      </trkpt>
      <trkpt lat="46.7163176368922" lon="12.331409594044089">
        <ele>1456.23</ele>
        <time>2023-03-12T12:13:55Z</time>
      </trkpt>
      <trkpt lat="46.716194003820419" lon="12.331427866593003">
        <ele>1452.47</ele>
        <time>2023-03-12T12:14:07Z</time>
      </trkpt>
      <trkpt lat="46.716085122898221" lon="12.331472793594003">
        <ele>1447.73</ele>
        <time>2023-03-12T12:14:18Z</time>
      </trkpt>
      <trkpt lat="46.716039106249809" lon="12.331471452489495">
        <ele>1449.28</ele>
        <time>2023-03-12T12:14:46Z</time>
      </trkpt>
      <trkpt lat="46.716009182855487" lon="12.33151713386178">
        <ele>1451.6099999999999</ele>
        <time>2023-03-12T12:18:04Z</time>
      </trkpt>
      <trkpt lat="46.716000800952315" lon="12.331536244601011">
        <ele>1451.8399999999999</ele>
        <time>2023-03-12T12:18:13Z</time>
      </trkpt>
      <trkpt lat="46.715893261134624" lon="12.331691645085812">
        <ele>1450.26</ele>
        <time>2023-03-12T12:18:26Z</time>
      </trkpt>
      <trkpt lat="46.715826457366347" lon="12.331865401938558">
        <ele>1447.0699999999999</ele>
        <time>2023-03-12T12:18:39Z</time>
      </trkpt>
      <trkpt lat="46.715797875076532" lon="12.331973779946566">
        <ele>1445.6600000000001</ele>
        <time>2023-03-12T12:18:47Z</time>
      </trkpt>
      <trkpt lat="46.715738363564014" lon="12.332120714709163">
        <ele>1442.6099999999999</ele>
        <time>2023-03-12T12:18:58Z</time>
      </trkpt>
      <trkpt lat="46.715668458491564" lon="12.332285838201642">
        <ele>1436.3</ele>
        <time>2023-03-12T12:19:11Z</time>
      </trkpt>
      <trkpt lat="46.715582208707929" lon="12.332463199272752">
        <ele>1432.2</ele>
        <time>2023-03-12T12:19:26Z</time>
      </trkpt>
      <trkpt lat="46.715578436851501" lon="12.332478538155556">
        <ele>1432.04</ele>
        <time>2023-03-12T12:19:27Z</time>
      </trkpt>
      <trkpt lat="46.715556560084224" lon="12.332536708563566">
        <ele>1431.1800000000001</ele>
        <time>2023-03-12T12:19:31Z</time>
      </trkpt>
      <trkpt lat="46.715525379404426" lon="12.332631591707468">
        <ele>1430.7</ele>
        <time>2023-03-12T12:19:45Z</time>
      </trkpt>
      <trkpt lat="46.715492270886898" lon="12.332640308886766">
        <ele>1432.1400000000001</ele>
        <time>2023-03-12T12:20:03Z</time>
      </trkpt>
      <trkpt lat="46.715474417433143" lon="12.332690851762891">
        <ele>1442.53</ele>
        <time>2023-03-12T12:21:46Z</time>
      </trkpt>
      <trkpt lat="46.715432005003095" lon="12.332712225615978">
        <ele>1443.8399999999999</ele>
        <time>2023-03-12T12:21:55Z</time>
      </trkpt>
      <trkpt lat="46.715418510138988" lon="12.332740388810635">
        <ele>1444.1600000000001</ele>
        <time>2023-03-12T12:21:57Z</time>
      </trkpt>
      <trkpt lat="46.715396801009774" lon="12.332774754613638">
        <ele>1444.54</ele>
        <time>2023-03-12T12:22:00Z</time>
      </trkpt>
      <trkpt lat="46.715326141566038" lon="12.33293853700161">
        <ele>1444.3499999999999</ele>
        <time>2023-03-12T12:22:12Z</time>
      </trkpt>
      <trkpt lat="46.715281968936324" lon="12.333049345761538">
        <ele>1444.1900000000001</ele>
        <time>2023-03-12T12:22:20Z</time>
      </trkpt>
      <trkpt lat="46.715241400524974" lon="12.333189239725471">
        <ele>1443.04</ele>
        <time>2023-03-12T12:22:30Z</time>
      </trkpt>
      <trkpt lat="46.715140230953693" lon="12.333371378481388">
        <ele>1440.51</ele>
        <time>2023-03-12T12:22:43Z</time>
      </trkpt>
      <trkpt lat="46.715118270367384" lon="12.333409264683723">
        <ele>1439.49</ele>
        <time>2023-03-12T12:22:46Z</time>
      </trkpt>
      <trkpt lat="46.71509069390595" lon="12.333452934399247">
        <ele>1439.01</ele>
        <time>2023-03-12T12:22:49Z</time>
      </trkpt>
      <trkpt lat="46.715035792440176" lon="12.333671115338802">
        <ele>1436.45</ele>
        <time>2023-03-12T12:23:02Z</time>
      </trkpt>
      <trkpt lat="46.714964965358377" lon="12.333805980160832">
        <ele>1436.76</ele>
        <time>2023-03-12T12:23:12Z</time>
      </trkpt>
      <trkpt lat="46.714937053620815" lon="12.333853086456656">
        <ele>1436.51</ele>
        <time>2023-03-12T12:23:16Z</time>
      </trkpt>
      <trkpt lat="46.714864801615477" lon="12.333964314311743">
        <ele>1436.3699999999999</ele>
        <time>2023-03-12T12:23:25Z</time>
      </trkpt>
      <trkpt lat="46.714816940948367" lon="12.334081241860986">
        <ele>1435.8800000000001</ele>
        <time>2023-03-12T12:23:35Z</time>
      </trkpt>
      <trkpt lat="46.714741420000792" lon="12.334197498857975">
        <ele>1433.6900000000001</ele>
        <time>2023-03-12T12:23:46Z</time>
      </trkpt>
      <trkpt lat="46.714698169380426" lon="12.33432088047266">
        <ele>1431.6400000000001</ele>
        <time>2023-03-12T12:23:55Z</time>
      </trkpt>
      <trkpt lat="46.714612590149045" lon="12.334466222673655">
        <ele>1431.0699999999999</ele>
        <time>2023-03-12T12:24:06Z</time>
      </trkpt>
      <trkpt lat="46.714598340913653" lon="12.33451341278851">
        <ele>1431.26</ele>
        <time>2023-03-12T12:24:09Z</time>
      </trkpt>
      <trkpt lat="46.714501697570086" lon="12.334600416943431">
        <ele>1431.3199999999999</ele>
        <time>2023-03-12T12:24:19Z</time>
      </trkpt>
      <trkpt lat="46.714475378394127" lon="12.334611229598522">
        <ele>1431.3</ele>
        <time>2023-03-12T12:24:22Z</time>
      </trkpt>
      <trkpt lat="46.714393403381109" lon="12.334698820486665">
        <ele>1430.8</ele>
        <time>2023-03-12T12:24:31Z</time>
      </trkpt>
      <trkpt lat="46.714292149990797" lon="12.33477870002389">
        <ele>1429.1900000000001</ele>
        <time>2023-03-12T12:24:42Z</time>
      </trkpt>
      <trkpt lat="46.714246300980449" lon="12.334845503792167">
        <ele>1427.5899999999999</ele>
        <time>2023-03-12T12:24:50Z</time>
      </trkpt>
      <trkpt lat="46.714092157781124" lon="12.334940554574132">
        <ele>1424.9400000000001</ele>
        <time>2023-03-12T12:25:06Z</time>
      </trkpt>
      <trkpt lat="46.713939271867275" lon="12.335031079128385">
        <ele>1419.3499999999999</ele>
        <time>2023-03-12T12:25:24Z</time>
      </trkpt>
      <trkpt lat="46.713863080367446" lon="12.335157478228211">
        <ele>1418.01</ele>
        <time>2023-03-12T12:25:36Z</time>
      </trkpt>
      <trkpt lat="46.713744979351759" lon="12.335314387455583">
        <ele>1415.9400000000001</ele>
        <time>2023-03-12T12:25:51Z</time>
      </trkpt>
      <trkpt lat="46.713660405948758" lon="12.335373060777783">
        <ele>1416.4200000000001</ele>
        <time>2023-03-12T12:26:00Z</time>
      </trkpt>
      <trkpt lat="46.713525038212538" lon="12.335500381886959">
        <ele>1415.72</ele>
        <time>2023-03-12T12:26:13Z</time>
      </trkpt>
      <trkpt lat="46.713470052927732" lon="12.335558803752065">
        <ele>1416.3299999999999</ele>
        <time>2023-03-12T12:26:19Z</time>
      </trkpt>
      <trkpt lat="46.713394867256284" lon="12.335664415732026">
        <ele>1416.5899999999999</ele>
        <time>2023-03-12T12:26:30Z</time>
      </trkpt>
      <trkpt lat="46.71332236379385" lon="12.335784193128347">
        <ele>1418.7</ele>
        <time>2023-03-12T12:26:42Z</time>
      </trkpt>
      <trkpt lat="46.713279783725739" lon="12.335848649963737">
        <ele>1418.4200000000001</ele>
        <time>2023-03-12T12:26:52Z</time>
      </trkpt>
      <trkpt lat="46.713258074596524" lon="12.335873879492283">
        <ele>1418.21</ele>
        <time>2023-03-12T12:26:55Z</time>
      </trkpt>
      <trkpt lat="46.71323049813509" lon="12.335943197831511">
        <ele>1417.4400000000001</ele>
        <time>2023-03-12T12:27:00Z</time>
      </trkpt>
      <trkpt lat="46.71317626722157" lon="12.336039254441857">
        <ele>1417.02</ele>
        <time>2023-03-12T12:27:10Z</time>
      </trkpt>
      <trkpt lat="46.713115414604545" lon="12.336128018796444">
        <ele>1417.77</ele>
        <time>2023-03-12T12:27:24Z</time>
      </trkpt>
      <trkpt lat="46.713045677170157" lon="12.336150649935007">
        <ele>1418</ele>
        <time>2023-03-12T12:27:39Z</time>
      </trkpt>
      <trkpt lat="46.713024219498038" lon="12.33616791665554">
        <ele>1418.0999999999999</ele>
        <time>2023-03-12T12:27:42Z</time>
      </trkpt>
      <trkpt lat="46.713011143729091" lon="12.336197169497609">
        <ele>1418.01</ele>
        <time>2023-03-12T12:27:44Z</time>
      </trkpt>
      <trkpt lat="46.712927408516407" lon="12.336296662688255">
        <ele>1416.4100000000001</ele>
        <time>2023-03-12T12:27:56Z</time>
      </trkpt>
      <trkpt lat="46.712850211188197" lon="12.336417781189084">
        <ele>1413.9400000000001</ele>
        <time>2023-03-12T12:28:10Z</time>
      </trkpt>
      <trkpt lat="46.712781814858317" lon="12.336529511958361">
        <ele>1411.05</ele>
        <time>2023-03-12T12:28:23Z</time>
      </trkpt>
      <trkpt lat="46.712734624743462" lon="12.336593046784401">
        <ele>1409.1800000000001</ele>
        <time>2023-03-12T12:28:30Z</time>
      </trkpt>
      <trkpt lat="46.71271207742393" lon="12.336622718721628">
        <ele>1408.4400000000001</ele>
        <time>2023-03-12T12:28:32Z</time>
      </trkpt>
      <trkpt lat="46.712584421038628" lon="12.336746100336313">
        <ele>1402.6700000000001</ele>
        <time>2023-03-12T12:28:48Z</time>
      </trkpt>
      <trkpt lat="46.712460117414594" lon="12.336901584640145">
        <ele>1396.6400000000001</ele>
        <time>2023-03-12T12:29:04Z</time>
      </trkpt>
      <trkpt lat="46.712352493777871" lon="12.336984146386385">
        <ele>1393.05</ele>
        <time>2023-03-12T12:29:19Z</time>
      </trkpt>
      <trkpt lat="46.712253587320447" lon="12.337031252682209">
        <ele>1387.5999999999999</ele>
        <time>2023-03-12T12:29:30Z</time>
      </trkpt>
      <trkpt lat="46.712126769125462" lon="12.337056901305914">
        <ele>1384.4300000000001</ele>
        <time>2023-03-12T12:29:43Z</time>
      </trkpt>
      <trkpt lat="46.711956951767206" lon="12.337190341204405">
        <ele>1376.47</ele>
        <time>2023-03-12T12:29:58Z</time>
      </trkpt>
      <trkpt lat="46.711878916248679" lon="12.337219258770347">
        <ele>1375.3199999999999</ele>
        <time>2023-03-12T12:30:03Z</time>
      </trkpt>
      <trkpt lat="46.711746230721474" lon="12.337380945682526">
        <ele>1372.53</ele>
        <time>2023-03-12T12:30:16Z</time>
      </trkpt>
      <trkpt lat="46.711677582934499" lon="12.337510865181684">
        <ele>1372.6500000000001</ele>
        <time>2023-03-12T12:30:25Z</time>
      </trkpt>
      <trkpt lat="46.711608096957207" lon="12.337593594565988">
        <ele>1371.6900000000001</ele>
        <time>2023-03-12T12:30:35Z</time>
      </trkpt>
      <trkpt lat="46.711566941812634" lon="12.337755700573325">
        <ele>1368.29</ele>
        <time>2023-03-12T12:30:47Z</time>
      </trkpt>
      <trkpt lat="46.71153299510479" lon="12.337961308658123">
        <ele>1368.1400000000001</ele>
        <time>2023-03-12T12:31:01Z</time>
      </trkpt>
      <trkpt lat="46.7115169018507" lon="12.338072620332241">
        <ele>1369.3599999999999</ele>
        <time>2023-03-12T12:31:10Z</time>
      </trkpt>
      <trkpt lat="46.711498713120818" lon="12.338120480999351">
        <ele>1369.8499999999999</ele>
        <time>2023-03-12T12:31:16Z</time>
      </trkpt>
      <trkpt lat="46.711478009819984" lon="12.338155098259449">
        <ele>1370.1500000000001</ele>
        <time>2023-03-12T12:31:19Z</time>
      </trkpt>
      <trkpt lat="46.711408020928502" lon="12.338320640847087">
        <ele>1372.02</ele>
        <time>2023-03-12T12:31:33Z</time>
      </trkpt>
      <trkpt lat="46.711393017321825" lon="12.338410327211022">
        <ele>1373.5599999999999</ele>
        <time>2023-03-12T12:31:38Z</time>
      </trkpt>
      <trkpt lat="46.711357394233346" lon="12.33853479847312">
        <ele>1375.1099999999999</ele>
        <time>2023-03-12T12:31:48Z</time>
      </trkpt>
      <trkpt lat="46.711299726739526" lon="12.338700760155916">
        <ele>1378.5599999999999</ele>
        <time>2023-03-12T12:32:00Z</time>
      </trkpt>
      <trkpt lat="46.71123594045639" lon="12.338882982730865">
        <ele>1381.1700000000001</ele>
        <time>2023-03-12T12:32:15Z</time>
      </trkpt>
      <trkpt lat="46.711200317367911" lon="12.338968310505152">
        <ele>1380.47</ele>
        <time>2023-03-12T12:32:22Z</time>
      </trkpt>
      <trkpt lat="46.711127478629351" lon="12.339117508381605">
        <ele>1380.0799999999999</ele>
        <time>2023-03-12T12:32:34Z</time>
      </trkpt>
      <trkpt lat="46.711046928539872" lon="12.339234855026007">
        <ele>1379.6600000000001</ele>
        <time>2023-03-12T12:32:48Z</time>
      </trkpt>
      <trkpt lat="46.710989344865084" lon="12.339365612715483">
        <ele>1379.47</ele>
        <time>2023-03-12T12:33:00Z</time>
      </trkpt>
      <trkpt lat="46.710951626300812" lon="12.339517325162888">
        <ele>1380.46</ele>
        <time>2023-03-12T12:33:11Z</time>
      </trkpt>
      <trkpt lat="46.710940897464752" lon="12.339600725099444">
        <ele>1381.8499999999999</ele>
        <time>2023-03-12T12:33:17Z</time>
      </trkpt>
      <trkpt lat="46.710910219699144" lon="12.3397221788764">
        <ele>1383.29</ele>
        <time>2023-03-12T12:33:28Z</time>
      </trkpt>
      <trkpt lat="46.71089094132185" lon="12.339843129739165">
        <ele>1383.4000000000001</ele>
        <time>2023-03-12T12:33:41Z</time>
      </trkpt>
      <trkpt lat="46.710888342931867" lon="12.339856121689081">
        <ele>1383.3900000000001</ele>
        <time>2023-03-12T12:33:42Z</time>
      </trkpt>
      <trkpt lat="46.710872417315841" lon="12.339875819161534">
        <ele>1383.3900000000001</ele>
        <time>2023-03-12T12:33:44Z</time>
      </trkpt>
      <trkpt lat="46.710857497528195" lon="12.339931474998593">
        <ele>1383.6400000000001</ele>
        <time>2023-03-12T12:33:48Z</time>
      </trkpt>
      <trkpt lat="46.710815001279116" lon="12.3400520067662">
        <ele>1381.96</ele>
        <time>2023-03-12T12:33:57Z</time>
      </trkpt>
      <trkpt lat="46.710731852799654" lon="12.34013507142663">
        <ele>1379.6700000000001</ele>
        <time>2023-03-12T12:34:09Z</time>
      </trkpt>
      <trkpt lat="46.710606459528208" lon="12.340210424736142">
        <ele>1375.47</ele>
        <time>2023-03-12T12:34:24Z</time>
      </trkpt>
      <trkpt lat="46.710514510050416" lon="12.340285861864686">
        <ele>1371.3900000000001</ele>
        <time>2023-03-12T12:34:34Z</time>
      </trkpt>
      <trkpt lat="46.710481820628047" lon="12.3403524979949">
        <ele>1370.05</ele>
        <time>2023-03-12T12:34:38Z</time>
      </trkpt>
      <trkpt lat="46.71044334769249" lon="12.340425169095397">
        <ele>1368.73</ele>
        <time>2023-03-12T12:34:43Z</time>
      </trkpt>
      <trkpt lat="46.710357265546918" lon="12.340544108301401">
        <ele>1365.79</ele>
        <time>2023-03-12T12:34:54Z</time>
      </trkpt>
      <trkpt lat="46.710319044068456" lon="12.340612756088376">
        <ele>1367.22</ele>
        <time>2023-03-12T12:35:06Z</time>
      </trkpt>
      <trkpt lat="46.710244193673134" lon="12.340746447443962">
        <ele>1369.25</ele>
        <time>2023-03-12T12:35:22Z</time>
      </trkpt>
      <trkpt lat="46.71016339212656" lon="12.340898746624589">
        <ele>1367.8199999999999</ele>
        <time>2023-03-12T12:35:32Z</time>
      </trkpt>
      <trkpt lat="46.710118046030402" lon="12.341012572869658">
        <ele>1366.8099999999999</ele>
        <time>2023-03-12T12:35:39Z</time>
      </trkpt>
      <trkpt lat="46.710038585588336" lon="12.341180797666311">
        <ele>1363.4200000000001</ele>
        <time>2023-03-12T12:35:50Z</time>
      </trkpt>
      <trkpt lat="46.709974464029074" lon="12.34127358533442">
        <ele>1361.21</ele>
        <time>2023-03-12T12:35:59Z</time>
      </trkpt>
      <trkpt lat="46.709905816242099" lon="12.34135614708066">
        <ele>1359.0599999999999</ele>
        <time>2023-03-12T12:36:08Z</time>
      </trkpt>
      <trkpt lat="46.709785033017397" lon="12.341537615284324">
        <ele>1357.5999999999999</ele>
        <time>2023-03-12T12:36:19Z</time>
      </trkpt>
      <trkpt lat="46.709636924788356" lon="12.341672396287322">
        <ele>1357.53</ele>
        <time>2023-03-12T12:36:31Z</time>
      </trkpt>
      <trkpt lat="46.709537683054805" lon="12.341757472604513">
        <ele>1358.76</ele>
        <time>2023-03-12T12:36:41Z</time>
      </trkpt>
      <trkpt lat="46.709433915093541" lon="12.341789407655597">
        <ele>1357.1500000000001</ele>
        <time>2023-03-12T12:36:50Z</time>
      </trkpt>
      <trkpt lat="46.709325788542628" lon="12.341812206432223">
        <ele>1356.8</ele>
        <time>2023-03-12T12:36:59Z</time>
      </trkpt>
      <trkpt lat="46.709306593984365" lon="12.341832155361772">
        <ele>1356.8199999999999</ele>
        <time>2023-03-12T12:37:01Z</time>
      </trkpt>
      <trkpt lat="46.709260158240795" lon="12.34184724278748">
        <ele>1356.77</ele>
        <time>2023-03-12T12:37:05Z</time>
      </trkpt>
      <trkpt lat="46.709185894578695" lon="12.341878088191152">
        <ele>1356.8399999999999</ele>
        <time>2023-03-12T12:37:11Z</time>
      </trkpt>
      <trkpt lat="46.709141386672854" lon="12.341905161738396">
        <ele>1357.0799999999999</ele>
        <time>2023-03-12T12:37:15Z</time>
      </trkpt>
      <trkpt lat="46.709043150767684" lon="12.341968780383468">
        <ele>1356.99</ele>
        <time>2023-03-12T12:37:24Z</time>
      </trkpt>
      <trkpt lat="46.708878111094236" lon="12.342034662142396">
        <ele>1359.6400000000001</ele>
        <time>2023-03-12T12:37:39Z</time>
      </trkpt>
      <trkpt lat="46.708775516599417" lon="12.342175981029868">
        <ele>1377.49</ele>
        <time>2023-03-12T12:40:45Z</time>
      </trkpt>
      <trkpt lat="46.708803176879883" lon="12.34213843010366">
        <ele>1378.5899999999999</ele>
        <time>2023-03-12T12:42:16Z</time>
      </trkpt>
      <trkpt lat="46.708782473579049" lon="12.342164246365428">
        <ele>1377.54</ele>
        <time>2023-03-12T12:43:07Z</time>
      </trkpt>
      <trkpt lat="46.708780461922288" lon="12.342164078727365">
        <ele>1377.1199999999999</ele>
        <time>2023-03-12T12:43:49Z</time>
      </trkpt>
      <trkpt lat="46.708765961229801" lon="12.342201881110668">
        <ele>1376.01</ele>
        <time>2023-03-12T12:45:44Z</time>
      </trkpt>
      <trkpt lat="46.708745509386063" lon="12.342260302975774">
        <ele>1375.8099999999999</ele>
        <time>2023-03-12T12:45:54Z</time>
      </trkpt>
      <trkpt lat="46.708735786378384" lon="12.342287376523018">
        <ele>1375.73</ele>
        <time>2023-03-12T12:45:56Z</time>
      </trkpt>
      <trkpt lat="46.708635790273547" lon="12.342434646561742">
        <ele>1373.8599999999999</ele>
        <time>2023-03-12T12:46:12Z</time>
      </trkpt>
      <trkpt lat="46.708516599610448" lon="12.342352252453566">
        <ele>1372.9200000000001</ele>
        <time>2023-03-12T12:46:28Z</time>
      </trkpt>
      <trkpt lat="46.708462033420801" lon="12.34235200099647">
        <ele>1372.6199999999999</ele>
        <time>2023-03-12T12:46:34Z</time>
      </trkpt>
      <trkpt lat="46.708428421989083" lon="12.342376057058573">
        <ele>1371.8299999999999</ele>
        <time>2023-03-12T12:46:38Z</time>
      </trkpt>
      <trkpt lat="46.708317864686251" lon="12.342528188601136">
        <ele>1371.6600000000001</ele>
        <time>2023-03-12T12:46:53Z</time>
      </trkpt>
      <trkpt lat="46.708247289061546" lon="12.342649893835187">
        <ele>1370.8</ele>
        <time>2023-03-12T12:47:05Z</time>
      </trkpt>
      <trkpt lat="46.708147879689932" lon="12.342754499986768">
        <ele>1369.5599999999999</ele>
        <time>2023-03-12T12:47:18Z</time>
      </trkpt>
      <trkpt lat="46.708114771172404" lon="12.342785513028502">
        <ele>1368.8900000000001</ele>
        <time>2023-03-12T12:47:22Z</time>
      </trkpt>
      <trkpt lat="46.708093313500285" lon="12.342798421159387">
        <ele>1368.52</ele>
        <time>2023-03-12T12:47:24Z</time>
      </trkpt>
      <trkpt lat="46.707983342930675" lon="12.342896405607462">
        <ele>1367.55</ele>
        <time>2023-03-12T12:47:37Z</time>
      </trkpt>
      <trkpt lat="46.707835402339697" lon="12.343067396432161">
        <ele>1365.3699999999999</ele>
        <time>2023-03-12T12:47:55Z</time>
      </trkpt>
      <trkpt lat="46.707741357386112" lon="12.343177618458867">
        <ele>1363.98</ele>
        <time>2023-03-12T12:48:07Z</time>
      </trkpt>
      <trkpt lat="46.707647312432528" lon="12.343287253752351">
        <ele>1362.6500000000001</ele>
        <time>2023-03-12T12:48:20Z</time>
      </trkpt>
      <trkpt lat="46.707495432347059" lon="12.343468386679888">
        <ele>1360.0599999999999</ele>
        <time>2023-03-12T12:48:38Z</time>
      </trkpt>
      <trkpt lat="46.707328632473946" lon="12.34365513548255">
        <ele>1358.1300000000001</ele>
        <time>2023-03-12T12:48:56Z</time>
      </trkpt>
      <trkpt lat="46.707189073786139" lon="12.343796202912927">
        <ele>1354.95</ele>
        <time>2023-03-12T12:49:11Z</time>
      </trkpt>
      <trkpt lat="46.707124449312687" lon="12.343823779374361">
        <ele>1354.1400000000001</ele>
        <time>2023-03-12T12:49:22Z</time>
      </trkpt>
      <trkpt lat="46.707033002749085" lon="12.343871388584375">
        <ele>1354.3299999999999</ele>
        <time>2023-03-12T12:49:30Z</time>
      </trkpt>
      <trkpt lat="46.706873578950763" lon="12.343966607004404">
        <ele>1353.4100000000001</ele>
        <time>2023-03-12T12:49:45Z</time>
      </trkpt>
      <trkpt lat="46.706754053011537" lon="12.344072051346302">
        <ele>1352.21</ele>
        <time>2023-03-12T12:49:58Z</time>
      </trkpt>
      <trkpt lat="46.706612063571811" lon="12.344282353296876">
        <ele>1350.8800000000001</ele>
        <time>2023-03-12T12:50:16Z</time>
      </trkpt>
      <trkpt lat="46.706468062475324" lon="12.344509586691856">
        <ele>1349.6600000000001</ele>
        <time>2023-03-12T12:50:34Z</time>
      </trkpt>
      <trkpt lat="46.706315260380507" lon="12.344813095405698">
        <ele>1349.1199999999999</ele>
        <time>2023-03-12T12:50:55Z</time>
      </trkpt>
      <trkpt lat="46.706212079152465" lon="12.345050638541579">
        <ele>1348.5699999999999</ele>
        <time>2023-03-12T12:51:11Z</time>
      </trkpt>
      <trkpt lat="46.706096157431602" lon="12.345271753147244">
        <ele>1348.1700000000001</ele>
        <time>2023-03-12T12:51:27Z</time>
      </trkpt>
      <trkpt lat="46.705964896827936" lon="12.345490269362926">
        <ele>1347.78</ele>
        <time>2023-03-12T12:51:44Z</time>
      </trkpt>
      <trkpt lat="46.705933967605233" lon="12.345527233555913">
        <ele>1347.4100000000001</ele>
        <time>2023-03-12T12:51:55Z</time>
      </trkpt>
      <trkpt lat="46.705838581547141" lon="12.345721023157239">
        <ele>1347.1300000000001</ele>
        <time>2023-03-12T12:52:10Z</time>
      </trkpt>
      <trkpt lat="46.70573690906167" lon="12.345922607928514">
        <ele>1346.75</ele>
        <time>2023-03-12T12:52:25Z</time>
      </trkpt>
      <trkpt lat="46.705645211040974" lon="12.346123103052378">
        <ele>1346.72</ele>
        <time>2023-03-12T12:52:39Z</time>
      </trkpt>
      <trkpt lat="46.705575222149491" lon="12.346262577921152">
        <ele>1346.0799999999999</ele>
        <time>2023-03-12T12:52:49Z</time>
      </trkpt>
      <trkpt lat="46.705450415611267" lon="12.346480675041676">
        <ele>1345.1700000000001</ele>
        <time>2023-03-12T12:53:05Z</time>
      </trkpt>
      <trkpt lat="46.705293171107769" lon="12.346733473241329">
        <ele>1344.21</ele>
        <time>2023-03-12T12:53:24Z</time>
      </trkpt>
      <trkpt lat="46.705161826685071" lon="12.346907984465361">
        <ele>1343.05</ele>
        <time>2023-03-12T12:53:38Z</time>
      </trkpt>
      <trkpt lat="46.704971557483077" lon="12.347077382728457">
        <ele>1341.99</ele>
        <time>2023-03-12T12:53:56Z</time>
      </trkpt>
      <trkpt lat="46.704788915812969" lon="12.347212750464678">
        <ele>1343.0599999999999</ele>
        <time>2023-03-12T12:54:12Z</time>
      </trkpt>
      <trkpt lat="46.704624462872744" lon="12.34738533385098">
        <ele>1343.75</ele>
        <time>2023-03-12T12:54:28Z</time>
      </trkpt>
      <trkpt lat="46.704517509788275" lon="12.347593624144793">
        <ele>1341.46</ele>
        <time>2023-03-12T12:54:43Z</time>
      </trkpt>
      <trkpt lat="46.704435367137194" lon="12.347798477858305">
        <ele>1340.29</ele>
        <time>2023-03-12T12:54:56Z</time>
      </trkpt>
      <trkpt lat="46.704330006614327" lon="12.348017077893019">
        <ele>1338.4000000000001</ele>
        <time>2023-03-12T12:55:11Z</time>
      </trkpt>
      <trkpt lat="46.704218946397305" lon="12.348203742876649">
        <ele>1336.5699999999999</ele>
        <time>2023-03-12T12:55:25Z</time>
      </trkpt>
      <trkpt lat="46.70405114069581" lon="12.348475651815534">
        <ele>1336.3199999999999</ele>
        <time>2023-03-12T12:55:45Z</time>
      </trkpt>
      <trkpt lat="46.703916611149907" lon="12.348674219101667">
        <ele>1334.6199999999999</ele>
        <time>2023-03-12T12:56:01Z</time>
      </trkpt>
      <trkpt lat="46.703799767419696" lon="12.348836408928037">
        <ele>1334.5699999999999</ele>
        <time>2023-03-12T12:56:15Z</time>
      </trkpt>
      <trkpt lat="46.703648390248418" lon="12.349018547683954">
        <ele>1336.29</ele>
        <time>2023-03-12T12:56:31Z</time>
      </trkpt>
      <trkpt lat="46.703540179878473" lon="12.349172942340374">
        <ele>1335.76</ele>
        <time>2023-03-12T12:56:44Z</time>
      </trkpt>
      <trkpt lat="46.703437920659781" lon="12.349355835467577">
        <ele>1335.26</ele>
        <time>2023-03-12T12:56:58Z</time>
      </trkpt>
      <trkpt lat="46.703333230689168" lon="12.349480809643865">
        <ele>1334.3900000000001</ele>
        <time>2023-03-12T12:57:11Z</time>
      </trkpt>
      <trkpt lat="46.703201970085502" lon="12.34960419125855">
        <ele>1333.28</ele>
        <time>2023-03-12T12:57:25Z</time>
      </trkpt>
      <trkpt lat="46.703034918755293" lon="12.349828407168388">
        <ele>1331.4200000000001</ele>
        <time>2023-03-12T12:57:43Z</time>
      </trkpt>
      <trkpt lat="46.702928971499205" lon="12.350019514560699">
        <ele>1329.76</ele>
        <time>2023-03-12T12:57:57Z</time>
      </trkpt>
      <trkpt lat="46.70278262346983" lon="12.350233253091574">
        <ele>1327.24</ele>
        <time>2023-03-12T12:58:14Z</time>
      </trkpt>
      <trkpt lat="46.702599143609405" lon="12.350351605564356">
        <ele>1325.55</ele>
        <time>2023-03-12T12:58:30Z</time>
      </trkpt>
      <trkpt lat="46.702438043430448" lon="12.350562326610088">
        <ele>1324.6600000000001</ele>
        <time>2023-03-12T12:58:49Z</time>
      </trkpt>
      <trkpt lat="46.702272249385715" lon="12.350791990756989">
        <ele>1323.8800000000001</ele>
        <time>2023-03-12T12:59:08Z</time>
      </trkpt>
      <trkpt lat="46.702188597992063" lon="12.350924173370004">
        <ele>1327.21</ele>
        <time>2023-03-12T12:59:59Z</time>
      </trkpt>
      <trkpt lat="46.702162614092231" lon="12.350919982418418">
        <ele>1327.95</ele>
        <time>2023-03-12T13:00:12Z</time>
      </trkpt>
      <trkpt lat="46.70214056968689" lon="12.350902212783694">
        <ele>1327.8800000000001</ele>
        <time>2023-03-12T13:00:15Z</time>
      </trkpt>
      <trkpt lat="46.702077621594071" lon="12.350858207792044">
        <ele>1327.23</ele>
        <time>2023-03-12T13:00:23Z</time>
      </trkpt>
      <trkpt lat="46.701982403174043" lon="12.350705321878195">
        <ele>1325.9200000000001</ele>
        <time>2023-03-12T13:00:36Z</time>
      </trkpt>
      <trkpt lat="46.701870672404766" lon="12.350594513118267">
        <ele>1323.53</ele>
        <time>2023-03-12T13:00:48Z</time>
      </trkpt>
      <trkpt lat="46.701828259974718" lon="12.350519662722945">
        <ele>1320.26</ele>
        <time>2023-03-12T13:01:00Z</time>
      </trkpt>
      <trkpt lat="46.701783165335655" lon="12.350526954978704">
        <ele>1319.1900000000001</ele>
        <time>2023-03-12T13:01:18Z</time>
      </trkpt>
      <trkpt lat="46.701751733198762" lon="12.350597782060504">
        <ele>1318.48</ele>
        <time>2023-03-12T13:01:34Z</time>
      </trkpt>
      <trkpt lat="46.701653581112623" lon="12.35062544234097">
        <ele>1316.28</ele>
        <time>2023-03-12T13:01:46Z</time>
      </trkpt>
      <trkpt lat="46.701562972739339" lon="12.350610941648483">
        <ele>1315.03</ele>
        <time>2023-03-12T13:01:58Z</time>
      </trkpt>
      <trkpt lat="46.701481333002448" lon="12.350687468424439">
        <ele>1310.24</ele>
        <time>2023-03-12T13:02:11Z</time>
      </trkpt>
      <trkpt lat="46.701446380466223" lon="12.350684031844139">
        <ele>1309.5599999999999</ele>
        <time>2023-03-12T13:02:14Z</time>
      </trkpt>
      <trkpt lat="46.70135049149394" lon="12.350703645497561">
        <ele>1310.6500000000001</ele>
        <time>2023-03-12T13:02:25Z</time>
      </trkpt>
      <trkpt lat="46.70125326141715" lon="12.350626951083541">
        <ele>1313.77</ele>
        <time>2023-03-12T13:02:39Z</time>
      </trkpt>
      <trkpt lat="46.70124395750463" lon="12.350615048781037">
        <ele>1314.1600000000001</ele>
        <time>2023-03-12T13:02:55Z</time>
      </trkpt>
    </trkseg>
  </trk>

</gpx>